ftp/pub/palmer/observations_modified/2016/November/AR161123_AWS2.txt

Download

Sample DateTime	Unit Id	WS Avg 2min	WD Avg 2min	WGS 10min	WGD 10min	Air Temp	Rel Humidity	Dew Point	Pyranometer	Quantum	Air Pressure	Snow Level	Rainfall	PW Current	Visibility	CBase 1	CBase 2	CBase 3	Vert Vis
2016/11/23 00:00:00	AWS2	12.33	27	15.33	33	M	M	M	NA	NA	985.1	NA	NA		M	NA	NA	NA	NA
2016/11/23 00:01:00	AWS2	11.34	25	15.33	33	M	M	M	NA	NA	985.4	NA	NA		M	NA	NA	NA	NA
2016/11/23 00:02:00	AWS2	11.56	26	15.33	33	M	M	M	NA	NA	985.2	NA	NA		M	NA	NA	NA	NA
2016/11/23 00:03:00	AWS2	11.27	27	15.33	33	M	M	M	NA	NA	985.8	NA	NA		M	NA	NA	NA	NA
2016/11/23 00:04:00	AWS2	10.27	29	15.33	33	M	M	M	NA	NA	985.4	NA	NA		M	NA	NA	NA	NA
2016/11/23 00:05:00	AWS2	10.11	32	15.33	33	M	M	M	NA	NA	984.7	NA	NA		M	NA	NA	NA	NA
2016/11/23 00:06:00	AWS2	9.48	32	15.33	33	M	M	M	NA	NA	985.2	NA	NA		M	NA	NA	NA	NA
2016/11/23 00:07:00	AWS2	9.71	29	15.33	33	M	M	M	NA	NA	984.7	NA	NA		M	NA	NA	NA	NA
2016/11/23 00:08:00	AWS2	10.72	30	15.33	33	M	M	M	NA	NA	984.8	NA	NA		M	NA	NA	NA	NA
2016/11/23 00:09:00	AWS2	10.60	30	13.17	29	M	M	M	NA	NA	985.5	NA	NA		M	NA	NA	NA	NA
2016/11/23 00:10:00	AWS2	10.07	28	13.17	29	M	M	M	NA	NA	985.0	NA	NA		M	NA	NA	NA	NA
2016/11/23 00:11:00	AWS2	9.76	33	13.17	29	M	M	M	NA	NA	985.1	NA	NA		M	NA	NA	NA	NA
2016/11/23 00:12:00	AWS2	11.49	31	14.82	24	M	M	M	NA	NA	984.3	NA	NA		M	NA	NA	NA	NA
2016/11/23 00:13:00	AWS2	12.62	29	14.82	24	M	M	M	NA	NA	984.2	NA	NA		M	NA	NA	NA	NA
2016/11/23 00:14:00	AWS2	12.19	30	14.82	24	M	M	M	NA	NA	984.0	NA	NA		M	NA	NA	NA	NA
2016/11/23 00:15:00	AWS2	12.17	31	14.82	24	M	M	M	NA	NA	984.8	NA	NA		M	NA	NA	NA	NA
2016/11/23 00:16:00	AWS2	11.28	28	14.82	24	M	M	M	NA	NA	984.6	NA	NA		M	NA	NA	NA	NA
2016/11/23 00:17:00	AWS2	10.11	22	14.82	24	M	M	M	NA	NA	984.6	NA	NA		M	NA	NA	NA	NA
2016/11/23 00:18:00	AWS2	9.77	23	14.82	24	M	M	M	NA	NA	984.3	NA	NA		M	NA	NA	NA	NA
2016/11/23 00:19:00	AWS2	10.50	21	14.82	24	M	M	M	NA	NA	984.5	NA	NA		M	NA	NA	NA	NA
2016/11/23 00:20:00	AWS2	10.81	26	14.82	24	M	M	M	NA	NA	983.9	NA	NA		M	NA	NA	NA	NA
2016/11/23 00:21:00	AWS2	11.24	33	14.82	24	M	M	M	NA	NA	983.4	NA	NA		M	NA	NA	NA	NA
2016/11/23 00:22:00	AWS2	11.43	33	14.82	24	M	M	M	NA	NA	983.6	NA	NA		M	NA	NA	NA	NA
2016/11/23 00:23:00	AWS2	11.74	33	17.44	41	M	M	M	NA	NA	983.3	NA	NA		M	NA	NA	NA	NA
2016/11/23 00:24:00	AWS2	13.46	36	17.44	41	M	M	M	NA	NA	984.1	NA	NA		M	NA	NA	NA	NA
2016/11/23 00:25:00	AWS2	14.93	39	17.44	42	M	M	M	NA	NA	983.6	NA	NA		M	NA	NA	NA	NA
2016/11/23 00:26:00	AWS2	14.69	33	17.44	42	M	M	M	NA	NA	984.2	NA	NA		M	NA	NA	NA	NA
2016/11/23 00:27:00	AWS2	12.62	28	17.44	42	M	M	M	NA	NA	984.8	NA	NA		M	NA	NA	NA	NA
2016/11/23 00:28:00	AWS2	11.23	31	17.44	42	M	M	M	NA	NA	984.2	NA	NA		M	NA	NA	NA	NA
2016/11/23 00:29:00	AWS2	11.39	37	17.44	42	M	M	M	NA	NA	984.7	NA	NA		M	NA	NA	NA	NA
2016/11/23 00:30:00	AWS2	12.18	41	17.44	42	M	M	M	NA	NA	984.7	NA	NA		M	NA	NA	NA	NA
2016/11/23 00:31:00	AWS2	12.55	35	17.44	42	M	M	M	NA	NA	984.7	NA	NA		M	NA	NA	NA	NA
2016/11/23 00:32:00	AWS2	11.02	34	17.44	42	M	M	M	NA	NA	984.1	NA	NA		M	NA	NA	NA	NA
2016/11/23 00:33:00	AWS2	10.47	40	17.44	42	M	M	M	NA	NA	984.4	NA	NA		M	NA	NA	NA	NA
2016/11/23 00:34:00	AWS2	13.25	32	19.45	11	M	M	M	NA	NA	983.7	NA	NA		M	NA	NA	NA	NA
2016/11/23 00:35:00	AWS2	13.19	31	19.45	11	M	M	M	NA	NA	984.5	NA	NA		M	NA	NA	NA	NA
2016/11/23 00:36:00	AWS2	10.74	35	19.45	11	M	M	M	NA	NA	984.3	NA	NA		M	NA	NA	NA	NA
2016/11/23 00:37:00	AWS2	10.67	31	19.45	11	M	M	M	NA	NA	983.8	NA	NA		M	NA	NA	NA	NA
2016/11/23 00:38:00	AWS2	10.32	32	19.45	11	M	M	M	NA	NA	984.8	NA	NA		M	NA	NA	NA	NA
2016/11/23 00:39:00	AWS2	11.01	37	19.45	11	M	M	M	NA	NA	984.0	NA	NA		M	NA	NA	NA	NA
2016/11/23 00:40:00	AWS2	11.70	36	19.45	11	M	M	M	NA	NA	984.7	NA	NA		M	NA	NA	NA	NA
2016/11/23 00:41:00	AWS2	10.80	31	19.45	11	M	M	M	NA	NA	984.5	NA	NA		M	NA	NA	NA	NA
2016/11/23 00:42:00	AWS2	11.73	28	19.45	11	M	M	M	NA	NA	984.6	NA	NA		M	NA	NA	NA	NA
2016/11/23 00:43:00	AWS2	12.43	21	19.45	11	M	M	M	NA	NA	984.4	NA	NA		M	NA	NA	NA	NA
2016/11/23 00:44:00	AWS2	11.25	18	14.76	54	M	M	M	NA	NA	985.2	NA	NA		M	NA	NA	NA	NA
2016/11/23 00:45:00	AWS2	10.41	23	14.76	54	M	M	M	NA	NA	985.0	NA	NA		M	NA	NA	NA	NA
2016/11/23 00:46:00	AWS2	10.63	30	14.76	54	M	M	M	NA	NA	984.9	NA	NA		M	NA	NA	NA	NA
2016/11/23 00:47:00	AWS2	11.11	34	14.76	54	M	M	M	NA	NA	984.6	NA	NA		M	NA	NA	NA	NA
2016/11/23 00:48:00	AWS2	11.42	30	14.76	54	M	M	M	NA	NA	984.7	NA	NA		M	NA	NA	NA	NA
2016/11/23 00:49:00	AWS2	12.80	26	15.28	19	M	M	M	NA	NA	984.3	NA	NA		M	NA	NA	NA	NA
2016/11/23 00:50:00	AWS2	13.58	24	16.20	27	M	M	M	NA	NA	983.8	NA	NA		M	NA	NA	NA	NA
2016/11/23 00:51:00	AWS2	13.76	25	16.87	31	M	M	M	NA	NA	983.8	NA	NA		M	NA	NA	NA	NA
2016/11/23 00:52:00	AWS2	14.80	28	19.70	26	M	M	M	NA	NA	983.6	NA	NA		M	NA	NA	NA	NA
2016/11/23 00:53:00	AWS2	15.30	28	19.70	26	M	M	M	NA	NA	983.6	NA	NA		M	NA	NA	NA	NA
2016/11/23 00:54:00	AWS2	15.56	25	19.70	26	M	M	M	NA	NA	983.2	NA	NA		M	NA	NA	NA	NA
2016/11/23 00:55:00	AWS2	14.69	23	19.70	26	M	M	M	NA	NA	983.5	NA	NA		M	NA	NA	NA	NA
2016/11/23 00:56:00	AWS2	13.37	33	19.70	26	M	M	M	NA	NA	983.6	NA	NA		M	NA	NA	NA	NA
2016/11/23 00:57:00	AWS2	13.48	36	19.70	26	M	M	M	NA	NA	983.3	NA	NA		M	NA	NA	NA	NA
2016/11/23 00:58:00	AWS2	13.72	31	19.70	26	M	M	M	NA	NA	983.7	NA	NA		M	NA	NA	NA	NA
2016/11/23 00:59:00	AWS2	12.90	32	19.70	26	M	M	M	NA	NA	983.7	NA	NA		M	NA	NA	NA	NA
2016/11/23 01:00:00	AWS2	13.08	28	19.70	26	M	M	M	NA	NA	982.8	NA	NA		M	NA	NA	NA	NA
2016/11/23 01:01:00	AWS2	13.36	25	19.70	26	M	M	M	NA	NA	983.0	NA	NA		M	NA	NA	NA	NA
2016/11/23 01:02:00	AWS2	11.82	30	17.44	44	M	M	M	NA	NA	983.3	NA	NA		M	NA	NA	NA	NA
2016/11/23 01:03:00	AWS2	10.65	29	16.98	27	M	M	M	NA	NA	983.7	NA	NA		M	NA	NA	NA	NA
2016/11/23 01:04:00	AWS2	10.63	23	16.62	26	M	M	M	NA	NA	984.2	NA	NA		M	NA	NA	NA	NA
2016/11/23 01:05:00	AWS2	10.43	27	16.62	26	M	M	M	NA	NA	983.7	NA	NA		M	NA	NA	NA	NA
2016/11/23 01:06:01	AWS2	11.91	40	16.62	26	M	M	M	NA	NA	983.8	NA	NA		M	NA	NA	NA	NA
2016/11/23 01:07:01	AWS2	12.47	35	16.62	26	M	M	M	NA	NA	984.0	NA	NA		M	NA	NA	NA	NA
2016/11/23 01:08:00	AWS2	10.82	25	16.62	26	M	M	M	NA	NA	983.7	NA	NA		M	NA	NA	NA	NA
2016/11/23 01:09:00	AWS2	11.10	29	16.62	26	M	M	M	NA	NA	983.4	NA	NA		M	NA	NA	NA	NA
2016/11/23 01:10:00	AWS2	13.09	29	16.36	34	M	M	M	NA	NA	983.7	NA	NA		M	NA	NA	NA	NA
2016/11/23 01:11:01	AWS2	13.63	34	16.87	28	M	M	M	NA	NA	984.0	NA	NA		M	NA	NA	NA	NA
2016/11/23 01:12:00	AWS2	11.91	40	16.87	28	M	M	M	NA	NA	983.7	NA	NA		M	NA	NA	NA	NA
2016/11/23 01:13:00	AWS2	10.49	41	16.87	28	M	M	M	NA	NA	984.4	NA	NA		M	NA	NA	NA	NA
2016/11/23 01:14:00	AWS2	9.92	38	16.87	28	M	M	M	NA	NA	984.7	NA	NA		M	NA	NA	NA	NA
2016/11/23 01:15:00	AWS2	10.85	43	16.87	28	M	M	M	NA	NA	983.5	NA	NA		M	NA	NA	NA	NA
2016/11/23 01:16:00	AWS2	11.67	41	16.87	28	M	M	M	NA	NA	984.1	NA	NA		M	NA	NA	NA	NA
2016/11/23 01:17:00	AWS2	11.51	33	16.87	28	M	M	M	NA	NA	984.0	NA	NA		M	NA	NA	NA	NA
2016/11/23 01:18:01	AWS2	11.24	34	16.87	28	M	M	M	NA	NA	984.3	NA	NA		M	NA	NA	NA	NA
2016/11/23 01:19:01	AWS2	10.15	39	16.87	28	M	M	M	NA	NA	984.8	NA	NA		M	NA	NA	NA	NA
2016/11/23 01:20:01	AWS2	9.31	42	16.87	28	M	M	M	NA	NA	984.1	NA	NA		M	NA	NA	NA	NA
2016/11/23 01:21:01	AWS2	10.39	44	14.92	39	M	M	M	NA	NA	983.3	NA	NA		M	NA	NA	NA	NA
2016/11/23 01:22:01	AWS2	11.35	44	14.92	39	M	M	M	NA	NA	984.1	NA	NA		M	NA	NA	NA	NA
2016/11/23 01:23:01	AWS2	11.34	45	14.92	39	M	M	M	NA	NA	984.0	NA	NA		M	NA	NA	NA	NA
2016/11/23 01:24:01	AWS2	11.21	48	14.92	39	M	M	M	NA	NA	983.8	NA	NA		M	NA	NA	NA	NA
2016/11/23 01:25:01	AWS2	9.87	41	14.92	39	M	M	M	NA	NA	984.1	NA	NA		M	NA	NA	NA	NA
2016/11/23 01:26:01	AWS2	9.90	34	14.92	39	M	M	M	NA	NA	983.9	NA	NA		M	NA	NA	NA	NA
2016/11/23 01:27:01	AWS2	11.01	32	14.92	39	M	M	M	NA	NA	983.5	NA	NA		M	NA	NA	NA	NA
2016/11/23 01:28:01	AWS2	10.14	31	14.92	39	M	M	M	NA	NA	984.3	NA	NA		M	NA	NA	NA	NA
2016/11/23 01:29:01	AWS2	9.03	33	14.92	39	M	M	M	NA	NA	983.6	NA	NA		M	NA	NA	NA	NA
2016/11/23 01:30:01	AWS2	9.61	39	14.92	40	M	M	M	NA	NA	983.6	NA	NA		M	NA	NA	NA	NA
2016/11/23 01:31:01	AWS2	11.46	44	14.92	40	M	M	M	NA	NA	983.5	NA	NA		M	NA	NA	NA	NA
2016/11/23 01:32:01	AWS2	11.77	43	14.92	40	M	M	M	NA	NA	983.4	NA	NA		M	NA	NA	NA	NA
2016/11/23 01:33:01	AWS2	11.10	44	14.92	40	M	M	M	NA	NA	983.5	NA	NA		M	NA	NA	NA	NA
2016/11/23 01:34:01	AWS2	11.12	41	14.92	40	M	M	M	NA	NA	983.1	NA	NA		M	NA	NA	NA	NA
2016/11/23 01:35:01	AWS2	11.14	40	14.92	40	M	M	M	NA	NA	983.5	NA	NA		M	NA	NA	NA	NA
2016/11/23 01:36:01	AWS2	10.67	43	14.92	40	M	M	M	NA	NA	983.3	NA	NA		M	NA	NA	NA	NA
2016/11/23 01:37:01	AWS2	10.34	44	14.92	40	M	M	M	NA	NA	983.3	NA	NA		M	NA	NA	NA	NA
2016/11/23 01:38:01	AWS2	10.22	40	14.92	40	M	M	M	NA	NA	983.0	NA	NA		M	NA	NA	NA	NA
2016/11/23 01:39:01	AWS2	9.10	34	14.92	40	M	M	M	NA	NA	983.5	NA	NA		M	NA	NA	NA	NA
2016/11/23 01:40:01	AWS2	8.39	39	14.92	40	M	M	M	NA	NA	982.9	NA	NA		M	NA	NA	NA	NA
2016/11/23 01:41:01	AWS2	8.74	47	13.22	43	M	M	M	NA	NA	982.5	NA	NA		M	NA	NA	NA	NA
2016/11/23 01:42:01	AWS2	9.21	46	13.22	43	M	M	M	NA	NA	983.1	NA	NA		M	NA	NA	NA	NA
2016/11/23 01:43:01	AWS2	9.26	38	13.22	43	M	M	M	NA	NA	982.8	NA	NA		M	NA	NA	NA	NA
2016/11/23 01:44:01	AWS2	10.07	36	13.17	40	M	M	M	NA	NA	982.6	NA	NA		M	NA	NA	NA	NA
2016/11/23 01:45:01	AWS2	11.06	42	13.17	40	M	M	M	NA	NA	983.0	NA	NA		M	NA	NA	NA	NA
2016/11/23 01:46:01	AWS2	9.95	43	13.17	40	M	M	M	NA	NA	983.6	NA	NA		M	NA	NA	NA	NA
2016/11/23 01:47:01	AWS2	9.32	47	13.17	40	M	M	M	NA	NA	982.7	NA	NA		M	NA	NA	NA	NA
2016/11/23 01:48:01	AWS2	10.39	44	13.17	40	M	M	M	NA	NA	982.3	NA	NA		M	NA	NA	NA	NA
2016/11/23 01:49:01	AWS2	10.30	36	13.17	40	M	M	M	NA	NA	982.4	NA	NA		M	NA	NA	NA	NA
2016/11/23 01:50:01	AWS2	9.32	36	13.17	40	M	M	M	NA	NA	982.3	NA	NA		M	NA	NA	NA	NA
2016/11/23 01:51:01	AWS2	9.75	35	13.17	40	M	M	M	NA	NA	982.6	NA	NA		M	NA	NA	NA	NA
2016/11/23 01:52:01	AWS2	11.00	36	13.17	40	M	M	M	NA	NA	982.7	NA	NA		M	NA	NA	NA	NA
2016/11/23 01:53:01	AWS2	10.70	39	13.17	40	M	M	M	NA	NA	983.4	NA	NA		M	NA	NA	NA	NA
2016/11/23 01:54:01	AWS2	10.25	40	12.91	26	M	M	M	NA	NA	982.7	NA	NA		M	NA	NA	NA	NA
2016/11/23 01:55:01	AWS2	11.12	45	14.82	68	M	M	M	NA	NA	982.3	NA	NA		M	NA	NA	NA	NA
2016/11/23 01:56:01	AWS2	12.76	50	16.41	60	M	M	M	NA	NA	982.6	NA	NA		M	NA	NA	NA	NA
2016/11/23 01:57:01	AWS2	11.61	48	16.41	60	M	M	M	NA	NA	982.8	NA	NA		M	NA	NA	NA	NA
2016/11/23 01:58:01	AWS2	9.46	49	16.41	60	M	M	M	NA	NA	983.2	NA	NA		M	NA	NA	NA	NA
2016/11/23 01:59:01	AWS2	10.26	52	16.41	60	M	M	M	NA	NA	983.1	NA	NA		M	NA	NA	NA	NA
2016/11/23 02:00:01	AWS2	11.49	51	16.41	60	M	M	M	NA	NA	981.8	NA	NA		M	NA	NA	NA	NA
2016/11/23 02:01:01	AWS2	13.30	48	16.41	60	M	M	M	NA	NA	981.3	NA	NA		M	NA	NA	NA	NA
2016/11/23 02:02:01	AWS2	14.16	45	16.41	60	M	M	M	NA	NA	982.2	NA	NA		M	NA	NA	NA	NA
2016/11/23 02:03:01	AWS2	12.70	43	16.41	60	M	M	M	NA	NA	982.2	NA	NA		M	NA	NA	NA	NA
2016/11/23 02:04:01	AWS2	12.71	38	17.90	25	M	M	M	NA	NA	982.3	NA	NA		M	NA	NA	NA	NA
2016/11/23 02:05:01	AWS2	12.89	36	17.90	25	M	M	M	NA	NA	982.3	NA	NA		M	NA	NA	NA	NA
2016/11/23 02:06:01	AWS2	11.06	40	17.90	25	M	M	M	NA	NA	982.6	NA	NA		M	NA	NA	NA	NA
2016/11/23 02:07:01	AWS2	9.98	39	17.90	25	M	M	M	NA	NA	982.4	NA	NA		M	NA	NA	NA	NA
2016/11/23 02:08:01	AWS2	9.99	40	17.90	25	M	M	M	NA	NA	982.4	NA	NA		M	NA	NA	NA	NA
2016/11/23 02:09:01	AWS2	11.26	43	17.90	25	M	M	M	NA	NA	982.5	NA	NA		M	NA	NA	NA	NA
2016/11/23 02:10:01	AWS2	12.00	42	17.90	25	M	M	M	NA	NA	982.2	NA	NA		M	NA	NA	NA	NA
2016/11/23 02:11:01	AWS2	10.62	43	17.90	25	M	M	M	NA	NA	982.5	NA	NA		M	NA	NA	NA	NA
2016/11/23 02:12:01	AWS2	10.62	44	17.90	25	M	M	M	NA	NA	981.6	NA	NA		M	NA	NA	NA	NA
2016/11/23 02:13:01	AWS2	12.81	44	17.90	25	M	M	M	NA	NA	982.1	NA	NA		M	NA	NA	NA	NA
2016/11/23 02:14:01	AWS2	13.67	43	17.70	47	M	M	M	NA	NA	982.5	NA	NA		M	NA	NA	NA	NA
2016/11/23 02:15:01	AWS2	13.47	36	17.70	47	M	M	M	NA	NA	982.0	NA	NA		M	NA	NA	NA	NA
2016/11/23 02:16:01	AWS2	13.01	38	17.70	47	M	M	M	NA	NA	982.1	NA	NA		M	NA	NA	NA	NA
2016/11/23 02:17:01	AWS2	12.70	46	17.70	47	M	M	M	NA	NA	981.6	NA	NA		M	NA	NA	NA	NA
2016/11/23 02:18:01	AWS2	12.96	45	17.70	47	M	M	M	NA	NA	982.0	NA	NA		M	NA	NA	NA	NA
2016/11/23 02:19:01	AWS2	13.99	33	17.70	47	M	M	M	NA	NA	981.6	NA	NA		M	NA	NA	NA	NA
2016/11/23 02:20:01	AWS2	13.60	39	19.03	39	M	M	M	NA	NA	981.7	NA	NA		M	NA	NA	NA	NA
2016/11/23 02:21:01	AWS2	14.01	49	19.03	39	M	M	M	NA	NA	981.8	NA	NA		M	NA	NA	NA	NA
2016/11/23 02:22:01	AWS2	16.45	46	19.60	45	M	M	M	NA	NA	981.2	NA	NA		M	NA	NA	NA	NA
2016/11/23 02:23:01	AWS2	16.47	45	19.60	45	M	M	M	NA	NA	982.3	NA	NA		M	NA	NA	NA	NA
2016/11/23 02:24:01	AWS2	14.78	46	19.60	45	M	M	M	NA	NA	981.4	NA	NA		M	NA	NA	NA	NA
2016/11/23 02:25:01	AWS2	12.13	48	19.60	45	M	M	M	NA	NA	981.6	NA	NA		M	NA	NA	NA	NA
2016/11/23 02:26:01	AWS2	11.14	43	19.60	45	M	M	M	NA	NA	981.1	NA	NA		M	NA	NA	NA	NA
2016/11/23 02:27:01	AWS2	11.60	50	19.60	45	M	M	M	NA	NA	981.4	NA	NA		M	NA	NA	NA	NA
2016/11/23 02:28:01	AWS2	11.54	55	19.60	45	M	M	M	NA	NA	981.4	NA	NA		M	NA	NA	NA	NA
2016/11/23 02:29:01	AWS2	10.08	54	19.60	45	M	M	M	NA	NA	981.2	NA	NA		M	NA	NA	NA	NA
2016/11/23 02:30:01	AWS2	11.16	41	19.60	45	M	M	M	NA	NA	980.3	NA	NA		M	NA	NA	NA	NA
2016/11/23 02:31:01	AWS2	11.85	33	19.60	45	M	M	M	NA	NA	980.7	NA	NA		M	NA	NA	NA	NA
2016/11/23 02:32:01	AWS2	8.56	46	17.65	19	M	M	M	NA	NA	981.0	NA	NA		M	NA	NA	NA	NA
2016/11/23 02:33:01	AWS2	8.54	43	17.08	30	M	M	M	NA	NA	981.3	NA	NA		M	NA	NA	NA	NA
2016/11/23 02:34:01	AWS2	10.28	35	17.08	30	M	M	M	NA	NA	981.4	NA	NA		M	NA	NA	NA	NA
2016/11/23 02:35:01	AWS2	10.69	38	17.08	30	M	M	M	NA	NA	980.7	NA	NA		M	NA	NA	NA	NA
2016/11/23 02:36:01	AWS2	10.77	45	17.08	30	M	M	M	NA	NA	981.4	NA	NA		M	NA	NA	NA	NA
2016/11/23 02:37:01	AWS2	11.35	40	17.08	30	M	M	M	NA	NA	980.3	NA	NA		M	NA	NA	NA	NA
2016/11/23 02:38:01	AWS2	11.68	34	17.08	30	M	M	M	NA	NA	981.3	NA	NA		M	NA	NA	NA	NA
2016/11/23 02:39:01	AWS2	11.92	42	17.08	30	M	M	M	NA	NA	981.0	NA	NA		M	NA	NA	NA	NA
2016/11/23 02:40:01	AWS2	13.66	45	16.98	44	M	M	M	NA	NA	981.1	NA	NA		M	NA	NA	NA	NA
2016/11/23 02:41:01	AWS2	12.49	47	16.98	44	M	M	M	NA	NA	981.7	NA	NA		M	NA	NA	NA	NA
2016/11/23 02:42:01	AWS2	11.16	38	19.14	6	M	M	M	NA	NA	980.4	NA	NA		M	NA	NA	NA	NA
2016/11/23 02:43:01	AWS2	14.29	32	20.01	24	M	M	M	NA	NA	981.0	NA	NA		M	NA	NA	NA	NA
2016/11/23 02:44:01	AWS2	14.14	52	20.01	24	M	M	M	NA	NA	980.5	NA	NA		M	NA	NA	NA	NA
2016/11/23 02:45:01	AWS2	11.80	57	20.01	24	M	M	M	NA	NA	979.5	NA	NA		M	NA	NA	NA	NA
2016/11/23 02:46:01	AWS2	13.64	47	20.01	24	M	M	M	NA	NA	979.8	NA	NA		M	NA	NA	NA	NA
2016/11/23 02:47:01	AWS2	14.17	43	20.01	24	M	M	M	NA	NA	980.4	NA	NA		M	NA	NA	NA	NA
2016/11/23 02:48:01	AWS2	11.29	44	20.01	24	M	M	M	NA	NA	980.6	NA	NA		M	NA	NA	NA	NA
2016/11/23 02:49:01	AWS2	9.79	43	20.01	24	M	M	M	NA	NA	980.8	NA	NA		M	NA	NA	NA	NA
2016/11/23 02:50:01	AWS2	9.91	48	20.01	24	M	M	M	NA	NA	981.3	NA	NA		M	NA	NA	NA	NA
2016/11/23 02:51:01	AWS2	11.10	55	20.01	24	M	M	M	NA	NA	981.2	NA	NA		M	NA	NA	NA	NA
2016/11/23 02:52:01	AWS2	14.37	53	20.01	24	M	M	M	NA	NA	980.4	NA	NA		M	NA	NA	NA	NA
2016/11/23 02:53:01	AWS2	16.24	53	19.34	47	M	M	M	NA	NA	980.3	NA	NA		M	NA	NA	NA	NA
2016/11/23 02:54:01	AWS2	14.36	54	19.34	47	M	M	M	NA	NA	981.3	NA	NA		M	NA	NA	NA	NA
2016/11/23 02:55:01	AWS2	12.60	52	19.34	47	M	M	M	NA	NA	980.8	NA	NA		M	NA	NA	NA	NA
2016/11/23 02:56:01	AWS2	12.74	52	19.34	47	M	M	M	NA	NA	979.9	NA	NA		M	NA	NA	NA	NA
2016/11/23 02:57:01	AWS2	10.93	36	19.34	47	M	M	M	NA	NA	981.0	NA	NA		M	NA	NA	NA	NA
2016/11/23 02:58:01	AWS2	9.57	32	19.34	47	M	M	M	NA	NA	980.5	NA	NA		M	NA	NA	NA	NA
2016/11/23 02:59:01	AWS2	10.04	67	19.34	47	M	M	M	NA	NA	980.2	NA	NA		M	NA	NA	NA	NA
2016/11/23 03:00:01	AWS2	9.59	81	19.34	47	M	M	M	NA	NA	980.2	NA	NA		M	NA	NA	NA	NA
2016/11/23 03:01:01	AWS2	9.87	70	19.34	47	M	M	M	NA	NA	980.6	NA	NA		M	NA	NA	NA	NA
2016/11/23 03:02:01	AWS2	10.60	57	19.34	47	M	M	M	NA	NA	981.0	NA	NA		M	NA	NA	NA	NA
2016/11/23 03:03:01	AWS2	10.50	48	15.18	43	M	M	M	NA	NA	980.5	NA	NA		M	NA	NA	NA	NA
2016/11/23 03:04:01	AWS2	11.21	49	15.07	44	M	M	M	NA	NA	980.3	NA	NA		M	NA	NA	NA	NA
2016/11/23 03:05:01	AWS2	12.50	49	15.07	44	M	M	M	NA	NA	980.2	NA	NA		M	NA	NA	NA	NA
2016/11/23 03:06:01	AWS2	12.32	46	14.82	51	M	M	M	NA	NA	980.1	NA	NA		M	NA	NA	NA	NA
2016/11/23 03:07:01	AWS2	11.53	43	14.82	51	M	M	M	NA	NA	980.8	NA	NA		M	NA	NA	NA	NA
2016/11/23 03:08:01	AWS2	11.28	47	14.82	45	M	M	M	NA	NA	981.3	NA	NA		M	NA	NA	NA	NA
2016/11/23 03:09:01	AWS2	12.71	54	16.98	62	M	M	M	NA	NA	980.5	NA	NA		M	NA	NA	NA	NA
2016/11/23 03:10:01	AWS2	11.09	53	16.98	62	M	M	M	NA	NA	980.8	NA	NA		M	NA	NA	NA	NA
2016/11/23 03:11:01	AWS2	8.91	45	16.98	62	M	M	M	NA	NA	981.4	NA	NA		M	NA	NA	NA	NA
2016/11/23 03:12:01	AWS2	8.87	42	16.98	62	M	M	M	NA	NA	981.0	NA	NA		M	NA	NA	NA	NA
2016/11/23 03:13:01	AWS2	9.58	42	16.98	62	M	M	M	NA	NA	980.9	NA	NA		M	NA	NA	NA	NA
2016/11/23 03:14:01	AWS2	9.59	43	16.98	62	M	M	M	NA	NA	981.5	NA	NA		M	NA	NA	NA	NA
2016/11/23 03:15:01	AWS2	8.68	47	16.98	62	M	M	M	NA	NA	981.3	NA	NA		M	NA	NA	NA	NA
2016/11/23 03:16:01	AWS2	9.36	47	16.98	62	M	M	M	NA	NA	980.7	NA	NA		M	NA	NA	NA	NA
2016/11/23 03:17:01	AWS2	11.05	49	16.98	62	M	M	M	NA	NA	980.1	NA	NA		M	NA	NA	NA	NA
2016/11/23 03:18:01	AWS2	12.08	50	16.98	62	M	M	M	NA	NA	980.7	NA	NA		M	NA	NA	NA	NA
2016/11/23 03:19:01	AWS2	12.19	43	15.64	59	M	M	M	NA	NA	979.9	NA	NA		M	NA	NA	NA	NA
2016/11/23 03:20:01	AWS2	11.99	41	15.64	59	M	M	M	NA	NA	981.1	NA	NA		M	NA	NA	NA	NA
2016/11/23 03:21:01	AWS2	12.24	41	15.64	59	M	M	M	NA	NA	980.3	NA	NA		M	NA	NA	NA	NA
2016/11/23 03:22:01	AWS2	13.82	41	16.41	51	M	M	M	NA	NA	980.0	NA	NA		M	NA	NA	NA	NA
2016/11/23 03:23:01	AWS2	13.60	42	16.41	51	M	M	M	NA	NA	981.0	NA	NA		M	NA	NA	NA	NA
2016/11/23 03:24:01	AWS2	12.05	41	16.41	51	M	M	M	NA	NA	981.3	NA	NA		M	NA	NA	NA	NA
2016/11/23 03:25:01	AWS2	12.65	40	16.41	51	M	M	M	NA	NA	980.0	NA	NA		M	NA	NA	NA	NA
2016/11/23 03:26:01	AWS2	13.98	41	16.41	39	M	M	M	NA	NA	980.6	NA	NA		M	NA	NA	NA	NA
2016/11/23 03:27:00	AWS2	13.14	43	16.41	39	M	M	M	NA	NA	980.0	NA	NA		M	NA	NA	NA	NA
2016/11/23 03:28:00	AWS2	13.21	44	17.08	38	M	M	M	NA	NA	979.5	NA	NA		M	NA	NA	NA	NA
2016/11/23 03:29:00	AWS2	13.64	38	17.08	38	M	M	M	NA	NA	980.0	NA	NA		M	NA	NA	NA	NA
2016/11/23 03:30:00	AWS2	13.57	31	17.08	38	M	M	M	NA	NA	979.4	NA	NA		M	NA	NA	NA	NA
2016/11/23 03:31:00	AWS2	12.65	32	17.08	38	M	M	M	NA	NA	979.8	NA	NA		M	NA	NA	NA	NA
2016/11/23 03:32:00	AWS2	12.27	33	17.18	26	M	M	M	NA	NA	979.4	NA	NA		M	NA	NA	NA	NA
2016/11/23 03:33:00	AWS2	13.89	28	19.45	16	M	M	M	NA	NA	979.4	NA	NA		M	NA	NA	NA	NA
2016/11/23 03:34:00	AWS2	14.61	25	20.78	12	M	M	M	NA	NA	978.9	NA	NA		M	NA	NA	NA	NA
2016/11/23 03:35:00	AWS2	14.91	23	20.78	12	M	M	M	NA	NA	979.0	NA	NA		M	NA	NA	NA	NA
2016/11/23 03:36:00	AWS2	14.52	25	20.78	12	M	M	M	NA	NA	978.7	NA	NA		M	NA	NA	NA	NA
2016/11/23 03:37:00	AWS2	14.77	23	20.78	12	M	M	M	NA	NA	978.2	NA	NA		M	NA	NA	NA	NA
2016/11/23 03:38:00	AWS2	15.00	22	20.78	12	M	M	M	NA	NA	978.8	NA	NA		M	NA	NA	NA	NA
2016/11/23 03:39:00	AWS2	13.77	25	20.78	12	M	M	M	NA	NA	978.9	NA	NA		M	NA	NA	NA	NA
2016/11/23 03:40:00	AWS2	12.81	26	20.78	12	M	M	M	NA	NA	979.1	NA	NA		M	NA	NA	NA	NA
2016/11/23 03:41:00	AWS2	13.11	30	20.78	12	M	M	M	NA	NA	978.4	NA	NA		M	NA	NA	NA	NA
2016/11/23 03:42:00	AWS2	13.20	34	20.78	12	M	M	M	NA	NA	978.9	NA	NA		M	NA	NA	NA	NA
2016/11/23 03:43:00	AWS2	13.14	32	20.78	12	M	M	M	NA	NA	978.7	NA	NA		M	NA	NA	NA	NA
2016/11/23 03:44:00	AWS2	14.25	29	18.98	25	M	M	M	NA	NA	978.4	NA	NA		M	NA	NA	NA	NA
2016/11/23 03:45:00	AWS2	16.36	28	19.81	22	M	M	M	NA	NA	977.3	NA	NA		M	NA	NA	NA	NA
2016/11/23 03:46:00	AWS2	17.06	28	19.81	22	M	M	M	NA	NA	978.1	NA	NA		M	NA	NA	NA	NA
2016/11/23 03:47:00	AWS2	17.40	30	21.25	29	M	M	M	NA	NA	977.4	NA	NA		M	NA	NA	NA	NA
2016/11/23 03:48:00	AWS2	18.61	28	21.25	29	M	M	M	NA	NA	977.5	NA	NA		M	NA	NA	NA	NA
2016/11/23 03:49:00	AWS2	18.00	28	21.25	29	M	M	M	NA	NA	977.3	NA	NA		M	NA	NA	NA	NA
2016/11/23 03:50:00	AWS2	15.86	33	21.25	29	M	M	M	NA	NA	978.3	NA	NA		M	NA	NA	NA	NA
2016/11/23 03:51:00	AWS2	15.04	36	21.25	29	M	M	M	NA	NA	977.8	NA	NA		M	NA	NA	NA	NA
2016/11/23 03:52:00	AWS2	15.15	35	21.25	29	M	M	M	NA	NA	978.0	NA	NA		M	NA	NA	NA	NA
2016/11/23 03:53:00	AWS2	15.18	34	21.25	29	M	M	M	NA	NA	977.7	NA	NA		M	NA	NA	NA	NA
2016/11/23 03:54:00	AWS2	16.94	27	21.30	21	M	M	M	NA	NA	977.5	NA	NA		M	NA	NA	NA	NA
2016/11/23 03:55:00	AWS2	17.47	24	21.30	21	M	M	M	NA	NA	977.7	NA	NA		M	NA	NA	NA	NA
2016/11/23 03:56:00	AWS2	17.30	28	21.30	21	M	M	M	NA	NA	977.7	NA	NA		M	NA	NA	NA	NA
2016/11/23 03:57:00	AWS2	17.72	32	21.30	21	M	M	M	NA	NA	977.7	NA	NA		M	NA	NA	NA	NA
2016/11/23 03:58:00	AWS2	16.72	34	21.30	21	M	M	M	NA	NA	978.3	NA	NA		M	NA	NA	NA	NA
2016/11/23 03:59:00	AWS2	14.57	38	21.30	21	M	M	M	NA	NA	978.7	NA	NA		M	NA	NA	NA	NA
2016/11/23 04:00:00	AWS2	13.88	42	21.30	21	M	M	M	NA	NA	978.7	NA	NA		M	NA	NA	NA	NA
2016/11/23 04:01:00	AWS2	13.81	42	21.30	21	M	M	M	NA	NA	978.3	NA	NA		M	NA	NA	NA	NA
2016/11/23 04:02:00	AWS2	14.53	32	21.30	21	M	M	M	NA	NA	977.4	NA	NA		M	NA	NA	NA	NA
2016/11/23 04:03:00	AWS2	15.65	30	21.30	21	M	M	M	NA	NA	977.5	NA	NA		M	NA	NA	NA	NA
2016/11/23 04:04:00	AWS2	15.73	37	20.22	34	M	M	M	NA	NA	977.5	NA	NA		M	NA	NA	NA	NA
2016/11/23 04:05:00	AWS2	15.63	39	20.22	34	M	M	M	NA	NA	977.8	NA	NA		M	NA	NA	NA	NA
2016/11/23 04:06:00	AWS2	14.13	39	19.34	48	M	M	M	NA	NA	978.3	NA	NA		M	NA	NA	NA	NA
2016/11/23 04:07:00	AWS2	14.20	37	18.83	27	M	M	M	NA	NA	978.1	NA	NA		M	NA	NA	NA	NA
2016/11/23 04:08:00	AWS2	14.24	35	18.57	20	M	M	M	NA	NA	978.0	NA	NA		M	NA	NA	NA	NA
2016/11/23 04:09:00	AWS2	12.72	31	18.57	20	M	M	M	NA	NA	977.6	NA	NA		M	NA	NA	NA	NA
2016/11/23 04:10:00	AWS2	12.09	33	18.57	20	M	M	M	NA	NA	978.3	NA	NA		M	NA	NA	NA	NA
2016/11/23 04:11:00	AWS2	12.84	34	18.57	20	M	M	M	NA	NA	977.3	NA	NA		M	NA	NA	NA	NA
2016/11/23 04:12:00	AWS2	12.98	24	18.57	20	M	M	M	NA	NA	977.5	NA	NA		M	NA	NA	NA	NA
2016/11/23 04:13:00	AWS2	13.21	21	18.42	26	M	M	M	NA	NA	977.0	NA	NA		M	NA	NA	NA	NA
2016/11/23 04:14:00	AWS2	14.19	23	18.42	26	M	M	M	NA	NA	976.6	NA	NA		M	NA	NA	NA	NA
2016/11/23 04:15:00	AWS2	14.58	25	18.42	26	M	M	M	NA	NA	976.5	NA	NA		M	NA	NA	NA	NA
2016/11/23 04:16:00	AWS2	14.40	31	18.42	26	M	M	M	NA	NA	977.0	NA	NA		M	NA	NA	NA	NA
2016/11/23 04:17:00	AWS2	13.56	33	17.65	17	M	M	M	NA	NA	976.8	NA	NA		M	NA	NA	NA	NA
2016/11/23 04:18:00	AWS2	13.79	32	17.65	17	M	M	M	NA	NA	977.1	NA	NA		M	NA	NA	NA	NA
2016/11/23 04:19:00	AWS2	13.62	38	17.65	17	M	M	M	NA	NA	977.5	NA	NA		M	NA	NA	NA	NA
2016/11/23 04:20:00	AWS2	11.35	43	17.65	17	M	M	M	NA	NA	978.2	NA	NA		M	NA	NA	NA	NA
2016/11/23 04:21:00	AWS2	9.30	39	17.65	17	M	M	M	NA	NA	978.3	NA	NA		M	NA	NA	NA	NA
2016/11/23 04:22:00	AWS2	8.57	33	17.65	17	M	M	M	NA	NA	978.4	NA	NA		M	NA	NA	NA	NA
2016/11/23 04:23:00	AWS2	9.88	38	17.65	17	M	M	M	NA	NA	978.2	NA	NA		M	NA	NA	NA	NA
2016/11/23 04:24:00	AWS2	10.43	41	17.65	17	M	M	M	NA	NA	977.8	NA	NA		M	NA	NA	NA	NA
2016/11/23 04:25:00	AWS2	10.58	39	15.84	44	M	M	M	NA	NA	977.6	NA	NA		M	NA	NA	NA	NA
2016/11/23 04:26:00	AWS2	11.28	34	15.84	44	M	M	M	NA	NA	978.0	NA	NA		M	NA	NA	NA	NA
2016/11/23 04:27:00	AWS2	10.29	32	15.84	44	M	M	M	NA	NA	978.4	NA	NA		M	NA	NA	NA	NA
2016/11/23 04:28:00	AWS2	9.73	32	15.64	33	M	M	M	NA	NA	978.0	NA	NA		M	NA	NA	NA	NA
2016/11/23 04:29:00	AWS2	9.54	32	15.12	38	M	M	M	NA	NA	978.0	NA	NA		M	NA	NA	NA	NA
2016/11/23 04:30:00	AWS2	10.19	35	15.12	38	M	M	M	NA	NA	978.3	NA	NA		M	NA	NA	NA	NA
2016/11/23 04:31:00	AWS2	10.82	31	15.12	38	M	M	M	NA	NA	978.2	NA	NA		M	NA	NA	NA	NA
2016/11/23 04:32:00	AWS2	11.05	26	15.12	38	M	M	M	NA	NA	978.0	NA	NA		M	NA	NA	NA	NA
2016/11/23 04:33:00	AWS2	12.32	22	16.51	20	M	M	M	NA	NA	977.5	NA	NA		M	NA	NA	NA	NA
2016/11/23 04:34:00	AWS2	12.96	18	16.51	20	M	M	M	NA	NA	977.4	NA	NA		M	NA	NA	NA	NA
2016/11/23 04:35:00	AWS2	12.11	16	16.51	20	M	M	M	NA	NA	977.8	NA	NA		M	NA	NA	NA	NA
2016/11/23 04:36:00	AWS2	10.58	16	16.51	20	M	M	M	NA	NA	978.6	NA	NA		M	NA	NA	NA	NA
2016/11/23 04:37:00	AWS2	9.99	12	16.51	20	M	M	M	NA	NA	979.0	NA	NA		M	NA	NA	NA	NA
2016/11/23 04:38:00	AWS2	10.67	10	16.51	20	M	M	M	NA	NA	979.1	NA	NA		M	NA	NA	NA	NA
2016/11/23 04:39:00	AWS2	11.68	14	16.51	20	M	M	M	NA	NA	979.1	NA	NA		M	NA	NA	NA	NA
2016/11/23 04:40:00	AWS2	11.79	13	16.51	20	M	M	M	NA	NA	979.5	NA	NA		M	NA	NA	NA	NA
2016/11/23 04:41:00	AWS2	12.39	11	16.51	20	M	M	M	NA	NA	979.0	NA	NA		M	NA	NA	NA	NA
2016/11/23 04:42:00	AWS2	13.57	15	16.51	20	M	M	M	NA	NA	978.3	NA	NA		M	NA	NA	NA	NA
2016/11/23 04:43:00	AWS2	13.58	19	16.72	13	M	M	M	NA	NA	978.5	NA	NA		M	NA	NA	NA	NA
2016/11/23 04:44:00	AWS2	13.41	22	16.72	13	M	M	M	NA	NA	978.7	NA	NA		M	NA	NA	NA	NA
2016/11/23 04:45:00	AWS2	13.21	20	16.72	13	M	M	M	NA	NA	978.6	NA	NA		M	NA	NA	NA	NA
2016/11/23 04:46:00	AWS2	13.76	19	16.72	13	M	M	M	NA	NA	978.6	NA	NA		M	NA	NA	NA	NA
2016/11/23 04:47:00	AWS2	14.10	18	16.72	13	M	M	M	NA	NA	978.5	NA	NA		M	NA	NA	NA	NA
2016/11/23 04:48:00	AWS2	13.16	18	16.72	13	M	M	M	NA	NA	978.7	NA	NA		M	NA	NA	NA	NA
2016/11/23 04:49:00	AWS2	13.92	18	18.67	23	M	M	M	NA	NA	977.9	NA	NA		M	NA	NA	NA	NA
2016/11/23 04:50:00	AWS2	14.90	17	18.67	23	M	M	M	NA	NA	978.4	NA	NA		M	NA	NA	NA	NA
2016/11/23 04:51:00	AWS2	14.75	18	18.67	23	M	M	M	NA	NA	977.9	NA	NA		M	NA	NA	NA	NA
2016/11/23 04:52:00	AWS2	14.55	16	18.67	23	M	M	M	NA	NA	978.1	NA	NA		M	NA	NA	NA	NA
2016/11/23 04:53:00	AWS2	14.87	14	18.67	23	M	M	M	NA	NA	978.3	NA	NA		M	NA	NA	NA	NA
2016/11/23 04:54:00	AWS2	15.01	14	18.67	23	M	M	M	NA	NA	978.4	NA	NA		M	NA	NA	NA	NA
2016/11/23 04:55:00	AWS2	14.68	14	18.67	23	M	M	M	NA	NA	978.5	NA	NA		M	NA	NA	NA	NA
2016/11/23 04:56:00	AWS2	15.42	15	18.67	23	M	M	M	NA	NA	978.3	NA	NA		M	NA	NA	NA	NA
2016/11/23 04:57:00	AWS2	16.68	16	20.37	14	M	M	M	NA	NA	977.8	NA	NA		M	NA	NA	NA	NA
2016/11/23 04:58:00	AWS2	17.03	12	20.37	14	M	M	M	NA	NA	977.9	NA	NA		M	NA	NA	NA	NA
2016/11/23 04:59:00	AWS2	17.25	14	21.81	17	M	M	M	NA	NA	977.8	NA	NA		M	NA	NA	NA	NA
2016/11/23 05:00:00	AWS2	16.61	16	21.81	17	M	M	M	NA	NA	977.9	NA	NA		M	NA	NA	NA	NA
2016/11/23 05:01:00	AWS2	16.98	14	22.07	8	M	M	M	NA	NA	977.1	NA	NA		M	NA	NA	NA	NA
2016/11/23 05:02:00	AWS2	17.35	13	22.07	8	M	M	M	NA	NA	977.6	NA	NA		M	NA	NA	NA	NA
2016/11/23 05:03:00	AWS2	15.21	11	22.07	8	M	M	M	NA	NA	977.9	NA	NA		M	NA	NA	NA	NA
2016/11/23 05:04:00	AWS2	14.39	11	22.07	8	M	M	M	NA	NA	978.0	NA	NA		M	NA	NA	NA	NA
2016/11/23 05:05:00	AWS2	13.75	10	22.07	8	M	M	M	NA	NA	978.0	NA	NA		M	NA	NA	NA	NA
2016/11/23 05:06:00	AWS2	14.11	10	22.07	8	M	M	M	NA	NA	977.8	NA	NA		M	NA	NA	NA	NA
2016/11/23 05:07:00	AWS2	16.56	11	22.07	8	M	M	M	NA	NA	976.7	NA	NA		M	NA	NA	NA	NA
2016/11/23 05:08:00	AWS2	18.28	11	22.07	8	M	M	M	NA	NA	976.6	NA	NA		M	NA	NA	NA	NA
2016/11/23 05:09:00	AWS2	17.94	11	22.07	8	M	M	M	NA	NA	976.3	NA	NA		M	NA	NA	NA	NA
2016/11/23 05:10:00	AWS2	18.29	11	22.07	8	M	M	M	NA	NA	976.0	NA	NA		M	NA	NA	NA	NA
2016/11/23 05:11:00	AWS2	19.42	10	22.69	16	M	M	M	NA	NA	975.9	NA	NA		M	NA	NA	NA	NA
2016/11/23 05:12:00	AWS2	19.31	10	22.69	16	M	M	M	NA	NA	976.2	NA	NA		M	NA	NA	NA	NA
2016/11/23 05:13:00	AWS2	18.92	9	22.69	16	M	M	M	NA	NA	976.6	NA	NA		M	NA	NA	NA	NA
2016/11/23 05:14:00	AWS2	19.32	9	22.69	16	M	M	M	NA	NA	976.5	NA	NA		M	NA	NA	NA	NA
2016/11/23 05:15:00	AWS2	19.86	14	23.00	5	M	M	M	NA	NA	976.2	NA	NA		M	NA	NA	NA	NA
2016/11/23 05:16:00	AWS2	19.02	11	23.00	5	M	M	M	NA	NA	976.3	NA	NA		M	NA	NA	NA	NA
2016/11/23 05:17:00	AWS2	18.33	9	23.00	5	M	M	M	NA	NA	976.1	NA	NA		M	NA	NA	NA	NA
2016/11/23 05:18:00	AWS2	18.41	9	23.00	5	M	M	M	NA	NA	976.5	NA	NA		M	NA	NA	NA	NA
2016/11/23 05:19:00	AWS2	17.73	7	23.00	5	M	M	M	NA	NA	977.5	NA	NA		M	NA	NA	NA	NA
2016/11/23 05:20:00	AWS2	17.41	12	23.00	5	M	M	M	NA	NA	977.7	NA	NA		M	NA	NA	NA	NA
2016/11/23 05:21:00	AWS2	17.28	10	23.00	5	M	M	M	NA	NA	978.1	NA	NA		M	NA	NA	NA	NA
2016/11/23 05:22:00	AWS2	17.88	7	23.00	5	M	M	M	NA	NA	977.6	NA	NA		M	NA	NA	NA	NA
2016/11/23 05:23:00	AWS2	17.39	9	23.00	5	M	M	M	NA	NA	977.9	NA	NA		M	NA	NA	NA	NA
2016/11/23 05:24:00	AWS2	16.25	11	23.00	5	M	M	M	NA	NA	978.2	NA	NA		M	NA	NA	NA	NA
2016/11/23 05:25:00	AWS2	16.59	12	21.20	1	M	M	M	NA	NA	978.0	NA	NA		M	NA	NA	NA	NA
2016/11/23 05:26:00	AWS2	16.31	11	21.20	1	M	M	M	NA	NA	977.8	NA	NA		M	NA	NA	NA	NA
2016/11/23 05:27:00	AWS2	15.79	10	20.63	9	M	M	M	NA	NA	978.4	NA	NA		M	NA	NA	NA	NA
2016/11/23 05:28:00	AWS2	16.54	13	21.04	16	M	M	M	NA	NA	977.7	NA	NA		M	NA	NA	NA	NA
2016/11/23 05:29:00	AWS2	19.67	13	25.26	14	M	M	M	NA	NA	976.3	NA	NA		M	NA	NA	NA	NA
2016/11/23 05:30:00	AWS2	22.99	8	26.65	13	M	M	M	NA	NA	975.5	NA	NA		M	NA	NA	NA	NA
2016/11/23 05:31:00	AWS2	23.59	7	26.65	13	M	M	M	NA	NA	975.6	NA	NA		M	NA	NA	NA	NA
2016/11/23 05:32:00	AWS2	22.74	2	26.65	13	M	M	M	NA	NA	976.3	NA	NA		M	NA	NA	NA	NA
2016/11/23 05:33:00	AWS2	21.26	4	26.65	13	M	M	M	NA	NA	976.9	NA	NA		M	NA	NA	NA	NA
2016/11/23 05:34:00	AWS2	18.36	9	26.65	13	M	M	M	NA	NA	978.0	NA	NA		M	NA	NA	NA	NA
2016/11/23 05:35:00	AWS2	16.50	6	26.65	13	M	M	M	NA	NA	978.1	NA	NA		M	NA	NA	NA	NA
2016/11/23 05:36:00	AWS2	15.14	7	26.65	13	M	M	M	NA	NA	978.4	NA	NA		M	NA	NA	NA	NA
2016/11/23 05:37:00	AWS2	13.48	10	26.65	13	M	M	M	NA	NA	978.9	NA	NA		M	NA	NA	NA	NA
2016/11/23 05:38:00	AWS2	12.76	12	26.65	13	M	M	M	NA	NA	978.7	NA	NA		M	NA	NA	NA	NA
2016/11/23 05:39:00	AWS2	11.99	17	26.65	13	M	M	M	NA	NA	979.1	NA	NA		M	NA	NA	NA	NA
2016/11/23 05:40:00	AWS2	12.38	20	24.38	1	M	M	M	NA	NA	978.1	NA	NA		M	NA	NA	NA	NA
2016/11/23 05:41:00	AWS2	12.42	21	24.38	1	M	M	M	NA	NA	978.6	NA	NA		M	NA	NA	NA	NA
2016/11/23 05:42:00	AWS2	13.47	27	21.92	7	M	M	M	NA	NA	978.1	NA	NA		M	NA	NA	NA	NA
2016/11/23 05:43:00	AWS2	14.56	27	17.85	8	M	M	M	NA	NA	978.5	NA	NA		M	NA	NA	NA	NA
2016/11/23 05:44:00	AWS2	14.39	20	17.85	8	M	M	M	NA	NA	978.6	NA	NA		M	NA	NA	NA	NA
2016/11/23 05:45:00	AWS2	15.91	17	18.01	25	M	M	M	NA	NA	978.3	NA	NA		M	NA	NA	NA	NA
2016/11/23 05:46:00	AWS2	18.16	14	22.02	1	M	M	M	NA	NA	977.0	NA	NA		M	NA	NA	NA	NA
2016/11/23 05:47:00	AWS2	18.99	15	22.28	16	M	M	M	NA	NA	977.6	NA	NA		M	NA	NA	NA	NA
2016/11/23 05:48:00	AWS2	18.89	18	22.28	16	M	M	M	NA	NA	977.7	NA	NA		M	NA	NA	NA	NA
2016/11/23 05:49:00	AWS2	17.45	15	22.28	16	M	M	M	NA	NA	978.6	NA	NA		M	NA	NA	NA	NA
2016/11/23 05:50:02	AWS2	M	M	22.28	16	M	M	M	NA	NA	M	NA	NA		M	NA	NA	NA	NA
2016/11/23 05:51:00	AWS2	M	M	22.28	16	M	M	M	NA	NA	M	NA	NA		M	NA	NA	NA	NA
2016/11/23 05:52:00	AWS2	13.37	14	22.28	16	M	M	M	NA	NA	979.6	NA	NA		M	NA	NA	NA	NA
2016/11/23 05:53:00	AWS2	12.22	17	22.28	16	M	M	M	NA	NA	979.7	NA	NA		M	NA	NA	NA	NA
2016/11/23 05:54:00	AWS2	11.33	12	22.28	16	M	M	M	NA	NA	979.9	NA	NA		M	NA	NA	NA	NA
2016/11/23 05:55:00	AWS2	13.29	6	22.28	16	M	M	M	NA	NA	979.5	NA	NA		M	NA	NA	NA	NA
2016/11/23 05:57:01	AWS2	M	M	22.28	16	M	M	M	NA	NA	M	NA	NA		M	NA	NA	NA	NA
2016/11/23 05:58:00	AWS2	M	M	M	M	M	M	M	NA	NA	M	NA	NA		M	NA	NA	NA	NA
2016/11/23 05:59:00	AWS2	M	M	M	M	M	M	M	NA	NA	979.9	NA	NA		M	NA	NA	NA	NA
2016/11/23 06:00:00	AWS2	12.92	14	M	M	M	M	M	NA	NA	979.7	NA	NA		M	NA	NA	NA	NA
2016/11/23 06:01:00	AWS2	13.94	17	M	M	M	M	M	NA	NA	979.0	NA	NA		M	NA	NA	NA	NA
2016/11/23 06:02:00	AWS2	15.35	20	18.47	15	M	M	M	NA	NA	978.5	NA	NA		M	NA	NA	NA	NA
2016/11/23 06:03:00	AWS2	16.50	19	19.65	20	M	M	M	NA	NA	977.1	NA	NA		M	NA	NA	NA	NA
2016/11/23 06:04:00	AWS2	17.71	20	21.35	27	M	M	M	NA	NA	977.5	NA	NA		M	NA	NA	NA	NA
2016/11/23 06:05:00	AWS2	17.59	18	21.35	27	M	M	M	NA	NA	977.9	NA	NA		M	NA	NA	NA	NA
2016/11/23 06:06:00	AWS2	16.26	16	21.35	27	M	M	M	NA	NA	978.6	NA	NA		M	NA	NA	NA	NA
2016/11/23 06:07:00	AWS2	14.84	15	21.35	27	M	M	M	NA	NA	978.5	NA	NA		M	NA	NA	NA	NA
2016/11/23 06:08:00	AWS2	15.11	16	21.35	27	M	M	M	NA	NA	977.9	NA	NA		M	NA	NA	NA	NA
2016/11/23 06:09:00	AWS2	14.91	18	21.35	27	M	M	M	NA	NA	977.9	NA	NA		M	NA	NA	NA	NA
2016/11/23 06:10:00	AWS2	14.43	19	21.35	27	M	M	M	NA	NA	977.6	NA	NA		M	NA	NA	NA	NA
2016/11/23 06:11:00	AWS2	14.53	17	21.35	27	M	M	M	NA	NA	977.6	NA	NA		M	NA	NA	NA	NA
2016/11/23 06:12:00	AWS2	14.04	17	21.35	27	M	M	M	NA	NA	977.8	NA	NA		M	NA	NA	NA	NA
2016/11/23 06:13:00	AWS2	14.00	20	21.35	27	M	M	M	NA	NA	977.6	NA	NA		M	NA	NA	NA	NA
2016/11/23 06:14:00	AWS2	14.65	19	20.78	19	M	M	M	NA	NA	977.4	NA	NA		M	NA	NA	NA	NA
2016/11/23 06:15:00	AWS2	14.93	16	17.85	18	M	M	M	NA	NA	977.6	NA	NA		M	NA	NA	NA	NA
2016/11/23 06:16:00	AWS2	14.56	16	17.85	18	M	M	M	NA	NA	977.5	NA	NA		M	NA	NA	NA	NA
2016/11/23 06:17:00	AWS2	14.39	18	18.06	18	M	M	M	NA	NA	977.2	NA	NA		M	NA	NA	NA	NA
2016/11/23 06:18:00	AWS2	15.40	17	18.06	18	M	M	M	NA	NA	977.5	NA	NA		M	NA	NA	NA	NA
2016/11/23 06:19:00	AWS2	15.11	17	18.06	18	M	M	M	NA	NA	978.0	NA	NA		M	NA	NA	NA	NA
2016/11/23 06:20:00	AWS2	14.09	19	18.06	18	M	M	M	NA	NA	977.9	NA	NA		M	NA	NA	NA	NA
2016/11/23 06:21:00	AWS2	13.60	16	18.06	18	M	M	M	NA	NA	977.6	NA	NA		M	NA	NA	NA	NA
2016/11/23 06:22:00	AWS2	12.96	18	18.06	18	M	M	M	NA	NA	977.8	NA	NA		M	NA	NA	NA	NA
2016/11/23 06:23:00	AWS2	13.49	22	18.06	18	M	M	M	NA	NA	978.1	NA	NA		M	NA	NA	NA	NA
2016/11/23 06:24:00	AWS2	16.27	23	20.11	19	M	M	M	NA	NA	976.7	NA	NA		M	NA	NA	NA	NA
2016/11/23 06:25:00	AWS2	17.96	21	20.11	19	M	M	M	NA	NA	977.1	NA	NA		M	NA	NA	NA	NA
2016/11/23 06:26:00	AWS2	16.11	22	20.11	19	M	M	M	NA	NA	977.9	NA	NA		M	NA	NA	NA	NA
2016/11/23 06:27:00	AWS2	15.54	24	20.11	19	M	M	M	NA	NA	977.6	NA	NA		M	NA	NA	NA	NA
2016/11/23 06:28:00	AWS2	16.93	19	20.11	19	M	M	M	NA	NA	976.8	NA	NA		M	NA	NA	NA	NA
2016/11/23 06:29:00	AWS2	18.53	18	23.00	24	M	M	M	NA	NA	976.1	NA	NA		M	NA	NA	NA	NA
2016/11/23 06:30:00	AWS2	19.79	22	23.00	24	M	M	M	NA	NA	975.9	NA	NA		M	NA	NA	NA	NA
2016/11/23 06:31:00	AWS2	19.90	23	23.00	24	M	M	M	NA	NA	976.3	NA	NA		M	NA	NA	NA	NA
2016/11/23 06:32:00	AWS2	18.30	20	23.00	24	M	M	M	NA	NA	976.9	NA	NA		M	NA	NA	NA	NA
2016/11/23 06:33:00	AWS2	16.29	18	23.00	24	M	M	M	NA	NA	977.0	NA	NA		M	NA	NA	NA	NA
2016/11/23 06:34:00	AWS2	16.89	20	23.00	24	M	M	M	NA	NA	976.4	NA	NA		M	NA	NA	NA	NA
2016/11/23 06:35:00	AWS2	18.67	22	23.00	24	M	M	M	NA	NA	975.8	NA	NA		M	NA	NA	NA	NA
2016/11/23 06:36:00	AWS2	19.98	20	23.00	24	M	M	M	NA	NA	976.0	NA	NA		M	NA	NA	NA	NA
2016/11/23 06:37:00	AWS2	20.08	20	23.20	24	M	M	M	NA	NA	976.2	NA	NA		M	NA	NA	NA	NA
2016/11/23 06:38:00	AWS2	18.48	21	23.20	24	M	M	M	NA	NA	977.1	NA	NA		M	NA	NA	NA	NA
2016/11/23 06:39:00	AWS2	16.61	15	23.20	24	M	M	M	NA	NA	977.2	NA	NA		M	NA	NA	NA	NA
2016/11/23 06:40:00	AWS2	14.95	10	23.20	24	M	M	M	NA	NA	977.7	NA	NA		M	NA	NA	NA	NA
2016/11/23 06:41:00	AWS2	14.67	11	23.20	24	M	M	M	NA	NA	977.3	NA	NA		M	NA	NA	NA	NA
2016/11/23 06:42:00	AWS2	14.94	11	23.20	24	M	M	M	NA	NA	977.0	NA	NA		M	NA	NA	NA	NA
2016/11/23 06:43:00	AWS2	15.96	12	23.20	24	M	M	M	NA	NA	976.8	NA	NA		M	NA	NA	NA	NA
2016/11/23 06:44:00	AWS2	19.38	14	23.77	2	M	M	M	NA	NA	975.6	NA	NA		M	NA	NA	NA	NA
2016/11/23 06:45:00	AWS2	20.23	13	23.77	2	M	M	M	NA	NA	976.4	NA	NA		M	NA	NA	NA	NA
2016/11/23 06:46:00	AWS2	18.42	12	23.77	2	M	M	M	NA	NA	976.4	NA	NA		M	NA	NA	NA	NA
2016/11/23 06:47:00	AWS2	16.37	12	23.77	2	M	M	M	NA	NA	977.6	NA	NA		M	NA	NA	NA	NA
2016/11/23 06:48:00	AWS2	15.43	15	23.77	2	M	M	M	NA	NA	977.3	NA	NA		M	NA	NA	NA	NA
2016/11/23 06:49:00	AWS2	17.30	16	23.77	2	M	M	M	NA	NA	976.2	NA	NA		M	NA	NA	NA	NA
2016/11/23 06:50:00	AWS2	17.90	16	23.77	2	M	M	M	NA	NA	976.6	NA	NA		M	NA	NA	NA	NA
2016/11/23 06:51:00	AWS2	17.90	17	23.77	2	M	M	M	NA	NA	976.7	NA	NA		M	NA	NA	NA	NA
2016/11/23 06:52:00	AWS2	18.50	12	23.77	2	M	M	M	NA	NA	976.4	NA	NA		M	NA	NA	NA	NA
2016/11/23 06:53:00	AWS2	16.09	8	23.77	2	M	M	M	NA	NA	977.0	NA	NA		M	NA	NA	NA	NA
2016/11/23 06:54:00	AWS2	14.46	11	22.12	15	M	M	M	NA	NA	977.0	NA	NA		M	NA	NA	NA	NA
2016/11/23 06:55:00	AWS2	15.79	14	22.12	15	M	M	M	NA	NA	976.7	NA	NA		M	NA	NA	NA	NA
2016/11/23 06:56:00	AWS2	16.49	14	22.12	15	M	M	M	NA	NA	976.9	NA	NA		M	NA	NA	NA	NA
2016/11/23 06:57:00	AWS2	18.04	12	22.38	6	M	M	M	NA	NA	976.1	NA	NA		M	NA	NA	NA	NA
2016/11/23 06:58:00	AWS2	17.76	11	22.38	6	M	M	M	NA	NA	976.9	NA	NA		M	NA	NA	NA	NA
2016/11/23 06:59:00	AWS2	15.24	11	22.38	6	M	M	M	NA	NA	977.3	NA	NA		M	NA	NA	NA	NA
2016/11/23 07:00:00	AWS2	15.47	16	22.38	6	M	M	M	NA	NA	976.5	NA	NA		M	NA	NA	NA	NA
2016/11/23 07:01:00	AWS2	17.18	22	22.38	6	M	M	M	NA	NA	976.0	NA	NA		M	NA	NA	NA	NA
2016/11/23 07:02:00	AWS2	19.06	24	22.94	14	M	M	M	NA	NA	975.4	NA	NA		M	NA	NA	NA	NA
2016/11/23 07:03:00	AWS2	19.22	24	22.94	14	M	M	M	NA	NA	976.3	NA	NA		M	NA	NA	NA	NA
2016/11/23 07:04:00	AWS2	17.24	22	22.94	14	M	M	M	NA	NA	976.9	NA	NA		M	NA	NA	NA	NA
2016/11/23 07:05:00	AWS2	16.05	18	22.94	14	M	M	M	NA	NA	976.8	NA	NA		M	NA	NA	NA	NA
2016/11/23 07:06:00	AWS2	16.57	15	22.94	14	M	M	M	NA	NA	976.5	NA	NA		M	NA	NA	NA	NA
2016/11/23 07:07:00	AWS2	17.18	15	22.94	14	M	M	M	NA	NA	976.4	NA	NA		M	NA	NA	NA	NA
2016/11/23 07:08:00	AWS2	17.21	16	22.94	14	M	M	M	NA	NA	976.6	NA	NA		M	NA	NA	NA	NA
2016/11/23 07:09:00	AWS2	17.40	20	22.94	14	M	M	M	NA	NA	976.2	NA	NA		M	NA	NA	NA	NA
2016/11/23 07:10:00	AWS2	17.62	19	22.94	14	M	M	M	NA	NA	975.9	NA	NA		M	NA	NA	NA	NA
2016/11/23 07:11:00	AWS2	18.71	15	22.94	14	M	M	M	NA	NA	975.6	NA	NA		M	NA	NA	NA	NA
2016/11/23 07:12:00	AWS2	20.26	16	24.33	14	M	M	M	NA	NA	974.8	NA	NA		M	NA	NA	NA	NA
2016/11/23 07:13:00	AWS2	20.67	18	24.33	14	M	M	M	NA	NA	974.8	NA	NA		M	NA	NA	NA	NA
2016/11/23 07:14:00	AWS2	19.99	15	24.33	14	M	M	M	NA	NA	974.9	NA	NA		M	NA	NA	NA	NA
2016/11/23 07:15:00	AWS2	18.84	15	24.33	14	M	M	M	NA	NA	975.3	NA	NA		M	NA	NA	NA	NA
2016/11/23 07:16:00	AWS2	17.20	15	24.33	14	M	M	M	NA	NA	976.0	NA	NA		M	NA	NA	NA	NA
2016/11/23 07:17:00	AWS2	16.65	11	24.33	14	M	M	M	NA	NA	975.9	NA	NA		M	NA	NA	NA	NA
2016/11/23 07:18:00	AWS2	17.35	11	24.33	14	M	M	M	NA	NA	975.8	NA	NA		M	NA	NA	NA	NA
2016/11/23 07:19:00	AWS2	17.77	12	24.33	14	M	M	M	NA	NA	975.5	NA	NA		M	NA	NA	NA	NA
2016/11/23 07:20:00	AWS2	18.53	16	24.33	14	M	M	M	NA	NA	975.0	NA	NA		M	NA	NA	NA	NA
2016/11/23 07:21:00	AWS2	19.94	17	24.33	14	M	M	M	NA	NA	974.3	NA	NA		M	NA	NA	NA	NA
2016/11/23 07:22:00	AWS2	19.82	14	23.30	8	M	M	M	NA	NA	975.0	NA	NA		M	NA	NA	NA	NA
2016/11/23 07:23:00	AWS2	17.50	13	23.30	8	M	M	M	NA	NA	976.0	NA	NA		M	NA	NA	NA	NA
2016/11/23 07:24:00	AWS2	17.25	12	23.30	8	M	M	M	NA	NA	975.3	NA	NA		M	NA	NA	NA	NA
2016/11/23 07:25:00	AWS2	17.93	12	23.30	8	M	M	M	NA	NA	975.1	NA	NA		M	NA	NA	NA	NA
2016/11/23 07:26:00	AWS2	16.74	15	23.30	8	M	M	M	NA	NA	975.3	NA	NA		M	NA	NA	NA	NA
2016/11/23 07:27:00	AWS2	15.68	18	23.30	8	M	M	M	NA	NA	975.5	NA	NA		M	NA	NA	NA	NA
2016/11/23 07:28:00	AWS2	15.90	18	23.30	8	M	M	M	NA	NA	975.4	NA	NA		M	NA	NA	NA	NA
2016/11/23 07:29:00	AWS2	16.28	13	23.30	8	M	M	M	NA	NA	975.5	NA	NA		M	NA	NA	NA	NA
2016/11/23 07:30:00	AWS2	16.36	14	23.30	8	M	M	M	NA	NA	975.8	NA	NA		M	NA	NA	NA	NA
2016/11/23 07:31:00	AWS2	16.01	17	22.74	8	M	M	M	NA	NA	975.7	NA	NA		M	NA	NA	NA	NA
2016/11/23 07:32:00	AWS2	14.93	15	19.91	13	M	M	M	NA	NA	975.7	NA	NA		M	NA	NA	NA	NA
2016/11/23 07:33:00	AWS2	14.40	11	19.91	13	M	M	M	NA	NA	976.0	NA	NA		M	NA	NA	NA	NA
2016/11/23 07:34:00	AWS2	14.79	10	19.91	13	M	M	M	NA	NA	975.7	NA	NA		M	NA	NA	NA	NA
2016/11/23 07:35:00	AWS2	14.82	11	18.42	8	M	M	M	NA	NA	975.9	NA	NA		M	NA	NA	NA	NA
2016/11/23 07:36:00	AWS2	15.24	13	19.39	20	M	M	M	NA	NA	975.6	NA	NA		M	NA	NA	NA	NA
2016/11/23 07:37:00	AWS2	16.97	14	19.86	3	M	M	M	NA	NA	974.9	NA	NA		M	NA	NA	NA	NA
2016/11/23 07:38:00	AWS2	16.81	13	19.86	3	M	M	M	NA	NA	975.7	NA	NA		M	NA	NA	NA	NA
2016/11/23 07:39:00	AWS2	15.22	11	19.86	3	M	M	M	NA	NA	976.1	NA	NA		M	NA	NA	NA	NA
2016/11/23 07:40:01	AWS2	15.52	10	19.86	3	M	M	M	NA	NA	975.4	NA	NA		M	NA	NA	NA	NA
2016/11/23 07:41:00	AWS2	16.22	11	19.86	3	M	M	M	NA	NA	975.2	NA	NA		M	NA	NA	NA	NA
2016/11/23 07:42:00	AWS2	15.58	9	19.86	3	M	M	M	NA	NA	975.2	NA	NA		M	NA	NA	NA	NA
2016/11/23 07:43:00	AWS2	14.79	10	19.86	3	M	M	M	NA	NA	975.1	NA	NA		M	NA	NA	NA	NA
2016/11/23 07:44:00	AWS2	15.02	17	19.86	3	M	M	M	NA	NA	974.8	NA	NA		M	NA	NA	NA	NA
2016/11/23 07:45:00	AWS2	15.56	16	19.86	3	M	M	M	NA	NA	975.1	NA	NA		M	NA	NA	NA	NA
2016/11/23 07:46:00	AWS2	14.93	12	19.86	3	M	M	M	NA	NA	975.7	NA	NA		M	NA	NA	NA	NA
2016/11/23 07:47:00	AWS2	14.31	10	17.75	12	M	M	M	NA	NA	975.6	NA	NA		M	NA	NA	NA	NA
2016/11/23 07:48:00	AWS2	13.87	8	17.75	12	M	M	M	NA	NA	975.6	NA	NA		M	NA	NA	NA	NA
2016/11/23 07:49:00	AWS2	14.91	10	18.78	17	M	M	M	NA	NA	974.9	NA	NA		M	NA	NA	NA	NA
2016/11/23 07:50:00	AWS2	15.78	10	18.78	17	M	M	M	NA	NA	974.4	NA	NA		M	NA	NA	NA	NA
2016/11/23 07:51:00	AWS2	14.53	9	18.78	17	M	M	M	NA	NA	974.8	NA	NA		M	NA	NA	NA	NA
2016/11/23 07:52:00	AWS2	13.31	10	18.78	17	M	M	M	NA	NA	975.0	NA	NA		M	NA	NA	NA	NA
2016/11/23 07:53:00	AWS2	13.70	12	18.78	17	M	M	M	NA	NA	974.3	NA	NA		M	NA	NA	NA	NA
2016/11/23 07:54:00	AWS2	15.75	12	18.78	17	M	M	M	NA	NA	974.0	NA	NA		M	NA	NA	NA	NA
2016/11/23 07:55:00	AWS2	15.60	13	18.78	17	M	M	M	NA	NA	974.8	NA	NA		M	NA	NA	NA	NA
2016/11/23 07:56:00	AWS2	14.02	12	18.78	17	M	M	M	NA	NA	974.0	NA	NA		M	NA	NA	NA	NA
2016/11/23 07:57:00	AWS2	13.87	9	18.78	17	M	M	M	NA	NA	974.6	NA	NA		M	NA	NA	NA	NA
2016/11/23 07:58:00	AWS2	15.02	9	18.78	17	M	M	M	NA	NA	974.6	NA	NA		M	NA	NA	NA	NA
2016/11/23 07:59:00	AWS2	15.23	12	18.47	24	M	M	M	NA	NA	974.5	NA	NA		M	NA	NA	NA	NA
2016/11/23 08:00:00	AWS2	13.97	9	18.47	24	M	M	M	NA	NA	974.6	NA	NA		M	NA	NA	NA	NA
2016/11/23 08:01:00	AWS2	13.85	8	18.47	24	M	M	M	NA	NA	974.3	NA	NA		M	NA	NA	NA	NA
2016/11/23 08:02:00	AWS2	15.00	12	18.47	24	M	M	M	NA	NA	974.6	NA	NA		M	NA	NA	NA	NA
2016/11/23 08:03:00	AWS2	16.11	10	18.47	24	M	M	M	NA	NA	974.5	NA	NA		M	NA	NA	NA	NA
2016/11/23 08:04:00	AWS2	16.10	6	18.16	15	M	M	M	NA	NA	974.5	NA	NA		M	NA	NA	NA	NA
2016/11/23 08:05:00	AWS2	15.74	9	18.42	23	M	M	M	NA	NA	974.5	NA	NA		M	NA	NA	NA	NA
2016/11/23 08:06:00	AWS2	15.89	11	18.47	9	M	M	M	NA	NA	974.3	NA	NA		M	NA	NA	NA	NA
2016/11/23 08:07:00	AWS2	16.06	10	18.47	9	M	M	M	NA	NA	973.9	NA	NA		M	NA	NA	NA	NA
2016/11/23 08:08:00	AWS2	15.98	10	18.47	9	M	M	M	NA	NA	974.1	NA	NA		M	NA	NA	NA	NA
2016/11/23 08:09:00	AWS2	15.23	11	18.47	9	M	M	M	NA	NA	974.8	NA	NA		M	NA	NA	NA	NA
2016/11/23 08:10:00	AWS2	15.05	8	18.47	9	M	M	M	NA	NA	974.3	NA	NA		M	NA	NA	NA	NA
2016/11/23 08:11:00	AWS2	15.43	8	18.47	9	M	M	M	NA	NA	974.3	NA	NA		M	NA	NA	NA	NA
2016/11/23 08:12:00	AWS2	15.77	8	18.47	9	M	M	M	NA	NA	973.8	NA	NA		M	NA	NA	NA	NA
2016/11/23 08:13:00	AWS2	15.90	8	18.47	9	M	M	M	NA	NA	974.1	NA	NA		M	NA	NA	NA	NA
2016/11/23 08:14:00	AWS2	15.46	8	18.47	9	M	M	M	NA	NA	974.7	NA	NA		M	NA	NA	NA	NA
2016/11/23 08:15:01	AWS2	15.36	7	18.88	7	M	M	M	NA	NA	974.2	NA	NA		M	NA	NA	NA	NA
2016/11/23 08:16:00	AWS2	15.18	9	18.88	7	M	M	M	NA	NA	974.8	NA	NA		M	NA	NA	NA	NA
2016/11/23 08:17:00	AWS2	14.98	6	18.88	7	M	M	M	NA	NA	973.9	NA	NA		M	NA	NA	NA	NA
2016/11/23 08:18:00	AWS2	15.10	3	18.88	7	M	M	M	NA	NA	974.1	NA	NA		M	NA	NA	NA	NA
2016/11/23 08:19:00	AWS2	15.23	3	18.88	7	M	M	M	NA	NA	973.4	NA	NA		M	NA	NA	NA	NA
2016/11/23 08:20:00	AWS2	16.22	5	18.88	7	M	M	M	NA	NA	973.2	NA	NA		M	NA	NA	NA	NA
2016/11/23 08:21:00	AWS2	16.38	7	18.88	7	M	M	M	NA	NA	974.0	NA	NA		M	NA	NA	NA	NA
2016/11/23 08:22:00	AWS2	15.51	7	18.88	7	M	M	M	NA	NA	973.9	NA	NA		M	NA	NA	NA	NA
2016/11/23 08:23:00	AWS2	15.83	8	18.88	7	M	M	M	NA	NA	973.8	NA	NA		M	NA	NA	NA	NA
2016/11/23 08:24:00	AWS2	16.43	7	19.14	6	M	M	M	NA	NA	973.5	NA	NA		M	NA	NA	NA	NA
2016/11/23 08:25:00	AWS2	16.12	7	19.14	6	M	M	M	NA	NA	973.7	NA	NA		M	NA	NA	NA	NA
2016/11/23 08:26:00	AWS2	15.38	9	19.14	6	M	M	M	NA	NA	974.2	NA	NA		M	NA	NA	NA	NA
2016/11/23 08:27:00	AWS2	14.58	9	19.14	6	M	M	M	NA	NA	974.3	NA	NA		M	NA	NA	NA	NA
2016/11/23 08:28:00	AWS2	14.36	11	19.14	6	M	M	M	NA	NA	974.6	NA	NA		M	NA	NA	NA	NA
2016/11/23 08:29:00	AWS2	13.52	12	19.14	6	M	M	M	NA	NA	974.6	NA	NA		M	NA	NA	NA	NA
2016/11/23 08:30:00	AWS2	12.81	10	19.14	6	M	M	M	NA	NA	974.8	NA	NA		M	NA	NA	NA	NA
2016/11/23 08:31:00	AWS2	13.54	11	19.14	6	M	M	M	NA	NA	974.0	NA	NA		M	NA	NA	NA	NA
2016/11/23 08:32:00	AWS2	13.40	12	19.14	6	M	M	M	NA	NA	973.8	NA	NA		M	NA	NA	NA	NA
2016/11/23 08:33:00	AWS2	13.58	14	19.14	6	M	M	M	NA	NA	974.1	NA	NA		M	NA	NA	NA	NA
2016/11/23 08:34:00	AWS2	14.46	12	17.44	10	M	M	M	NA	NA	973.8	NA	NA		M	NA	NA	NA	NA
2016/11/23 08:35:00	AWS2	14.66	10	17.49	12	M	M	M	NA	NA	973.9	NA	NA		M	NA	NA	NA	NA
2016/11/23 08:36:00	AWS2	14.71	10	17.49	12	M	M	M	NA	NA	974.0	NA	NA		M	NA	NA	NA	NA
2016/11/23 08:37:00	AWS2	14.34	13	17.49	12	M	M	M	NA	NA	973.9	NA	NA		M	NA	NA	NA	NA
2016/11/23 08:38:00	AWS2	13.62	12	17.49	12	M	M	M	NA	NA	973.8	NA	NA		M	NA	NA	NA	NA
2016/11/23 08:39:00	AWS2	13.72	10	17.49	12	M	M	M	NA	NA	974.4	NA	NA		M	NA	NA	NA	NA
2016/11/23 08:40:00	AWS2	14.53	10	17.49	12	M	M	M	NA	NA	973.5	NA	NA		M	NA	NA	NA	NA
2016/11/23 08:41:00	AWS2	14.74	10	17.49	12	M	M	M	NA	NA	973.7	NA	NA		M	NA	NA	NA	NA
2016/11/23 08:42:00	AWS2	14.73	12	17.49	12	M	M	M	NA	NA	973.8	NA	NA		M	NA	NA	NA	NA
2016/11/23 08:43:00	AWS2	14.59	12	17.49	12	M	M	M	NA	NA	973.9	NA	NA		M	NA	NA	NA	NA
2016/11/23 08:44:00	AWS2	14.79	10	17.49	12	M	M	M	NA	NA	973.6	NA	NA		M	NA	NA	NA	NA
2016/11/23 08:45:00	AWS2	14.47	9	17.44	18	M	M	M	NA	NA	973.9	NA	NA		M	NA	NA	NA	NA
2016/11/23 08:46:00	AWS2	13.84	8	17.44	18	M	M	M	NA	NA	973.8	NA	NA		M	NA	NA	NA	NA
2016/11/23 08:47:00	AWS2	14.17	8	17.44	18	M	M	M	NA	NA	973.6	NA	NA		M	NA	NA	NA	NA
2016/11/23 08:48:00	AWS2	14.15	11	17.44	18	M	M	M	NA	NA	974.4	NA	NA		M	NA	NA	NA	NA
2016/11/23 08:49:00	AWS2	15.34	13	18.37	14	M	M	M	NA	NA	973.2	NA	NA		M	NA	NA	NA	NA
2016/11/23 08:50:00	AWS2	15.89	10	18.37	14	M	M	M	NA	NA	973.3	NA	NA		M	NA	NA	NA	NA
2016/11/23 08:51:00	AWS2	14.82	10	18.37	14	M	M	M	NA	NA	973.0	NA	NA		M	NA	NA	NA	NA
2016/11/23 08:52:00	AWS2	14.74	12	18.37	14	M	M	M	NA	NA	973.1	NA	NA		M	NA	NA	NA	NA
2016/11/23 08:53:00	AWS2	14.30	12	18.37	14	M	M	M	NA	NA	973.6	NA	NA		M	NA	NA	NA	NA
2016/11/23 08:54:00	AWS2	14.07	13	18.37	14	M	M	M	NA	NA	973.3	NA	NA		M	NA	NA	NA	NA
2016/11/23 08:55:00	AWS2	14.31	14	18.37	14	M	M	M	NA	NA	973.1	NA	NA		M	NA	NA	NA	NA
2016/11/23 08:56:00	AWS2	14.42	12	18.37	14	M	M	M	NA	NA	972.9	NA	NA		M	NA	NA	NA	NA
2016/11/23 08:57:00	AWS2	14.55	11	18.37	14	M	M	M	NA	NA	972.9	NA	NA		M	NA	NA	NA	NA
2016/11/23 08:58:00	AWS2	15.38	13	18.37	14	M	M	M	NA	NA	972.9	NA	NA		M	NA	NA	NA	NA
2016/11/23 08:59:00	AWS2	15.26	14	17.29	15	M	M	M	NA	NA	973.0	NA	NA		M	NA	NA	NA	NA
2016/11/23 09:00:00	AWS2	13.63	14	17.29	15	M	M	M	NA	NA	973.1	NA	NA		M	NA	NA	NA	NA
2016/11/23 09:01:00	AWS2	13.74	13	17.29	15	M	M	M	NA	NA	973.2	NA	NA		M	NA	NA	NA	NA
2016/11/23 09:02:00	AWS2	14.79	11	17.44	7	M	M	M	NA	NA	972.9	NA	NA		M	NA	NA	NA	NA
2016/11/23 09:03:00	AWS2	14.41	10	17.44	7	M	M	M	NA	NA	972.8	NA	NA		M	NA	NA	NA	NA
2016/11/23 09:04:00	AWS2	13.15	12	17.44	7	M	M	M	NA	NA	973.0	NA	NA		M	NA	NA	NA	NA
2016/11/23 09:05:00	AWS2	13.04	13	17.44	7	M	M	M	NA	NA	972.8	NA	NA		M	NA	NA	NA	NA
2016/11/23 09:06:00	AWS2	13.88	11	17.44	7	M	M	M	NA	NA	973.2	NA	NA		M	NA	NA	NA	NA
2016/11/23 09:07:00	AWS2	13.21	12	17.44	7	M	M	M	NA	NA	973.5	NA	NA		M	NA	NA	NA	NA
2016/11/23 09:08:00	AWS2	11.77	14	17.44	7	M	M	M	NA	NA	973.5	NA	NA		M	NA	NA	NA	NA
2016/11/23 09:09:00	AWS2	12.17	11	17.44	7	M	M	M	NA	NA	973.2	NA	NA		M	NA	NA	NA	NA
2016/11/23 09:10:00	AWS2	13.75	6	17.44	7	M	M	M	NA	NA	972.8	NA	NA		M	NA	NA	NA	NA
2016/11/23 09:11:00	AWS2	14.46	6	17.44	7	M	M	M	NA	NA	973.2	NA	NA		M	NA	NA	NA	NA
2016/11/23 09:12:00	AWS2	13.96	7	15.95	1	M	M	M	NA	NA	972.8	NA	NA		M	NA	NA	NA	NA
2016/11/23 09:13:00	AWS2	13.97	7	16.98	5	M	M	M	NA	NA	972.7	NA	NA		M	NA	NA	NA	NA
2016/11/23 09:14:00	AWS2	13.81	9	16.98	5	M	M	M	NA	NA	972.8	NA	NA		M	NA	NA	NA	NA
2016/11/23 09:15:00	AWS2	13.21	10	16.98	5	M	M	M	NA	NA	973.1	NA	NA		M	NA	NA	NA	NA
2016/11/23 09:16:00	AWS2	12.52	10	16.98	5	M	M	M	NA	NA	973.0	NA	NA		M	NA	NA	NA	NA
2016/11/23 09:17:00	AWS2	12.79	6	16.98	5	M	M	M	NA	NA	972.9	NA	NA		M	NA	NA	NA	NA
2016/11/23 09:18:00	AWS2	14.79	6	16.98	8	M	M	M	NA	NA	972.2	NA	NA		M	NA	NA	NA	NA
2016/11/23 09:19:00	AWS2	15.26	9	16.98	8	M	M	M	NA	NA	972.6	NA	NA		M	NA	NA	NA	NA
2016/11/23 09:20:00	AWS2	14.27	10	16.98	8	M	M	M	NA	NA	972.8	NA	NA		M	NA	NA	NA	NA
2016/11/23 09:21:00	AWS2	13.76	11	16.98	8	M	M	M	NA	NA	973.1	NA	NA		M	NA	NA	NA	NA
2016/11/23 09:22:00	AWS2	13.28	14	16.98	8	M	M	M	NA	NA	973.1	NA	NA		M	NA	NA	NA	NA
2016/11/23 09:23:00	AWS2	13.57	14	16.98	8	M	M	M	NA	NA	973.0	NA	NA		M	NA	NA	NA	NA
2016/11/23 09:24:00	AWS2	14.56	14	17.08	9	M	M	M	NA	NA	972.8	NA	NA		M	NA	NA	NA	NA
2016/11/23 09:25:00	AWS2	15.32	14	17.08	9	M	M	M	NA	NA	972.5	NA	NA		M	NA	NA	NA	NA
2016/11/23 09:26:00	AWS2	16.75	14	19.34	18	M	M	M	NA	NA	972.0	NA	NA		M	NA	NA	NA	NA
2016/11/23 09:27:00	AWS2	17.42	14	19.34	18	M	M	M	NA	NA	972.4	NA	NA		M	NA	NA	NA	NA
2016/11/23 09:28:00	AWS2	15.92	15	19.34	18	M	M	M	NA	NA	973.1	NA	NA		M	NA	NA	NA	NA
2016/11/23 09:29:00	AWS2	15.63	12	20.94	10	M	M	M	NA	NA	972.7	NA	NA		M	NA	NA	NA	NA
2016/11/23 09:30:00	AWS2	16.38	10	20.94	10	M	M	M	NA	NA	972.1	NA	NA		M	NA	NA	NA	NA
2016/11/23 09:31:00	AWS2	17.09	15	20.94	10	M	M	M	NA	NA	971.8	NA	NA		M	NA	NA	NA	NA
2016/11/23 09:32:00	AWS2	16.17	16	20.94	10	M	M	M	NA	NA	972.6	NA	NA		M	NA	NA	NA	NA
2016/11/23 09:33:00	AWS2	14.11	14	20.94	10	M	M	M	NA	NA	972.9	NA	NA		M	NA	NA	NA	NA
2016/11/23 09:34:00	AWS2	14.64	12	20.94	10	M	M	M	NA	NA	972.8	NA	NA		M	NA	NA	NA	NA
2016/11/23 09:35:00	AWS2	15.84	11	20.94	10	M	M	M	NA	NA	973.2	NA	NA		M	NA	NA	NA	NA
2016/11/23 09:36:00	AWS2	16.18	13	20.94	10	M	M	M	NA	NA	972.5	NA	NA		M	NA	NA	NA	NA
2016/11/23 09:37:00	AWS2	16.26	15	20.94	10	M	M	M	NA	NA	972.5	NA	NA		M	NA	NA	NA	NA
2016/11/23 09:38:00	AWS2	16.11	14	20.94	10	M	M	M	NA	NA	972.8	NA	NA		M	NA	NA	NA	NA
2016/11/23 09:39:00	AWS2	16.80	13	20.01	18	M	M	M	NA	NA	972.2	NA	NA		M	NA	NA	NA	NA
2016/11/23 09:40:00	AWS2	17.00	14	19.60	30	M	M	M	NA	NA	972.8	NA	NA		M	NA	NA	NA	NA
2016/11/23 09:41:00	AWS2	15.30	14	19.55	14	M	M	M	NA	NA	972.9	NA	NA		M	NA	NA	NA	NA
2016/11/23 09:42:00	AWS2	14.83	12	19.55	14	M	M	M	NA	NA	972.4	NA	NA		M	NA	NA	NA	NA
2016/11/23 09:43:00	AWS2	15.35	13	19.55	14	M	M	M	NA	NA	972.3	NA	NA		M	NA	NA	NA	NA
2016/11/23 09:44:00	AWS2	16.09	15	19.55	14	M	M	M	NA	NA	972.1	NA	NA		M	NA	NA	NA	NA
2016/11/23 09:45:01	AWS2	16.98	12	19.55	14	M	M	M	NA	NA	972.6	NA	NA		M	NA	NA	NA	NA
2016/11/23 09:46:00	AWS2	16.69	12	19.55	14	M	M	M	NA	NA	972.5	NA	NA		M	NA	NA	NA	NA
2016/11/23 09:47:00	AWS2	16.24	11	19.55	14	M	M	M	NA	NA	972.2	NA	NA		M	NA	NA	NA	NA
2016/11/23 09:48:00	AWS2	17.03	9	19.81	8	M	M	M	NA	NA	972.3	NA	NA		M	NA	NA	NA	NA
2016/11/23 09:49:00	AWS2	16.75	9	19.81	8	M	M	M	NA	NA	972.7	NA	NA		M	NA	NA	NA	NA
2016/11/23 09:50:00	AWS2	15.44	11	19.81	8	M	M	M	NA	NA	973.0	NA	NA		M	NA	NA	NA	NA
2016/11/23 09:51:00	AWS2	15.66	12	19.81	8	M	M	M	NA	NA	972.4	NA	NA		M	NA	NA	NA	NA
2016/11/23 09:52:00	AWS2	15.48	14	19.81	8	M	M	M	NA	NA	972.7	NA	NA		M	NA	NA	NA	NA
2016/11/23 09:53:00	AWS2	15.83	16	20.17	23	M	M	M	NA	NA	971.7	NA	NA		M	NA	NA	NA	NA
2016/11/23 09:54:00	AWS2	17.69	12	20.89	6	M	M	M	NA	NA	972.0	NA	NA		M	NA	NA	NA	NA
2016/11/23 09:55:00	AWS2	17.72	7	20.89	6	M	M	M	NA	NA	972.4	NA	NA		M	NA	NA	NA	NA
2016/11/23 09:56:00	AWS2	16.44	9	20.89	6	M	M	M	NA	NA	972.5	NA	NA		M	NA	NA	NA	NA
2016/11/23 09:57:00	AWS2	15.65	10	20.89	6	M	M	M	NA	NA	972.7	NA	NA		M	NA	NA	NA	NA
2016/11/23 09:58:00	AWS2	15.73	10	20.89	6	M	M	M	NA	NA	972.5	NA	NA		M	NA	NA	NA	NA
2016/11/23 09:59:00	AWS2	15.98	11	20.89	6	M	M	M	NA	NA	972.4	NA	NA		M	NA	NA	NA	NA
2016/11/23 10:00:00	AWS2	15.74	9	20.89	6	M	M	M	NA	NA	972.9	NA	NA		M	NA	NA	NA	NA
2016/11/23 10:01:00	AWS2	15.26	11	20.89	6	M	M	M	NA	NA	972.7	NA	NA		M	NA	NA	NA	NA
2016/11/23 10:02:00	AWS2	14.68	12	20.89	6	M	M	M	NA	NA	972.8	NA	NA		M	NA	NA	NA	NA
2016/11/23 10:03:00	AWS2	14.65	11	20.89	6	M	M	M	NA	NA	972.1	NA	NA		M	NA	NA	NA	NA
2016/11/23 10:04:00	AWS2	15.19	10	18.93	22	M	M	M	NA	NA	972.3	NA	NA		M	NA	NA	NA	NA
2016/11/23 10:05:00	AWS2	15.11	9	18.31	11	M	M	M	NA	NA	972.0	NA	NA		M	NA	NA	NA	NA
2016/11/23 10:06:00	AWS2	16.02	9	19.14	11	M	M	M	NA	NA	971.6	NA	NA		M	NA	NA	NA	NA
2016/11/23 10:07:00	AWS2	16.66	9	19.14	11	M	M	M	NA	NA	971.7	NA	NA		M	NA	NA	NA	NA
2016/11/23 10:08:00	AWS2	16.29	8	19.14	11	M	M	M	NA	NA	972.1	NA	NA		M	NA	NA	NA	NA
2016/11/23 10:09:00	AWS2	16.14	8	19.14	11	M	M	M	NA	NA	971.9	NA	NA		M	NA	NA	NA	NA
2016/11/23 10:10:00	AWS2	15.29	9	19.14	11	M	M	M	NA	NA	972.2	NA	NA		M	NA	NA	NA	NA
2016/11/23 10:11:00	AWS2	15.64	8	19.19	12	M	M	M	NA	NA	971.8	NA	NA		M	NA	NA	NA	NA
2016/11/23 10:12:00	AWS2	16.33	9	19.19	12	M	M	M	NA	NA	972.1	NA	NA		M	NA	NA	NA	NA
2016/11/23 10:13:00	AWS2	16.04	12	19.19	12	M	M	M	NA	NA	972.4	NA	NA		M	NA	NA	NA	NA
2016/11/23 10:14:00	AWS2	16.47	12	19.19	12	M	M	M	NA	NA	971.6	NA	NA		M	NA	NA	NA	NA
2016/11/23 10:15:00	AWS2	17.91	10	20.22	3	M	M	M	NA	NA	971.6	NA	NA		M	NA	NA	NA	NA
2016/11/23 10:16:00	AWS2	18.18	8	20.22	3	M	M	M	NA	NA	971.4	NA	NA		M	NA	NA	NA	NA
2016/11/23 10:17:00	AWS2	18.58	8	21.86	14	M	M	M	NA	NA	971.2	NA	NA		M	NA	NA	NA	NA
2016/11/23 10:18:00	AWS2	19.19	8	21.86	14	M	M	M	NA	NA	971.4	NA	NA		M	NA	NA	NA	NA
2016/11/23 10:19:00	AWS2	17.35	10	21.86	14	M	M	M	NA	NA	972.1	NA	NA		M	NA	NA	NA	NA
2016/11/23 10:20:00	AWS2	15.63	11	21.86	14	M	M	M	NA	NA	971.9	NA	NA		M	NA	NA	NA	NA
2016/11/23 10:21:00	AWS2	17.27	10	21.86	14	M	M	M	NA	NA	971.2	NA	NA		M	NA	NA	NA	NA
2016/11/23 10:22:00	AWS2	18.57	8	21.86	14	M	M	M	NA	NA	971.3	NA	NA		M	NA	NA	NA	NA
2016/11/23 10:23:00	AWS2	17.47	6	21.86	14	M	M	M	NA	NA	972.1	NA	NA		M	NA	NA	NA	NA
2016/11/23 10:24:00	AWS2	17.48	7	21.86	14	M	M	M	NA	NA	971.7	NA	NA		M	NA	NA	NA	NA
2016/11/23 10:25:00	AWS2	17.72	9	21.86	14	M	M	M	NA	NA	972.0	NA	NA		M	NA	NA	NA	NA
2016/11/23 10:26:00	AWS2	17.97	8	21.86	14	M	M	M	NA	NA	971.1	NA	NA		M	NA	NA	NA	NA
2016/11/23 10:27:00	AWS2	17.88	8	21.61	8	M	M	M	NA	NA	971.6	NA	NA		M	NA	NA	NA	NA
2016/11/23 10:28:00	AWS2	16.85	12	21.61	8	M	M	M	NA	NA	972.1	NA	NA		M	NA	NA	NA	NA
2016/11/23 10:29:00	AWS2	17.28	12	21.61	8	M	M	M	NA	NA	971.5	NA	NA		M	NA	NA	NA	NA
2016/11/23 10:30:01	AWS2	17.88	9	21.61	8	M	M	M	NA	NA	971.5	NA	NA		M	NA	NA	NA	NA
2016/11/23 10:31:00	AWS2	17.54	9	21.61	8	M	M	M	NA	NA	971.4	NA	NA		M	NA	NA	NA	NA
2016/11/23 10:32:00	AWS2	17.44	8	21.61	8	M	M	M	NA	NA	971.6	NA	NA		M	NA	NA	NA	NA
2016/11/23 10:33:00	AWS2	17.41	8	21.61	8	M	M	M	NA	NA	971.6	NA	NA		M	NA	NA	NA	NA
2016/11/23 10:34:00	AWS2	17.83	8	20.27	4	M	M	M	NA	NA	971.1	NA	NA		M	NA	NA	NA	NA
2016/11/23 10:35:00	AWS2	18.48	7	21.09	6	M	M	M	NA	NA	971.4	NA	NA		M	NA	NA	NA	NA
2016/11/23 10:36:00	AWS2	18.12	8	21.09	6	M	M	M	NA	NA	971.6	NA	NA		M	NA	NA	NA	NA
2016/11/23 10:37:00	AWS2	17.62	9	21.09	6	M	M	M	NA	NA	971.4	NA	NA		M	NA	NA	NA	NA
2016/11/23 10:38:00	AWS2	17.11	9	21.09	6	M	M	M	NA	NA	971.4	NA	NA		M	NA	NA	NA	NA
2016/11/23 10:39:00	AWS2	17.19	11	21.09	6	M	M	M	NA	NA	971.2	NA	NA		M	NA	NA	NA	NA
2016/11/23 10:40:00	AWS2	17.76	11	21.09	6	M	M	M	NA	NA	971.4	NA	NA		M	NA	NA	NA	NA
2016/11/23 10:41:00	AWS2	17.67	12	21.09	6	M	M	M	NA	NA	971.4	NA	NA		M	NA	NA	NA	NA
2016/11/23 10:42:00	AWS2	17.14	12	21.09	6	M	M	M	NA	NA	971.0	NA	NA		M	NA	NA	NA	NA
2016/11/23 10:43:00	AWS2	17.24	10	21.09	6	M	M	M	NA	NA	971.2	NA	NA		M	NA	NA	NA	NA
2016/11/23 10:44:00	AWS2	17.52	8	21.09	6	M	M	M	NA	NA	971.7	NA	NA		M	NA	NA	NA	NA
2016/11/23 10:45:00	AWS2	17.15	10	20.11	13	M	M	M	NA	NA	971.6	NA	NA		M	NA	NA	NA	NA
2016/11/23 10:46:00	AWS2	16.24	13	20.11	13	M	M	M	NA	NA	971.1	NA	NA		M	NA	NA	NA	NA
2016/11/23 10:47:00	AWS2	16.33	13	20.11	13	M	M	M	NA	NA	971.2	NA	NA		M	NA	NA	NA	NA
2016/11/23 10:48:00	AWS2	17.22	12	20.11	13	M	M	M	NA	NA	971.9	NA	NA		M	NA	NA	NA	NA
2016/11/23 10:49:00	AWS2	16.62	10	20.11	13	M	M	M	NA	NA	971.6	NA	NA		M	NA	NA	NA	NA
2016/11/23 10:50:00	AWS2	16.73	10	20.11	13	M	M	M	NA	NA	971.0	NA	NA		M	NA	NA	NA	NA
2016/11/23 10:51:00	AWS2	17.24	11	19.81	15	M	M	M	NA	NA	971.4	NA	NA		M	NA	NA	NA	NA
2016/11/23 10:52:00	AWS2	17.23	11	19.81	19	M	M	M	NA	NA	971.2	NA	NA		M	NA	NA	NA	NA
2016/11/23 10:53:00	AWS2	17.01	9	19.81	19	M	M	M	NA	NA	971.7	NA	NA		M	NA	NA	NA	NA
2016/11/23 10:54:00	AWS2	15.79	9	19.81	19	M	M	M	NA	NA	971.6	NA	NA		M	NA	NA	NA	NA
2016/11/23 10:55:00	AWS2	15.95	8	19.81	19	M	M	M	NA	NA	971.6	NA	NA		M	NA	NA	NA	NA
2016/11/23 10:56:00	AWS2	16.68	8	19.81	19	M	M	M	NA	NA	971.1	NA	NA		M	NA	NA	NA	NA
2016/11/23 10:57:00	AWS2	16.04	9	19.81	19	M	M	M	NA	NA	971.6	NA	NA		M	NA	NA	NA	NA
2016/11/23 10:58:01	AWS2	16.16	7	19.81	19	M	M	M	NA	NA	971.7	NA	NA		M	NA	NA	NA	NA
2016/11/23 10:59:00	AWS2	16.20	7	19.81	19	M	M	M	NA	NA	971.9	NA	NA		M	NA	NA	NA	NA
2016/11/23 11:00:01	AWS2	15.55	10	19.81	19	M	M	M	NA	NA	971.7	NA	NA		M	NA	NA	NA	NA
2016/11/23 11:01:00	AWS2	16.54	11	19.81	19	M	M	M	NA	NA	971.6	NA	NA		M	NA	NA	NA	NA
2016/11/23 11:02:00	AWS2	17.24	12	18.93	11	M	M	M	NA	NA	971.3	NA	NA		M	NA	NA	NA	NA
2016/11/23 11:03:00	AWS2	17.32	10	19.50	9	M	M	M	NA	NA	971.2	NA	NA		M	NA	NA	NA	NA
2016/11/23 11:04:00	AWS2	18.29	10	19.91	18	M	M	M	NA	NA	970.7	NA	NA		M	NA	NA	NA	NA
2016/11/23 11:05:01	AWS2	17.92	11	19.91	18	M	M	M	NA	NA	971.5	NA	NA		M	NA	NA	NA	NA
2016/11/23 11:06:01	AWS2	17.84	12	20.27	13	M	M	M	NA	NA	970.9	NA	NA		M	NA	NA	NA	NA
2016/11/23 11:07:01	AWS2	18.38	14	21.04	17	M	M	M	NA	NA	970.8	NA	NA		M	NA	NA	NA	NA
2016/11/23 11:08:01	AWS2	18.19	13	21.04	17	M	M	M	NA	NA	970.9	NA	NA		M	NA	NA	NA	NA
2016/11/23 11:09:01	AWS2	17.05	11	21.04	17	M	M	M	NA	NA	971.2	NA	NA		M	NA	NA	NA	NA
2016/11/23 11:10:01	AWS2	16.62	12	21.04	17	M	M	M	NA	NA	971.0	NA	NA		M	NA	NA	NA	NA
2016/11/23 11:11:01	AWS2	17.41	13	21.04	17	M	M	M	NA	NA	971.4	NA	NA		M	NA	NA	NA	NA
2016/11/23 11:12:01	AWS2	17.87	10	21.04	17	M	M	M	NA	NA	970.8	NA	NA		M	NA	NA	NA	NA
2016/11/23 11:13:01	AWS2	18.33	8	21.04	9	M	M	M	NA	NA	970.8	NA	NA		M	NA	NA	NA	NA
2016/11/23 11:14:01	AWS2	18.32	8	21.04	9	M	M	M	NA	NA	971.4	NA	NA		M	NA	NA	NA	NA
2016/11/23 11:15:01	AWS2	17.01	9	21.04	9	M	M	M	NA	NA	972.0	NA	NA		M	NA	NA	NA	NA
2016/11/23 11:16:01	AWS2	16.72	8	21.04	9	M	M	M	NA	NA	971.0	NA	NA		M	NA	NA	NA	NA
2016/11/23 11:17:01	AWS2	17.96	9	21.04	9	M	M	M	NA	NA	970.5	NA	NA		M	NA	NA	NA	NA
2016/11/23 11:18:01	AWS2	17.16	10	21.04	9	M	M	M	NA	NA	970.8	NA	NA		M	NA	NA	NA	NA
2016/11/23 11:19:01	AWS2	15.96	10	21.04	9	M	M	M	NA	NA	970.7	NA	NA		M	NA	NA	NA	NA
2016/11/23 11:20:01	AWS2	15.53	10	21.04	9	M	M	M	NA	NA	971.0	NA	NA		M	NA	NA	NA	NA
2016/11/23 11:21:01	AWS2	15.74	12	21.04	9	M	M	M	NA	NA	970.5	NA	NA		M	NA	NA	NA	NA
2016/11/23 11:22:01	AWS2	16.65	11	21.04	9	M	M	M	NA	NA	971.3	NA	NA		M	NA	NA	NA	NA
2016/11/23 11:23:01	AWS2	16.87	10	20.78	2	M	M	M	NA	NA	971.2	NA	NA		M	NA	NA	NA	NA
2016/11/23 11:24:01	AWS2	17.46	10	20.78	2	M	M	M	NA	NA	971.0	NA	NA		M	NA	NA	NA	NA
2016/11/23 11:25:01	AWS2	17.68	9	20.78	2	M	M	M	NA	NA	970.9	NA	NA		M	NA	NA	NA	NA
2016/11/23 11:26:01	AWS2	17.37	10	20.27	11	M	M	M	NA	NA	971.1	NA	NA		M	NA	NA	NA	NA
2016/11/23 11:27:01	AWS2	17.34	9	19.75	7	M	M	M	NA	NA	970.6	NA	NA		M	NA	NA	NA	NA
2016/11/23 11:28:01	AWS2	17.32	9	19.75	7	M	M	M	NA	NA	970.9	NA	NA		M	NA	NA	NA	NA
2016/11/23 11:29:01	AWS2	17.96	10	20.11	8	M	M	M	NA	NA	970.4	NA	NA		M	NA	NA	NA	NA
2016/11/23 11:30:01	AWS2	17.65	8	20.11	8	M	M	M	NA	NA	970.9	NA	NA		M	NA	NA	NA	NA
2016/11/23 11:31:01	AWS2	16.75	8	20.11	8	M	M	M	NA	NA	970.8	NA	NA		M	NA	NA	NA	NA
2016/11/23 11:32:01	AWS2	17.01	9	20.47	4	M	M	M	NA	NA	970.9	NA	NA		M	NA	NA	NA	NA
2016/11/23 11:33:01	AWS2	17.41	9	21.25	3	M	M	M	NA	NA	970.9	NA	NA		M	NA	NA	NA	NA
2016/11/23 11:34:01	AWS2	17.26	9	21.25	3	M	M	M	NA	NA	970.5	NA	NA		M	NA	NA	NA	NA
2016/11/23 11:35:01	AWS2	17.49	10	21.25	3	M	M	M	NA	NA	970.4	NA	NA		M	NA	NA	NA	NA
2016/11/23 11:36:01	AWS2	17.90	10	21.25	3	M	M	M	NA	NA	971.0	NA	NA		M	NA	NA	NA	NA
2016/11/23 11:37:01	AWS2	18.09	8	21.25	3	M	M	M	NA	NA	970.8	NA	NA		M	NA	NA	NA	NA
2016/11/23 11:38:01	AWS2	18.09	8	21.25	3	M	M	M	NA	NA	970.9	NA	NA		M	NA	NA	NA	NA
2016/11/23 11:39:01	AWS2	18.06	9	21.25	3	M	M	M	NA	NA	970.9	NA	NA		M	NA	NA	NA	NA
2016/11/23 11:40:01	AWS2	17.65	8	21.25	3	M	M	M	NA	NA	970.4	NA	NA		M	NA	NA	NA	NA
2016/11/23 11:41:01	AWS2	17.33	8	21.25	3	M	M	M	NA	NA	971.0	NA	NA		M	NA	NA	NA	NA
2016/11/23 11:42:01	AWS2	18.06	9	21.25	3	M	M	M	NA	NA	969.8	NA	NA		M	NA	NA	NA	NA
2016/11/23 11:43:01	AWS2	18.12	9	20.94	12	M	M	M	NA	NA	970.2	NA	NA		M	NA	NA	NA	NA
2016/11/23 11:44:01	AWS2	17.17	8	20.94	12	M	M	M	NA	NA	971.3	NA	NA		M	NA	NA	NA	NA
2016/11/23 11:45:01	AWS2	16.66	7	20.94	12	M	M	M	NA	NA	971.2	NA	NA		M	NA	NA	NA	NA
2016/11/23 11:46:01	AWS2	17.74	8	20.94	12	M	M	M	NA	NA	970.6	NA	NA		M	NA	NA	NA	NA
2016/11/23 11:47:01	AWS2	18.77	8	20.99	14	M	M	M	NA	NA	970.5	NA	NA		M	NA	NA	NA	NA
2016/11/23 11:48:01	AWS2	17.54	8	20.99	14	M	M	M	NA	NA	971.3	NA	NA		M	NA	NA	NA	NA
2016/11/23 11:49:01	AWS2	16.78	9	20.99	14	M	M	M	NA	NA	970.5	NA	NA		M	NA	NA	NA	NA
2016/11/23 11:50:01	AWS2	17.02	10	20.99	14	M	M	M	NA	NA	970.1	NA	NA		M	NA	NA	NA	NA
2016/11/23 11:51:01	AWS2	17.44	6	20.99	14	M	M	M	NA	NA	970.2	NA	NA		M	NA	NA	NA	NA
2016/11/23 11:52:01	AWS2	17.80	6	20.99	14	M	M	M	NA	NA	970.4	NA	NA		M	NA	NA	NA	NA
2016/11/23 11:53:01	AWS2	17.11	9	20.99	14	M	M	M	NA	NA	971.5	NA	NA		M	NA	NA	NA	NA
2016/11/23 11:54:01	AWS2	16.34	8	20.99	14	M	M	M	NA	NA	971.2	NA	NA		M	NA	NA	NA	NA
2016/11/23 11:55:01	AWS2	16.60	8	20.99	14	M	M	M	NA	NA	971.0	NA	NA		M	NA	NA	NA	NA
2016/11/23 11:56:01	AWS2	16.68	8	20.99	14	M	M	M	NA	NA	970.9	NA	NA		M	NA	NA	NA	NA
2016/11/23 11:57:01	AWS2	16.56	10	19.45	9	M	M	M	NA	NA	970.4	NA	NA		M	NA	NA	NA	NA
2016/11/23 11:58:01	AWS2	17.35	12	20.42	16	M	M	M	NA	NA	970.5	NA	NA		M	NA	NA	NA	NA
2016/11/23 11:59:01	AWS2	17.90	10	20.42	16	M	M	M	NA	NA	970.6	NA	NA		M	NA	NA	NA	NA
2016/11/23 12:00:01	AWS2	17.57	9	20.42	16	M	M	M	NA	NA	971.4	NA	NA		M	NA	NA	NA	NA
2016/11/23 12:01:01	AWS2	16.86	9	20.42	16	M	M	M	NA	NA	970.9	NA	NA		M	NA	NA	NA	NA
2016/11/23 12:02:01	AWS2	16.47	9	20.42	16	M	M	M	NA	NA	970.7	NA	NA		M	NA	NA	NA	NA
2016/11/23 12:03:01	AWS2	16.78	7	20.42	16	M	M	M	NA	NA	970.7	NA	NA		M	NA	NA	NA	NA
2016/11/23 12:04:01	AWS2	16.96	5	20.42	16	M	M	M	NA	NA	970.8	NA	NA		M	NA	NA	NA	NA
2016/11/23 12:05:01	AWS2	16.73	8	20.42	16	M	M	M	NA	NA	970.4	NA	NA		M	NA	NA	NA	NA
2016/11/23 12:06:01	AWS2	16.88	9	20.42	16	M	M	M	NA	NA	970.4	NA	NA		M	NA	NA	NA	NA
2016/11/23 12:07:01	AWS2	16.93	8	20.42	16	M	M	M	NA	NA	970.3	NA	NA		M	NA	NA	NA	NA
2016/11/23 12:08:01	AWS2	16.69	8	19.39	14	M	M	M	NA	NA	971.2	NA	NA		M	NA	NA	NA	NA
2016/11/23 12:09:01	AWS2	17.09	9	19.55	7	M	M	M	NA	NA	970.3	NA	NA		M	NA	NA	NA	NA
2016/11/23 12:10:01	AWS2	16.98	9	19.55	7	M	M	M	NA	NA	970.2	NA	NA		M	NA	NA	NA	NA
2016/11/23 12:11:01	AWS2	15.94	8	19.55	7	M	M	M	NA	NA	970.6	NA	NA		M	NA	NA	NA	NA
2016/11/23 12:12:01	AWS2	15.20	4	19.55	7	M	M	M	NA	NA	971.3	NA	NA		M	NA	NA	NA	NA
2016/11/23 12:13:01	AWS2	15.58	5	19.55	7	M	M	M	NA	NA	970.6	NA	NA		M	NA	NA	NA	NA
2016/11/23 12:14:01	AWS2	15.83	8	19.55	7	M	M	M	NA	NA	971.5	NA	NA		M	NA	NA	NA	NA
2016/11/23 12:15:01	AWS2	15.11	8	19.55	7	M	M	M	NA	NA	970.9	NA	NA		M	NA	NA	NA	NA
2016/11/23 12:16:01	AWS2	15.93	9	19.55	7	M	M	M	NA	NA	970.5	NA	NA		M	NA	NA	NA	NA
2016/11/23 12:17:01	AWS2	16.84	7	19.55	10	M	M	M	NA	NA	971.3	NA	NA		M	NA	NA	NA	NA
2016/11/23 12:18:01	AWS2	16.50	5	19.55	10	M	M	M	NA	NA	970.8	NA	NA		M	NA	NA	NA	NA
2016/11/23 12:19:01	AWS2	15.59	4	19.55	10	M	M	M	NA	NA	971.0	NA	NA		M	NA	NA	NA	NA
2016/11/23 12:20:01	AWS2	15.46	4	19.55	10	M	M	M	NA	NA	970.8	NA	NA		M	NA	NA	NA	NA
2016/11/23 12:21:01	AWS2	15.70	4	19.55	10	M	M	M	NA	NA	971.0	NA	NA		M	NA	NA	NA	NA
2016/11/23 12:22:01	AWS2	15.11	4	19.55	10	M	M	M	NA	NA	971.0	NA	NA		M	NA	NA	NA	NA
2016/11/23 12:23:01	AWS2	15.00	7	19.55	10	M	M	M	NA	NA	970.9	NA	NA		M	NA	NA	NA	NA
2016/11/23 12:24:01	AWS2	15.96	6	19.55	10	M	M	M	NA	NA	970.1	NA	NA		M	NA	NA	NA	NA
2016/11/23 12:25:01	AWS2	16.29	3	19.55	10	M	M	M	NA	NA	970.8	NA	NA		M	NA	NA	NA	NA
2016/11/23 12:26:01	AWS2	16.54	4	19.55	10	M	M	M	NA	NA	970.6	NA	NA		M	NA	NA	NA	NA
2016/11/23 12:27:01	AWS2	16.50	2	18.83	3	M	M	M	NA	NA	971.0	NA	NA		M	NA	NA	NA	NA
2016/11/23 12:28:01	AWS2	16.00	3	18.78	3	M	M	M	NA	NA	971.0	NA	NA		M	NA	NA	NA	NA
2016/11/23 12:29:01	AWS2	15.97	4	18.78	3	M	M	M	NA	NA	970.8	NA	NA		M	NA	NA	NA	NA
2016/11/23 12:30:01	AWS2	15.40	3	18.78	3	M	M	M	NA	NA	971.2	NA	NA		M	NA	NA	NA	NA
2016/11/23 12:31:01	AWS2	15.40	3	18.78	3	M	M	M	NA	NA	970.8	NA	NA		M	NA	NA	NA	NA
2016/11/23 12:32:01	AWS2	15.76	4	18.78	3	M	M	M	NA	NA	970.4	NA	NA		M	NA	NA	NA	NA
2016/11/23 12:33:01	AWS2	16.22	5	18.78	3	M	M	M	NA	NA	970.3	NA	NA		M	NA	NA	NA	NA
2016/11/23 12:34:01	AWS2	16.64	3	18.78	3	M	M	M	NA	NA	970.7	NA	NA		M	NA	NA	NA	NA
2016/11/23 12:35:01	AWS2	16.69	4	18.78	3	M	M	M	NA	NA	970.7	NA	NA		M	NA	NA	NA	NA
2016/11/23 12:36:01	AWS2	16.68	1	18.67	10	M	M	M	NA	NA	970.2	NA	NA		M	NA	NA	NA	NA
2016/11/23 12:37:01	AWS2	16.34	360	18.67	10	M	M	M	NA	NA	970.1	NA	NA		M	NA	NA	NA	NA
2016/11/23 12:38:01	AWS2	16.40	356	18.67	10	M	M	M	NA	NA	970.4	NA	NA		M	NA	NA	NA	NA
2016/11/23 12:39:01	AWS2	16.79	357	18.67	10	M	M	M	NA	NA	969.6	NA	NA		M	NA	NA	NA	NA
2016/11/23 12:40:01	AWS2	16.42	5	18.67	10	M	M	M	NA	NA	970.0	NA	NA		M	NA	NA	NA	NA
2016/11/23 12:41:01	AWS2	16.37	5	18.67	10	M	M	M	NA	NA	969.7	NA	NA		M	NA	NA	NA	NA
2016/11/23 12:42:01	AWS2	16.60	3	18.67	10	M	M	M	NA	NA	970.1	NA	NA		M	NA	NA	NA	NA
2016/11/23 12:43:01	AWS2	16.49	3	18.67	10	M	M	M	NA	NA	970.0	NA	NA		M	NA	NA	NA	NA
2016/11/23 12:44:01	AWS2	15.90	1	18.67	10	M	M	M	NA	NA	970.2	NA	NA		M	NA	NA	NA	NA
2016/11/23 12:45:01	AWS2	15.86	1	18.52	1	M	M	M	NA	NA	970.3	NA	NA		M	NA	NA	NA	NA
2016/11/23 12:46:01	AWS2	16.76	359	18.78	354	M	M	M	NA	NA	969.6	NA	NA		M	NA	NA	NA	NA
2016/11/23 12:47:01	AWS2	16.97	358	18.78	354	M	M	M	NA	NA	969.7	NA	NA		M	NA	NA	NA	NA
2016/11/23 12:48:01	AWS2	17.13	360	18.78	354	M	M	M	NA	NA	969.2	NA	NA		M	NA	NA	NA	NA
2016/11/23 12:49:01	AWS2	17.10	358	18.78	354	M	M	M	NA	NA	969.4	NA	NA		M	NA	NA	NA	NA
2016/11/23 12:50:01	AWS2	16.16	358	18.78	354	M	M	M	NA	NA	970.1	NA	NA		M	NA	NA	NA	NA
2016/11/23 12:51:01	AWS2	15.60	359	18.78	354	M	M	M	NA	NA	969.8	NA	NA		M	NA	NA	NA	NA
2016/11/23 12:52:01	AWS2	16.25	2	18.78	354	M	M	M	NA	NA	969.5	NA	NA		M	NA	NA	NA	NA
2016/11/23 12:53:01	AWS2	16.73	4	18.78	354	M	M	M	NA	NA	969.5	NA	NA		M	NA	NA	NA	NA
2016/11/23 12:54:01	AWS2	16.53	6	18.78	354	M	M	M	NA	NA	969.5	NA	NA		M	NA	NA	NA	NA
2016/11/23 12:55:01	AWS2	16.25	5	18.78	354	M	M	M	NA	NA	969.9	NA	NA		M	NA	NA	NA	NA
2016/11/23 12:56:01	AWS2	16.25	1	18.73	5	M	M	M	NA	NA	969.3	NA	NA		M	NA	NA	NA	NA
2016/11/23 12:57:01	AWS2	16.45	360	18.73	5	M	M	M	NA	NA	969.2	NA	NA		M	NA	NA	NA	NA
2016/11/23 12:58:01	AWS2	16.25	356	18.31	353	M	M	M	NA	NA	969.7	NA	NA		M	NA	NA	NA	NA
2016/11/23 12:59:01	AWS2	15.90	357	18.31	353	M	M	M	NA	NA	969.4	NA	NA		M	NA	NA	NA	NA
2016/11/23 13:00:01	AWS2	16.24	3	18.98	3	M	M	M	NA	NA	970.2	NA	NA		M	NA	NA	NA	NA
2016/11/23 13:01:01	AWS2	16.26	3	18.98	3	M	M	M	NA	NA	970.0	NA	NA		M	NA	NA	NA	NA
2016/11/23 13:02:01	AWS2	15.61	1	18.98	3	M	M	M	NA	NA	970.0	NA	NA		M	NA	NA	NA	NA
2016/11/23 13:03:01	AWS2	15.65	4	19.75	2	M	M	M	NA	NA	969.7	NA	NA		M	NA	NA	NA	NA
2016/11/23 13:04:01	AWS2	16.52	5	19.75	2	M	M	M	NA	NA	970.6	NA	NA		M	NA	NA	NA	NA
2016/11/23 13:05:01	AWS2	17.33	5	19.75	2	M	M	M	NA	NA	969.9	NA	NA		M	NA	NA	NA	NA
2016/11/23 13:06:01	AWS2	17.95	5	20.58	1	M	M	M	NA	NA	969.9	NA	NA		M	NA	NA	NA	NA
2016/11/23 13:07:01	AWS2	17.71	2	20.58	1	M	M	M	NA	NA	970.2	NA	NA		M	NA	NA	NA	NA
2016/11/23 13:08:01	AWS2	17.24	356	20.58	1	M	M	M	NA	NA	969.8	NA	NA		M	NA	NA	NA	NA
2016/11/23 13:09:01	AWS2	17.52	355	20.58	1	M	M	M	NA	NA	970.5	NA	NA		M	NA	NA	NA	NA
2016/11/23 13:10:01	AWS2	16.90	0	20.58	1	M	M	M	NA	NA	970.4	NA	NA		M	NA	NA	NA	NA
2016/11/23 13:11:01	AWS2	16.20	360	20.58	1	M	M	M	NA	NA	969.9	NA	NA		M	NA	NA	NA	NA
2016/11/23 13:12:01	AWS2	15.54	2	20.58	1	M	M	M	NA	NA	970.3	NA	NA		M	NA	NA	NA	NA
2016/11/23 13:13:01	AWS2	15.48	4	20.58	1	M	M	M	NA	NA	970.0	NA	NA		M	NA	NA	NA	NA
2016/11/23 13:14:01	AWS2	16.52	1	20.58	1	M	M	M	NA	NA	970.1	NA	NA		M	NA	NA	NA	NA
2016/11/23 13:15:00	AWS2	17.19	2	20.58	1	M	M	M	NA	NA	970.0	NA	NA		M	NA	NA	NA	NA
2016/11/23 13:16:00	AWS2	16.84	3	19.19	8	M	M	M	NA	NA	970.2	NA	NA		M	NA	NA	NA	NA
2016/11/23 13:17:00	AWS2	16.38	3	18.98	353	M	M	M	NA	NA	969.9	NA	NA		M	NA	NA	NA	NA
2016/11/23 13:18:00	AWS2	16.13	2	18.78	1	M	M	M	NA	NA	970.2	NA	NA		M	NA	NA	NA	NA
2016/11/23 13:19:00	AWS2	16.08	3	18.78	1	M	M	M	NA	NA	970.3	NA	NA		M	NA	NA	NA	NA
2016/11/23 13:20:00	AWS2	16.10	1	18.67	5	M	M	M	NA	NA	970.6	NA	NA		M	NA	NA	NA	NA
2016/11/23 13:21:00	AWS2	15.74	1	18.67	5	M	M	M	NA	NA	970.4	NA	NA		M	NA	NA	NA	NA
2016/11/23 13:22:00	AWS2	15.99	6	18.67	5	M	M	M	NA	NA	969.6	NA	NA		M	NA	NA	NA	NA
2016/11/23 13:23:00	AWS2	16.16	2	18.67	5	M	M	M	NA	NA	969.9	NA	NA		M	NA	NA	NA	NA
2016/11/23 13:24:00	AWS2	16.19	356	18.67	5	M	M	M	NA	NA	970.0	NA	NA		M	NA	NA	NA	NA
2016/11/23 13:25:00	AWS2	16.61	351	18.42	354	M	M	M	NA	NA	970.0	NA	NA		M	NA	NA	NA	NA
2016/11/23 13:26:00	AWS2	16.66	353	18.42	354	M	M	M	NA	NA	969.7	NA	NA		M	NA	NA	NA	NA
2016/11/23 13:27:00	AWS2	16.12	1	18.42	354	M	M	M	NA	NA	969.8	NA	NA		M	NA	NA	NA	NA
2016/11/23 13:28:00	AWS2	15.75	358	18.42	354	M	M	M	NA	NA	970.2	NA	NA		M	NA	NA	NA	NA
2016/11/23 13:29:00	AWS2	15.96	359	18.42	354	M	M	M	NA	NA	969.9	NA	NA		M	NA	NA	NA	NA
2016/11/23 13:30:00	AWS2	16.34	5	18.42	354	M	M	M	NA	NA	970.4	NA	NA		M	NA	NA	NA	NA
2016/11/23 13:31:00	AWS2	16.25	7	18.42	354	M	M	M	NA	NA	969.9	NA	NA		M	NA	NA	NA	NA
2016/11/23 13:32:00	AWS2	16.25	1	18.26	1	M	M	M	NA	NA	969.8	NA	NA		M	NA	NA	NA	NA
2016/11/23 13:33:00	AWS2	16.26	355	18.11	10	M	M	M	NA	NA	970.1	NA	NA		M	NA	NA	NA	NA
2016/11/23 13:34:00	AWS2	16.03	360	18.21	7	M	M	M	NA	NA	970.2	NA	NA		M	NA	NA	NA	NA
2016/11/23 13:35:00	AWS2	15.68	3	18.21	7	M	M	M	NA	NA	970.2	NA	NA		M	NA	NA	NA	NA
2016/11/23 13:36:00	AWS2	15.46	4	18.21	7	M	M	M	NA	NA	970.3	NA	NA		M	NA	NA	NA	NA
2016/11/23 13:37:00	AWS2	15.64	5	18.21	7	M	M	M	NA	NA	970.1	NA	NA		M	NA	NA	NA	NA
2016/11/23 13:38:00	AWS2	15.33	0	18.21	7	M	M	M	NA	NA	970.4	NA	NA		M	NA	NA	NA	NA
2016/11/23 13:39:00	AWS2	15.09	2	18.21	7	M	M	M	NA	NA	970.3	NA	NA		M	NA	NA	NA	NA
2016/11/23 13:40:00	AWS2	15.58	4	18.21	7	M	M	M	NA	NA	970.4	NA	NA		M	NA	NA	NA	NA
2016/11/23 13:41:00	AWS2	15.10	0	18.21	7	M	M	M	NA	NA	970.7	NA	NA		M	NA	NA	NA	NA
2016/11/23 13:42:00	AWS2	13.97	360	18.21	7	M	M	M	NA	NA	970.5	NA	NA		M	NA	NA	NA	NA
2016/11/23 13:43:00	AWS2	14.04	353	18.21	7	M	M	M	NA	NA	970.9	NA	NA		M	NA	NA	NA	NA
2016/11/23 13:44:00	AWS2	14.03	346	17.29	354	M	M	M	NA	NA	970.1	NA	NA		M	NA	NA	NA	NA
2016/11/23 13:45:00	AWS2	13.79	354	17.29	354	M	M	M	NA	NA	970.6	NA	NA		M	NA	NA	NA	NA
2016/11/23 13:46:00	AWS2	13.82	356	17.29	354	M	M	M	NA	NA	970.7	NA	NA		M	NA	NA	NA	NA
2016/11/23 13:47:00	AWS2	13.79	351	16.82	2	M	M	M	NA	NA	970.7	NA	NA		M	NA	NA	NA	NA
2016/11/23 13:48:00	AWS2	14.48	352	16.82	2	M	M	M	NA	NA	970.1	NA	NA		M	NA	NA	NA	NA
2016/11/23 13:49:00	AWS2	14.87	354	16.82	2	M	M	M	NA	NA	970.5	NA	NA		M	NA	NA	NA	NA
2016/11/23 13:50:00	AWS2	14.50	360	16.41	9	M	M	M	NA	NA	970.4	NA	NA		M	NA	NA	NA	NA
2016/11/23 13:51:00	AWS2	14.78	2	16.67	1	M	M	M	NA	NA	970.7	NA	NA		M	NA	NA	NA	NA
2016/11/23 13:52:00	AWS2	14.80	3	16.67	1	M	M	M	NA	NA	970.5	NA	NA		M	NA	NA	NA	NA
2016/11/23 13:53:00	AWS2	14.59	2	16.67	1	M	M	M	NA	NA	970.7	NA	NA		M	NA	NA	NA	NA
2016/11/23 13:54:00	AWS2	14.78	356	16.67	1	M	M	M	NA	NA	969.9	NA	NA		M	NA	NA	NA	NA
2016/11/23 13:55:00	AWS2	14.58	353	16.82	353	M	M	M	NA	NA	970.3	NA	NA		M	NA	NA	NA	NA
2016/11/23 13:56:00	AWS2	14.20	352	16.82	353	M	M	M	NA	NA	971.0	NA	NA		M	NA	NA	NA	NA
2016/11/23 13:57:00	AWS2	13.37	356	16.82	353	M	M	M	NA	NA	970.9	NA	NA		M	NA	NA	NA	NA
2016/11/23 13:58:00	AWS2	13.56	0	16.82	353	M	M	M	NA	NA	970.2	NA	NA		M	NA	NA	NA	NA
2016/11/23 13:59:00	AWS2	14.41	5	16.82	353	M	M	M	NA	NA	970.6	NA	NA		M	NA	NA	NA	NA
2016/11/23 14:00:00	AWS2	14.07	357	16.82	353	M	M	M	NA	NA	970.8	NA	NA		M	NA	NA	NA	NA
2016/11/23 14:01:00	AWS2	13.87	351	16.82	353	M	M	M	NA	NA	970.8	NA	NA		M	NA	NA	NA	NA
2016/11/23 14:02:00	AWS2	13.97	358	16.82	353	M	M	M	NA	NA	970.7	NA	NA		M	NA	NA	NA	NA
2016/11/23 14:03:00	AWS2	13.64	1	16.82	353	M	M	M	NA	NA	971.1	NA	NA		M	NA	NA	NA	NA
2016/11/23 14:04:00	AWS2	13.41	0	16.82	353	M	M	M	NA	NA	970.5	NA	NA		M	NA	NA	NA	NA
2016/11/23 14:05:00	AWS2	13.77	357	15.95	354	M	M	M	NA	NA	970.7	NA	NA		M	NA	NA	NA	NA
2016/11/23 14:06:00	AWS2	13.88	354	15.95	354	M	M	M	NA	NA	971.0	NA	NA		M	NA	NA	NA	NA
2016/11/23 14:07:00	AWS2	13.99	355	16.10	354	M	M	M	NA	NA	970.3	NA	NA		M	NA	NA	NA	NA
2016/11/23 14:08:00	AWS2	14.07	360	16.10	354	M	M	M	NA	NA	970.6	NA	NA		M	NA	NA	NA	NA
2016/11/23 14:09:00	AWS2	13.92	0	16.10	354	M	M	M	NA	NA	971.0	NA	NA		M	NA	NA	NA	NA
2016/11/23 14:10:00	AWS2	14.05	0	16.10	354	M	M	M	NA	NA	970.6	NA	NA		M	NA	NA	NA	NA
2016/11/23 14:11:00	AWS2	13.95	3	16.10	354	M	M	M	NA	NA	971.1	NA	NA		M	NA	NA	NA	NA
2016/11/23 14:12:00	AWS2	13.28	357	16.10	354	M	M	M	NA	NA	970.6	NA	NA		M	NA	NA	NA	NA
2016/11/23 14:13:00	AWS2	12.87	354	16.10	354	M	M	M	NA	NA	970.9	NA	NA		M	NA	NA	NA	NA
2016/11/23 14:14:00	AWS2	13.67	359	16.10	354	M	M	M	NA	NA	971.0	NA	NA		M	NA	NA	NA	NA
2016/11/23 14:15:00	AWS2	14.08	359	16.10	354	M	M	M	NA	NA	971.1	NA	NA		M	NA	NA	NA	NA
2016/11/23 14:16:00	AWS2	14.00	355	16.10	354	M	M	M	NA	NA	970.5	NA	NA		M	NA	NA	NA	NA
2016/11/23 14:17:00	AWS2	14.27	355	16.00	12	M	M	M	NA	NA	970.7	NA	NA		M	NA	NA	NA	NA
2016/11/23 14:18:00	AWS2	14.03	357	16.00	12	M	M	M	NA	NA	970.7	NA	NA		M	NA	NA	NA	NA
2016/11/23 14:19:00	AWS2	13.98	1	16.00	12	M	M	M	NA	NA	970.6	NA	NA		M	NA	NA	NA	NA
2016/11/23 14:20:00	AWS2	14.06	359	16.00	12	M	M	M	NA	NA	971.0	NA	NA		M	NA	NA	NA	NA
2016/11/23 14:21:00	AWS2	13.91	354	16.00	12	M	M	M	NA	NA	971.1	NA	NA		M	NA	NA	NA	NA
2016/11/23 14:22:00	AWS2	13.98	346	16.00	12	M	M	M	NA	NA	971.0	NA	NA		M	NA	NA	NA	NA
2016/11/23 14:23:00	AWS2	13.83	347	16.20	8	M	M	M	NA	NA	970.8	NA	NA		M	NA	NA	NA	NA
2016/11/23 14:24:00	AWS2	13.73	348	16.20	8	M	M	M	NA	NA	970.5	NA	NA		M	NA	NA	NA	NA
2016/11/23 14:25:00	AWS2	13.75	348	16.20	8	M	M	M	NA	NA	970.7	NA	NA		M	NA	NA	NA	NA
2016/11/23 14:26:00	AWS2	13.68	356	16.20	8	M	M	M	NA	NA	971.2	NA	NA		M	NA	NA	NA	NA
2016/11/23 14:27:00	AWS2	13.70	360	16.20	8	M	M	M	NA	NA	971.7	NA	NA		M	NA	NA	NA	NA
2016/11/23 14:28:00	AWS2	13.55	359	16.20	8	M	M	M	NA	NA	972.1	NA	NA		M	NA	NA	NA	NA
2016/11/23 14:29:00	AWS2	13.42	357	16.20	8	M	M	M	NA	NA	971.5	NA	NA		M	NA	NA	NA	NA
2016/11/23 14:30:00	AWS2	13.31	354	16.20	8	M	M	M	NA	NA	971.3	NA	NA		M	NA	NA	NA	NA
2016/11/23 14:31:00	AWS2	13.38	354	16.20	8	M	M	M	NA	NA	971.6	NA	NA		M	NA	NA	NA	NA
2016/11/23 14:32:00	AWS2	13.73	354	16.20	8	M	M	M	NA	NA	971.0	NA	NA		M	NA	NA	NA	NA
2016/11/23 14:33:00	AWS2	13.64	360	15.84	348	M	M	M	NA	NA	971.3	NA	NA		M	NA	NA	NA	NA
2016/11/23 14:34:00	AWS2	13.80	1	16.15	7	M	M	M	NA	NA	971.2	NA	NA		M	NA	NA	NA	NA
2016/11/23 14:35:00	AWS2	13.75	352	16.15	7	M	M	M	NA	NA	972.3	NA	NA		M	NA	NA	NA	NA
2016/11/23 14:36:00	AWS2	12.80	350	16.15	7	M	M	M	NA	NA	971.8	NA	NA		M	NA	NA	NA	NA
2016/11/23 14:37:00	AWS2	12.72	353	16.15	7	M	M	M	NA	NA	971.7	NA	NA		M	NA	NA	NA	NA
2016/11/23 14:38:00	AWS2	12.36	353	16.15	7	M	M	M	NA	NA	972.8	NA	NA		M	NA	NA	NA	NA
2016/11/23 14:39:00	AWS2	12.03	355	16.15	7	M	M	M	NA	NA	972.2	NA	NA		M	NA	NA	NA	NA
2016/11/23 14:40:00	AWS2	12.20	353	16.15	7	M	M	M	NA	NA	972.3	NA	NA		M	NA	NA	NA	NA
2016/11/23 14:41:00	AWS2	11.67	351	16.15	7	M	M	M	NA	NA	972.4	NA	NA		M	NA	NA	NA	NA
2016/11/23 14:42:00	AWS2	12.17	353	16.15	7	M	M	M	NA	NA	972.3	NA	NA		M	NA	NA	NA	NA
2016/11/23 14:43:00	AWS2	12.94	351	16.15	7	M	M	M	NA	NA	971.9	NA	NA		M	NA	NA	NA	NA
2016/11/23 14:44:00	AWS2	13.12	352	14.97	1	M	M	M	NA	NA	971.8	NA	NA		M	NA	NA	NA	NA
2016/11/23 14:45:00	AWS2	13.16	355	15.12	344	M	M	M	NA	NA	972.4	NA	NA		M	NA	NA	NA	NA
2016/11/23 14:46:00	AWS2	13.10	351	15.59	352	M	M	M	NA	NA	971.9	NA	NA		M	NA	NA	NA	NA
2016/11/23 14:47:00	AWS2	12.56	348	15.59	352	M	M	M	NA	NA	972.2	NA	NA		M	NA	NA	NA	NA
2016/11/23 14:48:00	AWS2	11.22	348	15.59	352	M	M	M	NA	NA	972.6	NA	NA		M	NA	NA	NA	NA
2016/11/23 14:49:00	AWS2	11.19	347	15.59	352	M	M	M	NA	NA	972.2	NA	NA		M	NA	NA	NA	NA
2016/11/23 14:50:00	AWS2	11.46	347	15.59	352	M	M	M	NA	NA	972.6	NA	NA		M	NA	NA	NA	NA
2016/11/23 14:51:00	AWS2	10.68	347	15.59	352	M	M	M	NA	NA	972.7	NA	NA		M	NA	NA	NA	NA
2016/11/23 14:52:00	AWS2	9.92	349	15.59	352	M	M	M	NA	NA	972.6	NA	NA		M	NA	NA	NA	NA
2016/11/23 14:53:00	AWS2	9.95	347	15.59	352	M	M	M	NA	NA	972.5	NA	NA		M	NA	NA	NA	NA
2016/11/23 14:54:00	AWS2	10.73	349	15.59	352	M	M	M	NA	NA	972.7	NA	NA		M	NA	NA	NA	NA
2016/11/23 14:55:00	AWS2	10.50	351	15.59	352	M	M	M	NA	NA	972.9	NA	NA		M	NA	NA	NA	NA
2016/11/23 14:56:00	AWS2	10.64	353	13.32	349	M	M	M	NA	NA	972.6	NA	NA		M	NA	NA	NA	NA
2016/11/23 14:57:00	AWS2	10.96	352	13.32	349	M	M	M	NA	NA	972.3	NA	NA		M	NA	NA	NA	NA
2016/11/23 14:58:00	AWS2	10.84	349	13.32	349	M	M	M	NA	NA	972.6	NA	NA		M	NA	NA	NA	NA
2016/11/23 14:59:00	AWS2	10.55	348	13.17	346	M	M	M	NA	NA	973.0	NA	NA		M	NA	NA	NA	NA
2016/11/23 15:00:00	AWS2	10.21	350	13.17	346	M	M	M	NA	NA	972.8	NA	NA		M	NA	NA	NA	NA
2016/11/23 15:01:00	AWS2	10.60	351	13.17	346	M	M	M	NA	NA	972.4	NA	NA		M	NA	NA	NA	NA
2016/11/23 15:02:00	AWS2	10.80	351	13.17	346	M	M	M	NA	NA	973.2	NA	NA		M	NA	NA	NA	NA
2016/11/23 15:03:00	AWS2	10.79	351	12.86	348	M	M	M	NA	NA	973.2	NA	NA		M	NA	NA	NA	NA
2016/11/23 15:04:00	AWS2	10.98	351	12.86	348	M	M	M	NA	NA	972.9	NA	NA		M	NA	NA	NA	NA
2016/11/23 15:05:00	AWS2	12.43	352	15.18	353	M	M	M	NA	NA	972.7	NA	NA		M	NA	NA	NA	NA
2016/11/23 15:06:00	AWS2	13.41	348	15.18	353	M	M	M	NA	NA	972.8	NA	NA		M	NA	NA	NA	NA
2016/11/23 15:07:00	AWS2	12.61	348	15.18	353	M	M	M	NA	NA	972.6	NA	NA		M	NA	NA	NA	NA
2016/11/23 15:08:00	AWS2	12.19	351	15.18	353	M	M	M	NA	NA	972.7	NA	NA		M	NA	NA	NA	NA
2016/11/23 15:09:00	AWS2	11.52	349	15.18	353	M	M	M	NA	NA	972.4	NA	NA		M	NA	NA	NA	NA
2016/11/23 15:10:00	AWS2	11.05	349	15.18	353	M	M	M	NA	NA	972.9	NA	NA		M	NA	NA	NA	NA
2016/11/23 15:11:00	AWS2	12.10	350	15.18	353	M	M	M	NA	NA	972.8	NA	NA		M	NA	NA	NA	NA
2016/11/23 15:12:00	AWS2	12.41	350	15.18	353	M	M	M	NA	NA	973.1	NA	NA		M	NA	NA	NA	NA
2016/11/23 15:13:00	AWS2	11.48	347	15.18	353	M	M	M	NA	NA	972.8	NA	NA		M	NA	NA	NA	NA
2016/11/23 15:14:00	AWS2	10.49	346	15.18	353	M	M	M	NA	NA	972.2	NA	NA		M	NA	NA	NA	NA
2016/11/23 15:15:00	AWS2	11.16	349	14.35	352	M	M	M	NA	NA	972.9	NA	NA		M	NA	NA	NA	NA
2016/11/23 15:16:00	AWS2	11.21	352	14.25	349	M	M	M	NA	NA	972.5	NA	NA		M	NA	NA	NA	NA
2016/11/23 15:17:00	AWS2	10.29	351	14.25	349	M	M	M	NA	NA	972.6	NA	NA		M	NA	NA	NA	NA
2016/11/23 15:18:00	AWS2	9.91	349	14.25	349	M	M	M	NA	NA	973.0	NA	NA		M	NA	NA	NA	NA
2016/11/23 15:19:00	AWS2	10.24	350	14.25	349	M	M	M	NA	NA	972.6	NA	NA		M	NA	NA	NA	NA
2016/11/23 15:20:00	AWS2	11.12	347	14.25	349	M	M	M	NA	NA	972.6	NA	NA		M	NA	NA	NA	NA
2016/11/23 15:21:00	AWS2	11.18	343	14.25	349	M	M	M	NA	NA	972.7	NA	NA		M	NA	NA	NA	NA
2016/11/23 15:22:00	AWS2	11.83	340	14.25	349	M	M	M	NA	NA	972.6	NA	NA		M	NA	NA	NA	NA
2016/11/23 15:23:00	AWS2	11.69	342	14.25	349	M	M	M	NA	NA	972.4	NA	NA		M	NA	NA	NA	NA
2016/11/23 15:24:00	AWS2	11.18	351	14.25	349	M	M	M	NA	NA	973.1	NA	NA		M	NA	NA	NA	NA
2016/11/23 15:25:00	AWS2	10.86	355	14.04	352	M	M	M	NA	NA	973.1	NA	NA		M	NA	NA	NA	NA
2016/11/23 15:26:00	AWS2	10.36	352	14.04	352	M	M	M	NA	NA	973.1	NA	NA		M	NA	NA	NA	NA
2016/11/23 15:27:00	AWS2	10.41	348	14.04	352	M	M	M	NA	NA	972.8	NA	NA		M	NA	NA	NA	NA
2016/11/23 15:28:00	AWS2	10.93	347	14.04	352	M	M	M	NA	NA	972.7	NA	NA		M	NA	NA	NA	NA
2016/11/23 15:29:00	AWS2	10.58	350	14.04	352	M	M	M	NA	NA	973.3	NA	NA		M	NA	NA	NA	NA
2016/11/23 15:30:00	AWS2	10.10	349	14.04	352	M	M	M	NA	NA	973.0	NA	NA		M	NA	NA	NA	NA
2016/11/23 15:31:00	AWS2	10.47	346	14.04	352	M	M	M	NA	NA	973.1	NA	NA		M	NA	NA	NA	NA
2016/11/23 15:32:00	AWS2	10.60	343	13.63	8	M	M	M	NA	NA	973.2	NA	NA		M	NA	NA	NA	NA
2016/11/23 15:33:00	AWS2	10.23	341	13.63	8	M	M	M	NA	NA	973.2	NA	NA		M	NA	NA	NA	NA
2016/11/23 15:34:00	AWS2	10.70	344	13.74	348	M	M	M	NA	NA	973.1	NA	NA		M	NA	NA	NA	NA
2016/11/23 15:35:00	AWS2	11.34	348	13.74	348	M	M	M	NA	NA	972.9	NA	NA		M	NA	NA	NA	NA
2016/11/23 15:36:00	AWS2	11.43	350	13.74	348	M	M	M	NA	NA	972.7	NA	NA		M	NA	NA	NA	NA
2016/11/23 15:37:00	AWS2	11.50	351	13.74	348	M	M	M	NA	NA	972.8	NA	NA		M	NA	NA	NA	NA
2016/11/23 15:38:00	AWS2	10.24	352	13.74	348	M	M	M	NA	NA	973.5	NA	NA		M	NA	NA	NA	NA
2016/11/23 15:39:00	AWS2	9.32	351	13.74	348	M	M	M	NA	NA	973.0	NA	NA		M	NA	NA	NA	NA
2016/11/23 15:40:00	AWS2	9.60	350	13.74	348	M	M	M	NA	NA	973.0	NA	NA		M	NA	NA	NA	NA
2016/11/23 15:41:00	AWS2	9.37	349	13.74	348	M	M	M	NA	NA	973.4	NA	NA		M	NA	NA	NA	NA
2016/11/23 15:42:00	AWS2	9.77	349	13.74	348	M	M	M	NA	NA	973.1	NA	NA		M	NA	NA	NA	NA
2016/11/23 15:43:00	AWS2	9.38	345	13.74	348	M	M	M	NA	NA	974.0	NA	NA		M	NA	NA	NA	NA
2016/11/23 15:44:00	AWS2	8.98	351	13.74	348	M	M	M	NA	NA	973.2	NA	NA		M	NA	NA	NA	NA
2016/11/23 15:45:00	AWS2	9.15	1	13.17	340	M	M	M	NA	NA	973.3	NA	NA		M	NA	NA	NA	NA
2016/11/23 15:46:00	AWS2	9.05	353	13.02	347	M	M	M	NA	NA	973.1	NA	NA		M	NA	NA	NA	NA
2016/11/23 15:47:00	AWS2	9.88	345	13.02	347	M	M	M	NA	NA	973.2	NA	NA		M	NA	NA	NA	NA
2016/11/23 15:48:00	AWS2	9.89	349	13.02	347	M	M	M	NA	NA	973.0	NA	NA		M	NA	NA	NA	NA
2016/11/23 15:49:00	AWS2	9.73	349	13.02	347	M	M	M	NA	NA	972.9	NA	NA		M	NA	NA	NA	NA
2016/11/23 15:50:00	AWS2	9.17	345	13.02	347	M	M	M	NA	NA	973.1	NA	NA		M	NA	NA	NA	NA
2016/11/23 15:51:00	AWS2	8.75	344	13.02	347	M	M	M	NA	NA	973.1	NA	NA		M	NA	NA	NA	NA
2016/11/23 15:52:00	AWS2	9.03	341	12.35	346	M	M	M	NA	NA	972.9	NA	NA		M	NA	NA	NA	NA
2016/11/23 15:53:00	AWS2	8.62	340	12.35	346	M	M	M	NA	NA	973.6	NA	NA		M	NA	NA	NA	NA
2016/11/23 15:54:00	AWS2	8.79	341	12.35	346	M	M	M	NA	NA	973.3	NA	NA		M	NA	NA	NA	NA
2016/11/23 15:55:00	AWS2	8.87	342	12.35	346	M	M	M	NA	NA	973.3	NA	NA		M	NA	NA	NA	NA
2016/11/23 15:56:00	AWS2	8.56	344	12.35	347	M	M	M	NA	NA	973.2	NA	NA		M	NA	NA	NA	NA
2016/11/23 15:57:00	AWS2	8.83	344	12.35	347	M	M	M	NA	NA	973.2	NA	NA		M	NA	NA	NA	NA
2016/11/23 15:58:00	AWS2	9.30	345	12.35	347	M	M	M	NA	NA	973.1	NA	NA		M	NA	NA	NA	NA
2016/11/23 15:59:00	AWS2	9.11	344	12.35	347	M	M	M	NA	NA	973.4	NA	NA		M	NA	NA	NA	NA
2016/11/23 16:00:00	AWS2	8.50	342	12.35	347	M	M	M	NA	NA	973.4	NA	NA		M	NA	NA	NA	NA
2016/11/23 16:01:00	AWS2	8.23	340	12.35	347	M	M	M	NA	NA	973.0	NA	NA		M	NA	NA	NA	NA
2016/11/23 16:02:00	AWS2	7.31	336	12.35	347	M	M	M	NA	NA	973.3	NA	NA		M	NA	NA	NA	NA
2016/11/23 16:03:00	AWS2	7.85	340	12.35	347	M	M	M	NA	NA	973.4	NA	NA		M	NA	NA	NA	NA
2016/11/23 16:04:00	AWS2	9.25	346	12.35	347	M	M	M	NA	NA	973.4	NA	NA		M	NA	NA	NA	NA
2016/11/23 16:05:00	AWS2	8.48	342	12.35	347	M	M	M	NA	NA	973.0	NA	NA		M	NA	NA	NA	NA
2016/11/23 16:06:00	AWS2	7.64	339	11.47	340	M	M	M	NA	NA	973.8	NA	NA		M	NA	NA	NA	NA
2016/11/23 16:07:00	AWS2	7.84	344	11.47	340	M	M	M	NA	NA	973.2	NA	NA		M	NA	NA	NA	NA
2016/11/23 16:08:00	AWS2	8.02	345	11.27	352	M	M	M	NA	NA	973.3	NA	NA		M	NA	NA	NA	NA
2016/11/23 16:09:00	AWS2	7.68	340	11.27	352	M	M	M	NA	NA	973.4	NA	NA		M	NA	NA	NA	NA
2016/11/23 16:10:00	AWS2	7.42	344	11.27	352	M	M	M	NA	NA	973.9	NA	NA		M	NA	NA	NA	NA
2016/11/23 16:11:00	AWS2	7.87	346	11.27	352	M	M	M	NA	NA	973.2	NA	NA		M	NA	NA	NA	NA
2016/11/23 16:12:00	AWS2	7.82	344	11.27	352	M	M	M	NA	NA	973.7	NA	NA		M	NA	NA	NA	NA
2016/11/23 16:13:00	AWS2	7.36	344	11.27	352	M	M	M	NA	NA	973.5	NA	NA		M	NA	NA	NA	NA
2016/11/23 16:14:00	AWS2	6.70	342	11.27	352	M	M	M	NA	NA	973.9	NA	NA		M	NA	NA	NA	NA
2016/11/23 16:15:00	AWS2	6.83	344	11.27	352	M	M	M	NA	NA	973.4	NA	NA		M	NA	NA	NA	NA
2016/11/23 16:16:00	AWS2	7.41	343	11.27	352	M	M	M	NA	NA	973.8	NA	NA		M	NA	NA	NA	NA
2016/11/23 16:17:00	AWS2	7.13	343	11.01	336	M	M	M	NA	NA	974.4	NA	NA		M	NA	NA	NA	NA
2016/11/23 16:18:00	AWS2	6.20	341	11.01	336	M	M	M	NA	NA	974.0	NA	NA		M	NA	NA	NA	NA
2016/11/23 16:19:00	AWS2	6.59	337	11.01	336	M	M	M	NA	NA	974.0	NA	NA		M	NA	NA	NA	NA
2016/11/23 16:20:00	AWS2	6.66	336	11.01	336	M	M	M	NA	NA	974.2	NA	NA		M	NA	NA	NA	NA
2016/11/23 16:21:00	AWS2	6.49	339	10.19	350	M	M	M	NA	NA	973.5	NA	NA		M	NA	NA	NA	NA
2016/11/23 16:22:00	AWS2	7.60	344	10.19	350	M	M	M	NA	NA	973.9	NA	NA		M	NA	NA	NA	NA
2016/11/23 16:23:00	AWS2	7.25	339	10.19	350	M	M	M	NA	NA	974.5	NA	NA		M	NA	NA	NA	NA
2016/11/23 16:24:00	AWS2	7.10	335	10.60	349	M	M	M	NA	NA	974.2	NA	NA		M	NA	NA	NA	NA
2016/11/23 16:25:00	AWS2	7.00	338	10.60	349	M	M	M	NA	NA	974.1	NA	NA		M	NA	NA	NA	NA
2016/11/23 16:26:00	AWS2	6.51	335	10.60	349	M	M	M	NA	NA	973.5	NA	NA		M	NA	NA	NA	NA
2016/11/23 16:27:00	AWS2	6.35	335	10.60	349	M	M	M	NA	NA	973.9	NA	NA		M	NA	NA	NA	NA
2016/11/23 16:28:00	AWS2	6.16	336	10.60	349	M	M	M	NA	NA	974.0	NA	NA		M	NA	NA	NA	NA
2016/11/23 16:29:00	AWS2	6.01	334	10.60	349	M	M	M	NA	NA	973.6	NA	NA		M	NA	NA	NA	NA
2016/11/23 16:30:00	AWS2	5.45	321	10.60	349	M	M	M	NA	NA	973.7	NA	NA		M	NA	NA	NA	NA
2016/11/23 16:31:00	AWS2	5.41	313	10.60	349	M	M	M	NA	NA	974.0	NA	NA		M	NA	NA	NA	NA
2016/11/23 16:32:00	AWS2	5.46	325	10.60	349	M	M	M	NA	NA	973.9	NA	NA		M	NA	NA	NA	NA
2016/11/23 16:33:00	AWS2	4.95	332	10.60	349	M	M	M	NA	NA	974.0	NA	NA		M	NA	NA	NA	NA
2016/11/23 16:34:00	AWS2	5.12	325	10.60	349	M	M	M	NA	NA	973.6	NA	NA		M	NA	NA	NA	NA
2016/11/23 16:35:00	AWS2	5.49	327	8.75	354	M	M	M	NA	NA	973.7	NA	NA		M	NA	NA	NA	NA
2016/11/23 16:36:00	AWS2	5.51	335	10.49	11	M	M	M	NA	NA	973.7	NA	NA		M	NA	NA	NA	NA
2016/11/23 16:37:00	AWS2	5.25	324	10.49	11	M	M	M	NA	NA	973.7	NA	NA		M	NA	NA	NA	NA
2016/11/23 16:38:00	AWS2	4.58	313	10.49	11	M	M	M	NA	NA	973.3	NA	NA		M	NA	NA	NA	NA
2016/11/23 16:39:00	AWS2	4.87	317	10.49	11	M	M	M	NA	NA	973.5	NA	NA		M	NA	NA	NA	NA
2016/11/23 16:40:00	AWS2	5.07	328	10.49	11	M	M	M	NA	NA	974.1	NA	NA		M	NA	NA	NA	NA
2016/11/23 16:41:00	AWS2	4.85	333	10.49	11	M	M	M	NA	NA	973.7	NA	NA		M	NA	NA	NA	NA
2016/11/23 16:42:00	AWS2	5.56	331	10.49	11	M	M	M	NA	NA	974.3	NA	NA		M	NA	NA	NA	NA
2016/11/23 16:43:00	AWS2	6.06	339	10.49	11	M	M	M	NA	NA	974.1	NA	NA		M	NA	NA	NA	NA
2016/11/23 16:44:00	AWS2	5.48	348	10.49	11	M	M	M	NA	NA	973.9	NA	NA		M	NA	NA	NA	NA
2016/11/23 16:45:00	AWS2	5.04	338	10.49	11	M	M	M	NA	NA	974.3	NA	NA		M	NA	NA	NA	NA
2016/11/23 16:46:00	AWS2	5.48	332	8.54	342	M	M	M	NA	NA	974.1	NA	NA		M	NA	NA	NA	NA
2016/11/23 16:47:00	AWS2	6.12	338	8.69	349	M	M	M	NA	NA	974.1	NA	NA		M	NA	NA	NA	NA
2016/11/23 16:48:00	AWS2	5.91	339	8.69	349	M	M	M	NA	NA	974.7	NA	NA		M	NA	NA	NA	NA
2016/11/23 16:49:00	AWS2	6.35	339	8.95	348	M	M	M	NA	NA	974.2	NA	NA		M	NA	NA	NA	NA
2016/11/23 16:50:00	AWS2	7.26	341	8.95	348	M	M	M	NA	NA	974.4	NA	NA		M	NA	NA	NA	NA
2016/11/23 16:51:00	AWS2	6.90	344	8.95	348	M	M	M	NA	NA	974.2	NA	NA		M	NA	NA	NA	NA
2016/11/23 16:52:00	AWS2	6.36	343	8.95	348	M	M	M	NA	NA	974.5	NA	NA		M	NA	NA	NA	NA
2016/11/23 16:53:00	AWS2	6.24	343	8.95	348	M	M	M	NA	NA	974.8	NA	NA		M	NA	NA	NA	NA
2016/11/23 16:54:00	AWS2	6.37	345	8.95	348	M	M	M	NA	NA	974.1	NA	NA		M	NA	NA	NA	NA
2016/11/23 16:55:00	AWS2	6.50	346	8.95	348	M	M	M	NA	NA	974.5	NA	NA		M	NA	NA	NA	NA
2016/11/23 16:56:00	AWS2	6.69	346	8.95	348	M	M	M	NA	NA	974.8	NA	NA		M	NA	NA	NA	NA
2016/11/23 16:57:00	AWS2	6.72	344	8.95	348	M	M	M	NA	NA	974.3	NA	NA		M	NA	NA	NA	NA
2016/11/23 16:58:00	AWS2	6.59	345	8.95	348	M	M	M	NA	NA	975.0	NA	NA		M	NA	NA	NA	NA
2016/11/23 16:59:00	AWS2	6.93	349	8.75	355	M	M	M	NA	NA	974.3	NA	NA		M	NA	NA	NA	NA
2016/11/23 17:00:00	AWS2	7.78	347	10.13	348	M	M	M	NA	NA	974.8	NA	NA		M	NA	NA	NA	NA
2016/11/23 17:01:00	AWS2	7.79	348	10.13	348	M	M	M	NA	NA	974.6	NA	NA		M	NA	NA	NA	NA
2016/11/23 17:02:00	AWS2	7.26	347	10.13	348	M	M	M	NA	NA	974.6	NA	NA		M	NA	NA	NA	NA
2016/11/23 17:03:00	AWS2	7.33	345	10.13	348	M	M	M	NA	NA	974.7	NA	NA		M	NA	NA	NA	NA
2016/11/23 17:04:00	AWS2	6.21	345	10.13	348	M	M	M	NA	NA	974.5	NA	NA		M	NA	NA	NA	NA
2016/11/23 17:05:00	AWS2	5.26	339	10.13	348	M	M	M	NA	NA	974.5	NA	NA		M	NA	NA	NA	NA
2016/11/23 17:06:00	AWS2	4.98	332	10.13	348	M	M	M	NA	NA	974.2	NA	NA		M	NA	NA	NA	NA
2016/11/23 17:07:00	AWS2	5.44	334	10.13	348	M	M	M	NA	NA	974.0	NA	NA		M	NA	NA	NA	NA
2016/11/23 17:08:00	AWS2	6.16	338	10.13	348	M	M	M	NA	NA	974.1	NA	NA		M	NA	NA	NA	NA
2016/11/23 17:09:00	AWS2	6.08	341	10.13	348	M	M	M	NA	NA	974.3	NA	NA		M	NA	NA	NA	NA
2016/11/23 17:10:00	AWS2	6.06	341	8.75	348	M	M	M	NA	NA	974.5	NA	NA		M	NA	NA	NA	NA
2016/11/23 17:11:00	AWS2	6.09	340	8.75	348	M	M	M	NA	NA	974.8	NA	NA		M	NA	NA	NA	NA
2016/11/23 17:12:00	AWS2	7.02	345	9.77	345	M	M	M	NA	NA	974.2	NA	NA		M	NA	NA	NA	NA
2016/11/23 17:13:00	AWS2	6.57	345	9.77	345	M	M	M	NA	NA	974.5	NA	NA		M	NA	NA	NA	NA
2016/11/23 17:14:00	AWS2	5.50	341	9.77	345	M	M	M	NA	NA	974.6	NA	NA		M	NA	NA	NA	NA
2016/11/23 17:15:00	AWS2	5.96	343	9.77	345	M	M	M	NA	NA	974.7	NA	NA		M	NA	NA	NA	NA
2016/11/23 17:16:00	AWS2	6.07	343	9.77	345	M	M	M	NA	NA	974.4	NA	NA		M	NA	NA	NA	NA
2016/11/23 17:17:00	AWS2	6.47	343	9.77	345	M	M	M	NA	NA	974.2	NA	NA		M	NA	NA	NA	NA
2016/11/23 17:18:00	AWS2	7.14	345	9.77	345	M	M	M	NA	NA	974.4	NA	NA		M	NA	NA	NA	NA
2016/11/23 17:19:00	AWS2	7.65	348	10.39	350	M	M	M	NA	NA	974.6	NA	NA		M	NA	NA	NA	NA
2016/11/23 17:20:00	AWS2	7.64	346	10.39	350	M	M	M	NA	NA	975.0	NA	NA		M	NA	NA	NA	NA
2016/11/23 17:21:00	AWS2	6.48	346	10.39	350	M	M	M	NA	NA	974.7	NA	NA		M	NA	NA	NA	NA
2016/11/23 17:22:00	AWS2	6.15	343	10.39	350	M	M	M	NA	NA	974.7	NA	NA		M	NA	NA	NA	NA
2016/11/23 17:23:00	AWS2	7.15	343	10.39	350	M	M	M	NA	NA	975.0	NA	NA		M	NA	NA	NA	NA
2016/11/23 17:24:00	AWS2	7.68	346	10.39	350	M	M	M	NA	NA	975.3	NA	NA		M	NA	NA	NA	NA
2016/11/23 17:25:00	AWS2	7.76	346	10.39	350	M	M	M	NA	NA	974.9	NA	NA		M	NA	NA	NA	NA
2016/11/23 17:26:00	AWS2	7.38	346	10.39	350	M	M	M	NA	NA	975.1	NA	NA		M	NA	NA	NA	NA
2016/11/23 17:27:00	AWS2	6.97	343	10.39	350	M	M	M	NA	NA	975.6	NA	NA		M	NA	NA	NA	NA
2016/11/23 17:28:00	AWS2	6.85	344	10.39	350	M	M	M	NA	NA	975.0	NA	NA		M	NA	NA	NA	NA
2016/11/23 17:29:00	AWS2	5.89	343	9.93	335	M	M	M	NA	NA	975.1	NA	NA		M	NA	NA	NA	NA
2016/11/23 17:30:00	AWS2	6.09	341	9.93	335	M	M	M	NA	NA	975.3	NA	NA		M	NA	NA	NA	NA
2016/11/23 17:31:00	AWS2	6.70	346	9.93	335	M	M	M	NA	NA	975.6	NA	NA		M	NA	NA	NA	NA
2016/11/23 17:32:00	AWS2	6.82	347	9.93	335	M	M	M	NA	NA	975.4	NA	NA		M	NA	NA	NA	NA
2016/11/23 17:33:00	AWS2	7.61	345	9.93	335	M	M	M	NA	NA	975.2	NA	NA		M	NA	NA	NA	NA
2016/11/23 17:34:00	AWS2	7.94	349	9.93	335	M	M	M	NA	NA	975.2	NA	NA		M	NA	NA	NA	NA
2016/11/23 17:35:00	AWS2	7.86	348	10.03	335	M	M	M	NA	NA	975.1	NA	NA		M	NA	NA	NA	NA
2016/11/23 17:36:00	AWS2	8.65	345	10.19	341	M	M	M	NA	NA	975.2	NA	NA		M	NA	NA	NA	NA
2016/11/23 17:37:00	AWS2	8.10	346	10.19	341	M	M	M	NA	NA	975.5	NA	NA		M	NA	NA	NA	NA
2016/11/23 17:38:00	AWS2	7.53	346	10.19	341	M	M	M	NA	NA	975.2	NA	NA		M	NA	NA	NA	NA
2016/11/23 17:39:00	AWS2	7.72	346	10.60	342	M	M	M	NA	NA	975.7	NA	NA		M	NA	NA	NA	NA
2016/11/23 17:40:00	AWS2	7.54	348	10.60	342	M	M	M	NA	NA	975.4	NA	NA		M	NA	NA	NA	NA
2016/11/23 17:41:00	AWS2	7.42	347	10.60	342	M	M	M	NA	NA	975.2	NA	NA		M	NA	NA	NA	NA
2016/11/23 17:42:00	AWS2	7.65	348	10.60	342	M	M	M	NA	NA	975.4	NA	NA		M	NA	NA	NA	NA
2016/11/23 17:43:00	AWS2	7.73	345	10.60	342	M	M	M	NA	NA	975.3	NA	NA		M	NA	NA	NA	NA
2016/11/23 17:44:00	AWS2	6.97	344	10.60	342	M	M	M	NA	NA	975.5	NA	NA		M	NA	NA	NA	NA
2016/11/23 17:45:00	AWS2	7.03	346	10.60	342	M	M	M	NA	NA	975.1	NA	NA		M	NA	NA	NA	NA
2016/11/23 17:46:00	AWS2	6.73	346	10.60	342	M	M	M	NA	NA	975.3	NA	NA		M	NA	NA	NA	NA
2016/11/23 17:47:00	AWS2	7.04	346	10.60	342	M	M	M	NA	NA	975.2	NA	NA		M	NA	NA	NA	NA
2016/11/23 17:48:00	AWS2	7.53	341	10.60	342	M	M	M	NA	NA	975.7	NA	NA		M	NA	NA	NA	NA
2016/11/23 17:49:00	AWS2	6.37	343	9.83	339	M	M	M	NA	NA	975.5	NA	NA		M	NA	NA	NA	NA
2016/11/23 17:50:00	AWS2	5.72	341	9.83	339	M	M	M	NA	NA	975.5	NA	NA		M	NA	NA	NA	NA
2016/11/23 17:51:00	AWS2	5.70	327	9.83	339	M	M	M	NA	NA	974.9	NA	NA		M	NA	NA	NA	NA
2016/11/23 17:52:00	AWS2	5.80	329	9.83	339	M	M	M	NA	NA	975.3	NA	NA		M	NA	NA	NA	NA
2016/11/23 17:53:00	AWS2	6.25	341	9.83	339	M	M	M	NA	NA	975.1	NA	NA		M	NA	NA	NA	NA
2016/11/23 17:54:00	AWS2	5.73	337	9.83	339	M	M	M	NA	NA	975.3	NA	NA		M	NA	NA	NA	NA
2016/11/23 17:55:00	AWS2	5.04	337	8.85	330	M	M	M	NA	NA	975.6	NA	NA		M	NA	NA	NA	NA
2016/11/23 17:56:00	AWS2	5.18	333	8.85	330	M	M	M	NA	NA	975.1	NA	NA		M	NA	NA	NA	NA
2016/11/23 17:57:00	AWS2	5.20	318	8.85	330	M	M	M	NA	NA	975.2	NA	NA		M	NA	NA	NA	NA
2016/11/23 17:58:00	AWS2	5.13	304	8.85	330	M	M	M	NA	NA	975.0	NA	NA		M	NA	NA	NA	NA
2016/11/23 17:59:00	AWS2	5.09	298	8.85	330	M	M	M	NA	NA	975.1	NA	NA		M	NA	NA	NA	NA
2016/11/23 18:00:00	AWS2	5.24	300	8.85	330	M	M	M	NA	NA	974.8	NA	NA		M	NA	NA	NA	NA
2016/11/23 18:01:00	AWS2	5.43	306	8.64	354	M	M	M	NA	NA	975.3	NA	NA		M	NA	NA	NA	NA
2016/11/23 18:02:00	AWS2	5.23	314	8.64	354	M	M	M	NA	NA	974.7	NA	NA		M	NA	NA	NA	NA
2016/11/23 18:03:00	AWS2	4.88	315	8.49	8	M	M	M	NA	NA	975.0	NA	NA		M	NA	NA	NA	NA
2016/11/23 18:04:00	AWS2	4.77	300	8.49	8	M	M	M	NA	NA	975.0	NA	NA		M	NA	NA	NA	NA
2016/11/23 18:05:00	AWS2	5.25	297	8.49	8	M	M	M	NA	NA	974.8	NA	NA		M	NA	NA	NA	NA
2016/11/23 18:06:00	AWS2	5.64	305	7.61	286	M	M	M	NA	NA	975.0	NA	NA		M	NA	NA	NA	NA
2016/11/23 18:07:00	AWS2	5.81	305	7.61	286	M	M	M	NA	NA	974.5	NA	NA		M	NA	NA	NA	NA
2016/11/23 18:08:00	AWS2	6.33	308	7.61	286	M	M	M	NA	NA	974.9	NA	NA		M	NA	NA	NA	NA
2016/11/23 18:09:00	AWS2	6.43	311	7.97	321	M	M	M	NA	NA	974.8	NA	NA		M	NA	NA	NA	NA
2016/11/23 18:10:00	AWS2	6.39	318	7.97	321	M	M	M	NA	NA	974.7	NA	NA		M	NA	NA	NA	NA
2016/11/23 18:11:00	AWS2	6.44	321	8.23	349	M	M	M	NA	NA	975.1	NA	NA		M	NA	NA	NA	NA
2016/11/23 18:12:00	AWS2	6.33	318	8.23	349	M	M	M	NA	NA	975.1	NA	NA		M	NA	NA	NA	NA
2016/11/23 18:13:00	AWS2	6.29	315	8.23	349	M	M	M	NA	NA	974.9	NA	NA		M	NA	NA	NA	NA
2016/11/23 18:14:00	AWS2	6.18	317	8.23	349	M	M	M	NA	NA	975.0	NA	NA		M	NA	NA	NA	NA
2016/11/23 18:15:00	AWS2	5.76	316	8.23	349	M	M	M	NA	NA	975.0	NA	NA		M	NA	NA	NA	NA
2016/11/23 18:16:00	AWS2	5.44	311	8.23	349	M	M	M	NA	NA	975.6	NA	NA		M	NA	NA	NA	NA
2016/11/23 18:17:00	AWS2	4.82	307	8.23	349	M	M	M	NA	NA	975.2	NA	NA		M	NA	NA	NA	NA
2016/11/23 18:18:00	AWS2	4.38	304	8.23	349	M	M	M	NA	NA	975.2	NA	NA		M	NA	NA	NA	NA
2016/11/23 18:19:00	AWS2	4.31	312	8.23	349	M	M	M	NA	NA	975.8	NA	NA		M	NA	NA	NA	NA
2016/11/23 18:20:00	AWS2	3.99	310	8.23	349	M	M	M	NA	NA	975.7	NA	NA		M	NA	NA	NA	NA
2016/11/23 18:21:00	AWS2	4.08	308	7.97	316	M	M	M	NA	NA	975.4	NA	NA		M	NA	NA	NA	NA
2016/11/23 18:22:00	AWS2	4.26	310	7.97	316	M	M	M	NA	NA	975.6	NA	NA		M	NA	NA	NA	NA
2016/11/23 18:23:00	AWS2	4.23	308	7.72	352	M	M	M	NA	NA	975.4	NA	NA		M	NA	NA	NA	NA
2016/11/23 18:24:00	AWS2	4.42	322	7.41	347	M	M	M	NA	NA	975.8	NA	NA		M	NA	NA	NA	NA
2016/11/23 18:25:00	AWS2	4.56	326	7.41	347	M	M	M	NA	NA	975.7	NA	NA		M	NA	NA	NA	NA
2016/11/23 18:26:00	AWS2	4.41	312	7.41	347	M	M	M	NA	NA	975.4	NA	NA		M	NA	NA	NA	NA
2016/11/23 18:27:00	AWS2	4.60	302	7.41	347	M	M	M	NA	NA	975.6	NA	NA		M	NA	NA	NA	NA
2016/11/23 18:28:00	AWS2	4.93	303	7.41	347	M	M	M	NA	NA	975.3	NA	NA		M	NA	NA	NA	NA
2016/11/23 18:29:00	AWS2	4.91	306	7.41	347	M	M	M	NA	NA	975.1	NA	NA		M	NA	NA	NA	NA
2016/11/23 18:30:00	AWS2	5.03	307	7.41	347	M	M	M	NA	NA	974.6	NA	NA		M	NA	NA	NA	NA
2016/11/23 18:31:00	AWS2	5.29	297	7.41	347	M	M	M	NA	NA	975.5	NA	NA		M	NA	NA	NA	NA
2016/11/23 18:32:00	AWS2	5.18	296	7.41	347	M	M	M	NA	NA	975.7	NA	NA		M	NA	NA	NA	NA
2016/11/23 18:33:00	AWS2	5.09	303	7.41	347	M	M	M	NA	NA	975.3	NA	NA		M	NA	NA	NA	NA
2016/11/23 18:34:00	AWS2	5.20	301	7.31	311	M	M	M	NA	NA	975.3	NA	NA		M	NA	NA	NA	NA
2016/11/23 18:35:00	AWS2	5.02	306	7.31	311	M	M	M	NA	NA	975.5	NA	NA		M	NA	NA	NA	NA
2016/11/23 18:36:00	AWS2	4.82	310	7.31	311	M	M	M	NA	NA	975.8	NA	NA		M	NA	NA	NA	NA
2016/11/23 18:37:00	AWS2	4.59	302	7.31	311	M	M	M	NA	NA	975.5	NA	NA		M	NA	NA	NA	NA
2016/11/23 18:38:00	AWS2	4.30	294	7.31	311	M	M	M	NA	NA	975.6	NA	NA		M	NA	NA	NA	NA
2016/11/23 18:39:00	AWS2	4.36	305	7.31	311	M	M	M	NA	NA	975.4	NA	NA		M	NA	NA	NA	NA
2016/11/23 18:40:00	AWS2	5.09	310	7.31	311	M	M	M	NA	NA	975.5	NA	NA		M	NA	NA	NA	NA
2016/11/23 18:41:00	AWS2	5.53	307	7.15	284	M	M	M	NA	NA	975.4	NA	NA		M	NA	NA	NA	NA
2016/11/23 18:42:00	AWS2	5.57	308	7.72	307	M	M	M	NA	NA	975.8	NA	NA		M	NA	NA	NA	NA
2016/11/23 18:43:00	AWS2	5.37	310	7.72	307	M	M	M	NA	NA	975.2	NA	NA		M	NA	NA	NA	NA
2016/11/23 18:44:00	AWS2	4.74	308	7.72	307	M	M	M	NA	NA	975.6	NA	NA		M	NA	NA	NA	NA
2016/11/23 18:45:00	AWS2	5.06	301	7.72	307	M	M	M	NA	NA	975.9	NA	NA		M	NA	NA	NA	NA
2016/11/23 18:46:00	AWS2	5.73	309	7.72	307	M	M	M	NA	NA	975.7	NA	NA		M	NA	NA	NA	NA
2016/11/23 18:47:00	AWS2	5.48	309	7.72	307	M	M	M	NA	NA	975.2	NA	NA		M	NA	NA	NA	NA
2016/11/23 18:48:00	AWS2	5.33	306	7.72	307	M	M	M	NA	NA	975.5	NA	NA		M	NA	NA	NA	NA
2016/11/23 18:49:00	AWS2	5.09	313	7.72	307	M	M	M	NA	NA	975.4	NA	NA		M	NA	NA	NA	NA
2016/11/23 18:50:00	AWS2	4.91	313	7.72	307	M	M	M	NA	NA	976.0	NA	NA		M	NA	NA	NA	NA
2016/11/23 18:51:00	AWS2	5.14	299	7.72	307	M	M	M	NA	NA	975.6	NA	NA		M	NA	NA	NA	NA
2016/11/23 18:52:00	AWS2	4.94	296	7.25	282	M	M	M	NA	NA	975.5	NA	NA		M	NA	NA	NA	NA
2016/11/23 18:53:00	AWS2	4.87	300	7.25	282	M	M	M	NA	NA	976.0	NA	NA		M	NA	NA	NA	NA
2016/11/23 18:54:00	AWS2	5.62	303	7.41	326	M	M	M	NA	NA	975.9	NA	NA		M	NA	NA	NA	NA
2016/11/23 18:55:00	AWS2	5.75	310	7.41	326	M	M	M	NA	NA	975.6	NA	NA		M	NA	NA	NA	NA
2016/11/23 18:56:00	AWS2	5.22	308	7.41	326	M	M	M	NA	NA	975.4	NA	NA		M	NA	NA	NA	NA
2016/11/23 18:57:00	AWS2	5.57	305	7.41	326	M	M	M	NA	NA	975.6	NA	NA		M	NA	NA	NA	NA
2016/11/23 18:58:00	AWS2	5.86	306	7.41	326	M	M	M	NA	NA	975.9	NA	NA		M	NA	NA	NA	NA
2016/11/23 18:59:00	AWS2	5.65	310	7.51	323	M	M	M	NA	NA	976.0	NA	NA		M	NA	NA	NA	NA
2016/11/23 19:00:00	AWS2	5.51	309	7.51	323	M	M	M	NA	NA	975.5	NA	NA		M	NA	NA	NA	NA
2016/11/23 19:01:00	AWS2	5.56	309	7.51	323	M	M	M	NA	NA	976.2	NA	NA		M	NA	NA	NA	NA
2016/11/23 19:02:00	AWS2	5.24	305	7.51	323	M	M	M	NA	NA	975.5	NA	NA		M	NA	NA	NA	NA
2016/11/23 19:03:00	AWS2	5.21	302	7.82	291	M	M	M	NA	NA	975.5	NA	NA		M	NA	NA	NA	NA
2016/11/23 19:04:00	AWS2	5.64	310	7.82	291	M	M	M	NA	NA	975.8	NA	NA		M	NA	NA	NA	NA
2016/11/23 19:05:00	AWS2	5.92	306	7.82	291	M	M	M	NA	NA	975.8	NA	NA		M	NA	NA	NA	NA
2016/11/23 19:06:00	AWS2	5.87	308	7.82	291	M	M	M	NA	NA	976.0	NA	NA		M	NA	NA	NA	NA
2016/11/23 19:07:00	AWS2	5.99	317	8.18	312	M	M	M	NA	NA	976.0	NA	NA		M	NA	NA	NA	NA
2016/11/23 19:08:00	AWS2	6.44	315	8.18	312	M	M	M	NA	NA	975.9	NA	NA		M	NA	NA	NA	NA
2016/11/23 19:09:00	AWS2	6.00	312	8.18	312	M	M	M	NA	NA	976.1	NA	NA		M	NA	NA	NA	NA
2016/11/23 19:10:00	AWS2	5.88	312	8.18	312	M	M	M	NA	NA	975.8	NA	NA		M	NA	NA	NA	NA
2016/11/23 19:11:00	AWS2	6.20	316	8.18	312	M	M	M	NA	NA	975.6	NA	NA		M	NA	NA	NA	NA
2016/11/23 19:12:00	AWS2	5.63	317	8.18	312	M	M	M	NA	NA	976.3	NA	NA		M	NA	NA	NA	NA
2016/11/23 19:13:00	AWS2	5.79	317	8.18	312	M	M	M	NA	NA	976.0	NA	NA		M	NA	NA	NA	NA
2016/11/23 19:14:00	AWS2	6.13	314	8.18	312	M	M	M	NA	NA	975.8	NA	NA		M	NA	NA	NA	NA
2016/11/23 19:15:00	AWS2	5.94	319	8.18	312	M	M	M	NA	NA	976.0	NA	NA		M	NA	NA	NA	NA
2016/11/23 19:16:00	AWS2	6.11	324	8.18	312	M	M	M	NA	NA	976.1	NA	NA		M	NA	NA	NA	NA
2016/11/23 19:17:00	AWS2	6.30	320	7.72	326	M	M	M	NA	NA	976.3	NA	NA		M	NA	NA	NA	NA
2016/11/23 19:18:00	AWS2	6.57	322	7.72	326	M	M	M	NA	NA	976.4	NA	NA		M	NA	NA	NA	NA
2016/11/23 19:19:00	AWS2	6.90	325	7.72	328	M	M	M	NA	NA	976.5	NA	NA		M	NA	NA	NA	NA
2016/11/23 19:20:00	AWS2	7.18	324	8.08	327	M	M	M	NA	NA	976.6	NA	NA		M	NA	NA	NA	NA
2016/11/23 19:21:00	AWS2	7.18	323	8.08	327	M	M	M	NA	NA	976.5	NA	NA		M	NA	NA	NA	NA
2016/11/23 19:22:00	AWS2	7.28	321	8.69	325	M	M	M	NA	NA	976.4	NA	NA		M	NA	NA	NA	NA
2016/11/23 19:23:00	AWS2	7.37	320	8.69	325	M	M	M	NA	NA	976.2	NA	NA		M	NA	NA	NA	NA
2016/11/23 19:24:00	AWS2	7.16	319	8.69	325	M	M	M	NA	NA	976.8	NA	NA		M	NA	NA	NA	NA
2016/11/23 19:25:00	AWS2	7.24	317	8.69	325	M	M	M	NA	NA	976.6	NA	NA		M	NA	NA	NA	NA
2016/11/23 19:26:00	AWS2	7.27	318	8.69	325	M	M	M	NA	NA	977.0	NA	NA		M	NA	NA	NA	NA
2016/11/23 19:27:00	AWS2	7.33	321	8.69	325	M	M	M	NA	NA	976.3	NA	NA		M	NA	NA	NA	NA
2016/11/23 19:28:00	AWS2	7.55	321	8.69	325	M	M	M	NA	NA	977.1	NA	NA		M	NA	NA	NA	NA
2016/11/23 19:29:00	AWS2	7.82	320	8.80	325	M	M	M	NA	NA	976.4	NA	NA		M	NA	NA	NA	NA
2016/11/23 19:30:00	AWS2	7.88	323	8.80	325	M	M	M	NA	NA	976.5	NA	NA		M	NA	NA	NA	NA
2016/11/23 19:31:00	AWS2	7.81	323	8.80	325	M	M	M	NA	NA	976.4	NA	NA		M	NA	NA	NA	NA
2016/11/23 19:32:00	AWS2	7.86	319	8.80	325	M	M	M	NA	NA	976.7	NA	NA		M	NA	NA	NA	NA
2016/11/23 19:33:00	AWS2	7.82	318	8.80	325	M	M	M	NA	NA	976.7	NA	NA		M	NA	NA	NA	NA
2016/11/23 19:34:00	AWS2	7.89	321	8.80	325	M	M	M	NA	NA	976.5	NA	NA		M	NA	NA	NA	NA
2016/11/23 19:35:00	AWS2	7.85	322	8.80	325	M	M	M	NA	NA	976.7	NA	NA		M	NA	NA	NA	NA
2016/11/23 19:36:00	AWS2	7.92	322	9.11	328	M	M	M	NA	NA	976.6	NA	NA		M	NA	NA	NA	NA
2016/11/23 19:37:00	AWS2	7.97	321	9.11	328	M	M	M	NA	NA	976.8	NA	NA		M	NA	NA	NA	NA
2016/11/23 19:38:00	AWS2	7.83	318	9.11	328	M	M	M	NA	NA	976.8	NA	NA		M	NA	NA	NA	NA
2016/11/23 19:39:00	AWS2	7.98	320	9.31	328	M	M	M	NA	NA	976.7	NA	NA		M	NA	NA	NA	NA
2016/11/23 19:40:00	AWS2	8.19	323	9.31	328	M	M	M	NA	NA	976.7	NA	NA		M	NA	NA	NA	NA
2016/11/23 19:41:00	AWS2	8.07	322	9.31	328	M	M	M	NA	NA	976.7	NA	NA		M	NA	NA	NA	NA
2016/11/23 19:42:00	AWS2	7.91	322	9.31	328	M	M	M	NA	NA	976.6	NA	NA		M	NA	NA	NA	NA
2016/11/23 19:43:00	AWS2	7.59	321	9.31	328	M	M	M	NA	NA	976.8	NA	NA		M	NA	NA	NA	NA
2016/11/23 19:44:00	AWS2	7.34	322	9.31	328	M	M	M	NA	NA	976.9	NA	NA		M	NA	NA	NA	NA
2016/11/23 19:45:00	AWS2	7.45	321	9.31	328	M	M	M	NA	NA	976.7	NA	NA		M	NA	NA	NA	NA
2016/11/23 19:46:00	AWS2	7.48	320	9.31	328	M	M	M	NA	NA	976.8	NA	NA		M	NA	NA	NA	NA
2016/11/23 19:47:00	AWS2	7.40	321	9.31	328	M	M	M	NA	NA	976.8	NA	NA		M	NA	NA	NA	NA
2016/11/23 19:48:00	AWS2	7.47	319	9.31	328	M	M	M	NA	NA	976.8	NA	NA		M	NA	NA	NA	NA
2016/11/23 19:49:00	AWS2	7.62	321	8.95	319	M	M	M	NA	NA	977.0	NA	NA		M	NA	NA	NA	NA
2016/11/23 19:50:00	AWS2	7.85	320	9.16	316	M	M	M	NA	NA	976.8	NA	NA		M	NA	NA	NA	NA
2016/11/23 19:51:00	AWS2	7.78	318	9.16	316	M	M	M	NA	NA	976.6	NA	NA		M	NA	NA	NA	NA
2016/11/23 19:52:00	AWS2	7.61	321	9.16	316	M	M	M	NA	NA	977.1	NA	NA		M	NA	NA	NA	NA
2016/11/23 19:53:00	AWS2	7.52	322	9.16	316	M	M	M	NA	NA	977.0	NA	NA		M	NA	NA	NA	NA
2016/11/23 19:54:00	AWS2	7.58	321	9.16	316	M	M	M	NA	NA	976.7	NA	NA		M	NA	NA	NA	NA
2016/11/23 19:55:01	AWS2	7.90	320	9.16	316	M	M	M	NA	NA	976.6	NA	NA		M	NA	NA	NA	NA
2016/11/23 19:56:00	AWS2	7.83	319	9.16	316	M	M	M	NA	NA	976.5	NA	NA		M	NA	NA	NA	NA
2016/11/23 19:57:00	AWS2	7.67	318	9.16	316	M	M	M	NA	NA	977.1	NA	NA		M	NA	NA	NA	NA
2016/11/23 19:58:00	AWS2	7.71	318	9.16	316	M	M	M	NA	NA	976.7	NA	NA		M	NA	NA	NA	NA
2016/11/23 19:59:00	AWS2	7.61	320	9.16	316	M	M	M	NA	NA	976.7	NA	NA		M	NA	NA	NA	NA
2016/11/23 20:00:00	AWS2	7.46	320	8.85	316	M	M	M	NA	NA	976.5	NA	NA		M	NA	NA	NA	NA
2016/11/23 20:01:00	AWS2	7.75	318	8.85	316	M	M	M	NA	NA	977.0	NA	NA		M	NA	NA	NA	NA
2016/11/23 20:02:00	AWS2	7.68	316	8.75	319	M	M	M	NA	NA	976.5	NA	NA		M	NA	NA	NA	NA
2016/11/23 20:03:00	AWS2	7.61	315	8.85	320	M	M	M	NA	NA	976.5	NA	NA		M	NA	NA	NA	NA
2016/11/23 20:04:00	AWS2	7.77	315	8.85	320	M	M	M	NA	NA	976.4	NA	NA		M	NA	NA	NA	NA
2016/11/23 20:05:00	AWS2	7.71	317	9.62	323	M	M	M	NA	NA	976.4	NA	NA		M	NA	NA	NA	NA
2016/11/23 20:06:00	AWS2	7.82	318	9.62	323	M	M	M	NA	NA	976.4	NA	NA		M	NA	NA	NA	NA
2016/11/23 20:07:00	AWS2	7.94	320	9.62	323	M	M	M	NA	NA	976.2	NA	NA		M	NA	NA	NA	NA
2016/11/23 20:08:00	AWS2	8.12	322	9.62	323	M	M	M	NA	NA	976.2	NA	NA		M	NA	NA	NA	NA
2016/11/23 20:09:00	AWS2	8.04	320	9.62	323	M	M	M	NA	NA	976.0	NA	NA		M	NA	NA	NA	NA
2016/11/23 20:10:00	AWS2	7.74	319	9.62	323	M	M	M	NA	NA	975.9	NA	NA		M	NA	NA	NA	NA
2016/11/23 20:11:00	AWS2	7.67	319	9.62	323	M	M	M	NA	NA	976.0	NA	NA		M	NA	NA	NA	NA
2016/11/23 20:12:00	AWS2	7.89	321	9.62	323	M	M	M	NA	NA	976.2	NA	NA		M	NA	NA	NA	NA
2016/11/23 20:13:00	AWS2	8.08	323	9.62	323	M	M	M	NA	NA	977.0	NA	NA		M	NA	NA	NA	NA
2016/11/23 20:14:00	AWS2	7.86	321	9.62	323	M	M	M	NA	NA	977.3	NA	NA		M	NA	NA	NA	NA
2016/11/23 20:15:00	AWS2	8.06	320	9.41	309	M	M	M	NA	NA	977.4	NA	NA		M	NA	NA	NA	NA
2016/11/23 20:16:00	AWS2	8.33	321	9.41	309	M	M	M	NA	NA	977.5	NA	NA		M	NA	NA	NA	NA
2016/11/23 20:17:00	AWS2	8.38	322	9.41	333	M	M	M	NA	NA	977.2	NA	NA		M	NA	NA	NA	NA
2016/11/23 20:18:00	AWS2	8.35	323	9.41	333	M	M	M	NA	NA	977.4	NA	NA		M	NA	NA	NA	NA
2016/11/23 20:19:00	AWS2	8.11	322	9.41	333	M	M	M	NA	NA	977.4	NA	NA		M	NA	NA	NA	NA
2016/11/23 20:20:00	AWS2	8.06	322	9.41	333	M	M	M	NA	NA	977.3	NA	NA		M	NA	NA	NA	NA
2016/11/23 20:21:00	AWS2	7.97	323	9.41	333	M	M	M	NA	NA	977.2	NA	NA		M	NA	NA	NA	NA
2016/11/23 20:22:00	AWS2	8.17	322	9.47	332	M	M	M	NA	NA	977.3	NA	NA		M	NA	NA	NA	NA
2016/11/23 20:23:00	AWS2	8.18	321	9.47	332	M	M	M	NA	NA	977.4	NA	NA		M	NA	NA	NA	NA
2016/11/23 20:24:00	AWS2	7.89	320	9.47	332	M	M	M	NA	NA	977.2	NA	NA		M	NA	NA	NA	NA
2016/11/23 20:25:00	AWS2	7.88	320	9.47	332	M	M	M	NA	NA	977.5	NA	NA		M	NA	NA	NA	NA
2016/11/23 20:26:00	AWS2	8.09	321	9.47	332	M	M	M	NA	NA	977.3	NA	NA		M	NA	NA	NA	NA
2016/11/23 20:27:00	AWS2	7.89	320	9.47	332	M	M	M	NA	NA	977.1	NA	NA		M	NA	NA	NA	NA
2016/11/23 20:28:00	AWS2	7.36	319	9.47	332	M	M	M	NA	NA	977.5	NA	NA		M	NA	NA	NA	NA
2016/11/23 20:29:00	AWS2	6.85	315	9.47	332	M	M	M	NA	NA	977.0	NA	NA		M	NA	NA	NA	NA
2016/11/23 20:30:00	AWS2	6.20	313	9.47	332	M	M	M	NA	NA	977.3	NA	NA		M	NA	NA	NA	NA
2016/11/23 20:31:00	AWS2	5.75	318	9.47	332	M	M	M	NA	NA	977.0	NA	NA		M	NA	NA	NA	NA
2016/11/23 20:32:00	AWS2	5.75	315	9.21	323	M	M	M	NA	NA	977.0	NA	NA		M	NA	NA	NA	NA
2016/11/23 20:33:00	AWS2	5.96	311	9.21	323	M	M	M	NA	NA	977.0	NA	NA		M	NA	NA	NA	NA
2016/11/23 20:34:00	AWS2	5.91	311	9.21	323	M	M	M	NA	NA	977.1	NA	NA		M	NA	NA	NA	NA
2016/11/23 20:35:00	AWS2	6.25	314	9.21	323	M	M	M	NA	NA	976.7	NA	NA		M	NA	NA	NA	NA
2016/11/23 20:36:00	AWS2	6.92	317	9.05	321	M	M	M	NA	NA	976.9	NA	NA		M	NA	NA	NA	NA
2016/11/23 20:37:00	AWS2	6.72	316	8.08	300	M	M	M	NA	NA	977.0	NA	NA		M	NA	NA	NA	NA
2016/11/23 20:38:00	AWS2	6.80	317	8.39	331	M	M	M	NA	NA	976.9	NA	NA		M	NA	NA	NA	NA
2016/11/23 20:39:00	AWS2	6.76	314	8.39	331	M	M	M	NA	NA	977.0	NA	NA		M	NA	NA	NA	NA
2016/11/23 20:40:00	AWS2	6.68	312	8.59	318	M	M	M	NA	NA	977.0	NA	NA		M	NA	NA	NA	NA
2016/11/23 20:41:00	AWS2	7.20	317	8.59	318	M	M	M	NA	NA	977.0	NA	NA		M	NA	NA	NA	NA
2016/11/23 20:42:00	AWS2	7.23	318	8.59	318	M	M	M	NA	NA	976.9	NA	NA		M	NA	NA	NA	NA
2016/11/23 20:43:00	AWS2	7.03	319	8.59	318	M	M	M	NA	NA	977.4	NA	NA		M	NA	NA	NA	NA
2016/11/23 20:44:00	AWS2	7.22	321	9.05	328	M	M	M	NA	NA	977.3	NA	NA		M	NA	NA	NA	NA
2016/11/23 20:45:00	AWS2	7.78	320	9.21	316	M	M	M	NA	NA	977.3	NA	NA		M	NA	NA	NA	NA
2016/11/23 20:46:00	AWS2	7.65	317	9.21	316	M	M	M	NA	NA	977.4	NA	NA		M	NA	NA	NA	NA
2016/11/23 20:47:00	AWS2	7.07	317	9.21	316	M	M	M	NA	NA	977.5	NA	NA		M	NA	NA	NA	NA
2016/11/23 20:48:00	AWS2	6.87	319	9.21	316	M	M	M	NA	NA	977.3	NA	NA		M	NA	NA	NA	NA
2016/11/23 20:49:00	AWS2	6.76	317	9.21	316	M	M	M	NA	NA	977.4	NA	NA		M	NA	NA	NA	NA
2016/11/23 20:50:00	AWS2	6.71	316	9.21	316	M	M	M	NA	NA	977.8	NA	NA		M	NA	NA	NA	NA
2016/11/23 20:51:00	AWS2	6.56	313	9.21	316	M	M	M	NA	NA	977.6	NA	NA		M	NA	NA	NA	NA
2016/11/23 20:52:00	AWS2	6.66	312	9.21	316	M	M	M	NA	NA	977.6	NA	NA		M	NA	NA	NA	NA
2016/11/23 20:53:00	AWS2	6.21	310	9.21	316	M	M	M	NA	NA	977.9	NA	NA		M	NA	NA	NA	NA
2016/11/23 20:54:00	AWS2	5.57	307	9.21	316	M	M	M	NA	NA	977.7	NA	NA		M	NA	NA	NA	NA
2016/11/23 20:55:00	AWS2	5.84	311	8.85	320	M	M	M	NA	NA	977.8	NA	NA		M	NA	NA	NA	NA
2016/11/23 20:56:00	AWS2	5.89	317	8.39	325	M	M	M	NA	NA	977.7	NA	NA		M	NA	NA	NA	NA
2016/11/23 20:57:00	AWS2	6.00	315	8.39	325	M	M	M	NA	NA	977.5	NA	NA		M	NA	NA	NA	NA
2016/11/23 20:58:00	AWS2	6.36	315	8.39	325	M	M	M	NA	NA	977.7	NA	NA		M	NA	NA	NA	NA
2016/11/23 20:59:00	AWS2	5.99	310	8.39	325	M	M	M	NA	NA	977.6	NA	NA		M	NA	NA	NA	NA
2016/11/23 21:00:00	AWS2	5.65	304	8.39	325	M	M	M	NA	NA	977.7	NA	NA		M	NA	NA	NA	NA
2016/11/23 21:01:00	AWS2	5.67	312	8.39	325	M	M	M	NA	NA	977.7	NA	NA		M	NA	NA	NA	NA
2016/11/23 21:02:00	AWS2	5.40	308	7.61	318	M	M	M	NA	NA	977.6	NA	NA		M	NA	NA	NA	NA
2016/11/23 21:03:00	AWS2	5.03	297	7.61	318	M	M	M	NA	NA	977.7	NA	NA		M	NA	NA	NA	NA
2016/11/23 21:04:00	AWS2	4.95	300	7.61	318	M	M	M	NA	NA	977.8	NA	NA		M	NA	NA	NA	NA
2016/11/23 21:05:00	AWS2	5.25	304	7.61	318	M	M	M	NA	NA	977.7	NA	NA		M	NA	NA	NA	NA
2016/11/23 21:06:00	AWS2	5.18	302	7.61	318	M	M	M	NA	NA	977.7	NA	NA		M	NA	NA	NA	NA
2016/11/23 21:07:00	AWS2	5.13	306	7.36	310	M	M	M	NA	NA	977.9	NA	NA		M	NA	NA	NA	NA
2016/11/23 21:08:00	AWS2	4.71	313	7.25	327	M	M	M	NA	NA	977.9	NA	NA		M	NA	NA	NA	NA
2016/11/23 21:09:00	AWS2	4.64	322	7.36	8	M	M	M	NA	NA	978.2	NA	NA		M	NA	NA	NA	NA
2016/11/23 21:10:00	AWS2	5.21	326	7.36	8	M	M	M	NA	NA	978.0	NA	NA		M	NA	NA	NA	NA
2016/11/23 21:11:00	AWS2	5.28	317	7.36	8	M	M	M	NA	NA	977.9	NA	NA		M	NA	NA	NA	NA
2016/11/23 21:12:00	AWS2	5.46	306	7.46	289	M	M	M	NA	NA	978.0	NA	NA		M	NA	NA	NA	NA
2016/11/23 21:13:00	AWS2	5.47	302	7.46	289	M	M	M	NA	NA	977.9	NA	NA		M	NA	NA	NA	NA
2016/11/23 21:14:00	AWS2	5.51	305	7.46	289	M	M	M	NA	NA	977.6	NA	NA		M	NA	NA	NA	NA
2016/11/23 21:15:00	AWS2	5.37	305	7.46	289	M	M	M	NA	NA	977.7	NA	NA		M	NA	NA	NA	NA
2016/11/23 21:16:00	AWS2	5.57	306	7.46	289	M	M	M	NA	NA	977.6	NA	NA		M	NA	NA	NA	NA
2016/11/23 21:17:00	AWS2	5.51	308	7.46	289	M	M	M	NA	NA	977.8	NA	NA		M	NA	NA	NA	NA
2016/11/23 21:18:00	AWS2	5.62	305	8.08	330	M	M	M	NA	NA	977.8	NA	NA		M	NA	NA	NA	NA
2016/11/23 21:19:00	AWS2	5.79	308	8.08	330	M	M	M	NA	NA	977.9	NA	NA		M	NA	NA	NA	NA
2016/11/23 21:20:00	AWS2	4.93	307	8.08	330	M	M	M	NA	NA	978.1	NA	NA		M	NA	NA	NA	NA
2016/11/23 21:21:00	AWS2	5.19	305	8.08	330	M	M	M	NA	NA	977.8	NA	NA		M	NA	NA	NA	NA
2016/11/23 21:22:00	AWS2	5.51	313	8.08	330	M	M	M	NA	NA	978.2	NA	NA		M	NA	NA	NA	NA
2016/11/23 21:23:00	AWS2	5.32	310	8.08	330	M	M	M	NA	NA	978.2	NA	NA		M	NA	NA	NA	NA
2016/11/23 21:24:00	AWS2	5.35	297	8.08	330	M	M	M	NA	NA	977.9	NA	NA		M	NA	NA	NA	NA
2016/11/23 21:25:00	AWS2	4.94	299	8.08	330	M	M	M	NA	NA	978.1	NA	NA		M	NA	NA	NA	NA
2016/11/23 21:26:00	AWS2	4.84	315	8.08	330	M	M	M	NA	NA	977.8	NA	NA		M	NA	NA	NA	NA
2016/11/23 21:27:00	AWS2	5.36	322	8.08	330	M	M	M	NA	NA	978.1	NA	NA		M	NA	NA	NA	NA
2016/11/23 21:28:00	AWS2	5.50	313	7.87	307	M	M	M	NA	NA	977.9	NA	NA		M	NA	NA	NA	NA
2016/11/23 21:29:00	AWS2	5.32	308	7.87	307	M	M	M	NA	NA	978.2	NA	NA		M	NA	NA	NA	NA
2016/11/23 21:30:00	AWS2	5.29	306	7.87	307	M	M	M	NA	NA	978.3	NA	NA		M	NA	NA	NA	NA
2016/11/23 21:31:00	AWS2	5.37	306	7.51	18	M	M	M	NA	NA	978.4	NA	NA		M	NA	NA	NA	NA
2016/11/23 21:32:00	AWS2	5.27	318	7.51	18	M	M	M	NA	NA	978.7	NA	NA		M	NA	NA	NA	NA
2016/11/23 21:33:00	AWS2	5.48	318	7.51	18	M	M	M	NA	NA	978.5	NA	NA		M	NA	NA	NA	NA
2016/11/23 21:34:00	AWS2	5.45	308	7.51	18	M	M	M	NA	NA	978.4	NA	NA		M	NA	NA	NA	NA
2016/11/23 21:35:00	AWS2	5.24	298	7.51	18	M	M	M	NA	NA	978.4	NA	NA		M	NA	NA	NA	NA
2016/11/23 21:36:00	AWS2	5.02	302	7.51	18	M	M	M	NA	NA	978.3	NA	NA		M	NA	NA	NA	NA
2016/11/23 21:37:00	AWS2	4.94	319	7.51	18	M	M	M	NA	NA	978.4	NA	NA		M	NA	NA	NA	NA
2016/11/23 21:38:00	AWS2	5.12	332	7.51	18	M	M	M	NA	NA	978.5	NA	NA		M	NA	NA	NA	NA
2016/11/23 21:39:00	AWS2	5.28	325	7.51	18	M	M	M	NA	NA	978.7	NA	NA		M	NA	NA	NA	NA
2016/11/23 21:40:00	AWS2	5.68	331	7.51	18	M	M	M	NA	NA	978.9	NA	NA		M	NA	NA	NA	NA
2016/11/23 21:41:00	AWS2	6.11	341	8.18	346	M	M	M	NA	NA	978.8	NA	NA		M	NA	NA	NA	NA
2016/11/23 21:42:00	AWS2	5.97	324	8.18	346	M	M	M	NA	NA	978.7	NA	NA		M	NA	NA	NA	NA
2016/11/23 21:43:00	AWS2	6.04	321	9.11	353	M	M	M	NA	NA	978.7	NA	NA		M	NA	NA	NA	NA
2016/11/23 21:44:00	AWS2	6.04	308	9.11	353	M	M	M	NA	NA	978.6	NA	NA		M	NA	NA	NA	NA
2016/11/23 21:45:00	AWS2	5.21	303	9.11	353	M	M	M	NA	NA	978.7	NA	NA		M	NA	NA	NA	NA
2016/11/23 21:46:00	AWS2	4.96	319	9.11	353	M	M	M	NA	NA	978.8	NA	NA		M	NA	NA	NA	NA
2016/11/23 21:47:00	AWS2	5.29	321	9.11	353	M	M	M	NA	NA	978.7	NA	NA		M	NA	NA	NA	NA
2016/11/23 21:48:00	AWS2	6.04	330	9.11	353	M	M	M	NA	NA	978.9	NA	NA		M	NA	NA	NA	NA
2016/11/23 21:49:00	AWS2	6.72	340	9.67	322	M	M	M	NA	NA	978.5	NA	NA		M	NA	NA	NA	NA
2016/11/23 21:50:00	AWS2	7.60	340	10.65	347	M	M	M	NA	NA	978.4	NA	NA		M	NA	NA	NA	NA
2016/11/23 21:51:00	AWS2	6.90	334	10.65	347	M	M	M	NA	NA	978.2	NA	NA		M	NA	NA	NA	NA
2016/11/23 21:52:00	AWS2	6.05	325	10.65	347	M	M	M	NA	NA	978.0	NA	NA		M	NA	NA	NA	NA
2016/11/23 21:53:00	AWS2	6.19	315	10.65	347	M	M	M	NA	NA	977.5	NA	NA		M	NA	NA	NA	NA
2016/11/23 21:54:00	AWS2	5.21	310	10.65	347	M	M	M	NA	NA	977.5	NA	NA		M	NA	NA	NA	NA
2016/11/23 21:55:00	AWS2	4.71	311	10.65	347	M	M	M	NA	NA	977.6	NA	NA		M	NA	NA	NA	NA
2016/11/23 21:56:00	AWS2	5.55	319	10.65	347	M	M	M	NA	NA	977.7	NA	NA		M	NA	NA	NA	NA
2016/11/23 21:57:00	AWS2	5.65	324	10.65	347	M	M	M	NA	NA	977.4	NA	NA		M	NA	NA	NA	NA
2016/11/23 21:58:00	AWS2	5.48	324	10.65	347	M	M	M	NA	NA	977.6	NA	NA		M	NA	NA	NA	NA
2016/11/23 21:59:00	AWS2	5.54	327	10.65	347	M	M	M	NA	NA	977.6	NA	NA		M	NA	NA	NA	NA
2016/11/23 22:00:00	AWS2	4.97	324	8.95	350	M	M	M	NA	NA	977.3	NA	NA		M	NA	NA	NA	NA
2016/11/23 22:01:00	AWS2	5.35	320	9.11	8	M	M	M	NA	NA	977.5	NA	NA		M	NA	NA	NA	NA
2016/11/23 22:02:00	AWS2	5.61	315	9.11	8	M	M	M	NA	NA	977.8	NA	NA		M	NA	NA	NA	NA
2016/11/23 22:03:00	AWS2	5.32	317	9.11	8	M	M	M	NA	NA	977.5	NA	NA		M	NA	NA	NA	NA
2016/11/23 22:04:00	AWS2	5.11	323	9.11	8	M	M	M	NA	NA	977.7	NA	NA		M	NA	NA	NA	NA
2016/11/23 22:05:00	AWS2	4.74	321	9.11	8	M	M	M	NA	NA	977.7	NA	NA		M	NA	NA	NA	NA
2016/11/23 22:06:00	AWS2	5.14	319	9.11	8	M	M	M	NA	NA	977.4	NA	NA		M	NA	NA	NA	NA
2016/11/23 22:07:00	AWS2	5.54	325	9.11	8	M	M	M	NA	NA	977.8	NA	NA		M	NA	NA	NA	NA
2016/11/23 22:08:00	AWS2	5.28	326	9.11	8	M	M	M	NA	NA	977.8	NA	NA		M	NA	NA	NA	NA
2016/11/23 22:09:00	AWS2	5.25	320	9.11	8	M	M	M	NA	NA	977.8	NA	NA		M	NA	NA	NA	NA
2016/11/23 22:10:00	AWS2	4.91	318	9.11	8	M	M	M	NA	NA	977.8	NA	NA		M	NA	NA	NA	NA
2016/11/23 22:11:00	AWS2	5.12	320	8.39	333	M	M	M	NA	NA	977.7	NA	NA		M	NA	NA	NA	NA
2016/11/23 22:12:00	AWS2	5.78	326	7.67	341	M	M	M	NA	NA	977.7	NA	NA		M	NA	NA	NA	NA
2016/11/23 22:13:00	AWS2	5.55	330	7.61	301	M	M	M	NA	NA	978.0	NA	NA		M	NA	NA	NA	NA
2016/11/23 22:14:00	AWS2	5.62	334	9.26	347	M	M	M	NA	NA	977.9	NA	NA		M	NA	NA	NA	NA
2016/11/23 22:15:00	AWS2	6.63	339	9.26	347	M	M	M	NA	NA	978.0	NA	NA		M	NA	NA	NA	NA
2016/11/23 22:16:00	AWS2	7.07	343	9.26	347	M	M	M	NA	NA	978.0	NA	NA		M	NA	NA	NA	NA
2016/11/23 22:17:00	AWS2	6.84	339	9.88	199	M	M	M	NA	NA	977.9	NA	NA		M	NA	NA	NA	NA
2016/11/23 22:18:00	AWS2	6.49	333	9.88	199	M	M	M	NA	NA	977.7	NA	NA		M	NA	NA	NA	NA
2016/11/23 22:19:00	AWS2	5.74	327	9.88	199	M	M	M	NA	NA	977.7	NA	NA		M	NA	NA	NA	NA
2016/11/23 22:20:00	AWS2	5.61	331	9.88	199	M	M	M	NA	NA	978.0	NA	NA		M	NA	NA	NA	NA
2016/11/23 22:21:00	AWS2	6.19	339	9.88	199	M	M	M	NA	NA	978.0	NA	NA		M	NA	NA	NA	NA
2016/11/23 22:22:00	AWS2	6.19	337	9.88	199	M	M	M	NA	NA	978.1	NA	NA		M	NA	NA	NA	NA
2016/11/23 22:23:00	AWS2	5.46	331	9.88	199	M	M	M	NA	NA	978.2	NA	NA		M	NA	NA	NA	NA
2016/11/23 22:24:00	AWS2	5.35	329	9.88	199	M	M	M	NA	NA	978.2	NA	NA		M	NA	NA	NA	NA
2016/11/23 22:25:00	AWS2	6.53	341	10.13	349	M	M	M	NA	NA	978.3	NA	NA		M	NA	NA	NA	NA
2016/11/23 22:26:00	AWS2	6.28	333	10.13	349	M	M	M	NA	NA	977.8	NA	NA		M	NA	NA	NA	NA
2016/11/23 22:27:00	AWS2	5.17	309	10.13	349	M	M	M	NA	NA	977.7	NA	NA		M	NA	NA	NA	NA
2016/11/23 22:28:00	AWS2	5.35	312	10.13	349	M	M	M	NA	NA	978.1	NA	NA		M	NA	NA	NA	NA
2016/11/23 22:29:00	AWS2	5.62	316	10.13	349	M	M	M	NA	NA	977.8	NA	NA		M	NA	NA	NA	NA
2016/11/23 22:30:00	AWS2	5.25	314	10.13	349	M	M	M	NA	NA	978.0	NA	NA		M	NA	NA	NA	NA
2016/11/23 22:31:00	AWS2	4.83	310	10.13	349	M	M	M	NA	NA	977.7	NA	NA		M	NA	NA	NA	NA
2016/11/23 22:32:00	AWS2	4.80	300	10.13	349	M	M	M	NA	NA	977.7	NA	NA		M	NA	NA	NA	NA
2016/11/23 22:33:00	AWS2	5.04	303	10.13	349	M	M	M	NA	NA	977.7	NA	NA		M	NA	NA	NA	NA
2016/11/23 22:34:00	AWS2	5.10	306	10.13	349	M	M	M	NA	NA	977.6	NA	NA		M	NA	NA	NA	NA
2016/11/23 22:35:00	AWS2	5.13	312	7.92	339	M	M	M	NA	NA	977.9	NA	NA		M	NA	NA	NA	NA
2016/11/23 22:36:00	AWS2	5.77	327	7.92	339	M	M	M	NA	NA	977.8	NA	NA		M	NA	NA	NA	NA
2016/11/23 22:37:00	AWS2	5.41	332	7.92	339	M	M	M	NA	NA	978.0	NA	NA		M	NA	NA	NA	NA
2016/11/23 22:38:00	AWS2	5.17	332	7.92	339	M	M	M	NA	NA	978.3	NA	NA		M	NA	NA	NA	NA
2016/11/23 22:39:00	AWS2	5.61	335	8.54	343	M	M	M	NA	NA	978.4	NA	NA		M	NA	NA	NA	NA
2016/11/23 22:40:00	AWS2	5.62	333	8.54	343	M	M	M	NA	NA	978.3	NA	NA		M	NA	NA	NA	NA
2016/11/23 22:41:00	AWS2	5.50	335	8.54	343	M	M	M	NA	NA	978.0	NA	NA		M	NA	NA	NA	NA
2016/11/23 22:42:00	AWS2	5.31	335	8.54	343	M	M	M	NA	NA	978.0	NA	NA		M	NA	NA	NA	NA
2016/11/23 22:43:00	AWS2	5.78	342	8.54	343	M	M	M	NA	NA	978.3	NA	NA		M	NA	NA	NA	NA
2016/11/23 22:44:00	AWS2	5.77	342	8.54	343	M	M	M	NA	NA	978.4	NA	NA		M	NA	NA	NA	NA
2016/11/23 22:45:00	AWS2	5.94	337	9.77	82	M	M	M	NA	NA	978.3	NA	NA		M	NA	NA	NA	NA
2016/11/23 22:46:00	AWS2	6.73	334	9.77	82	M	M	M	NA	NA	978.2	NA	NA		M	NA	NA	NA	NA
2016/11/23 22:47:00	AWS2	7.14	336	9.77	82	M	M	M	NA	NA	978.5	NA	NA		M	NA	NA	NA	NA
2016/11/23 22:48:00	AWS2	7.14	343	9.77	82	M	M	M	NA	NA	978.3	NA	NA		M	NA	NA	NA	NA
2016/11/23 22:49:00	AWS2	7.18	346	9.77	82	M	M	M	NA	NA	978.5	NA	NA		M	NA	NA	NA	NA
2016/11/23 22:50:00	AWS2	7.36	346	9.77	82	M	M	M	NA	NA	978.5	NA	NA		M	NA	NA	NA	NA
2016/11/23 22:51:00	AWS2	6.92	345	10.24	345	M	M	M	NA	NA	978.6	NA	NA		M	NA	NA	NA	NA
2016/11/23 22:52:00	AWS2	7.03	344	10.65	347	M	M	M	NA	NA	978.6	NA	NA		M	NA	NA	NA	NA
2016/11/23 22:53:00	AWS2	7.46	341	10.65	347	M	M	M	NA	NA	978.4	NA	NA		M	NA	NA	NA	NA
2016/11/23 22:54:00	AWS2	7.52	342	10.65	347	M	M	M	NA	NA	978.4	NA	NA		M	NA	NA	NA	NA
2016/11/23 22:55:00	AWS2	8.53	347	11.78	341	M	M	M	NA	NA	978.3	NA	NA		M	NA	NA	NA	NA
2016/11/23 22:56:00	AWS2	9.20	350	11.78	341	M	M	M	NA	NA	978.4	NA	NA		M	NA	NA	NA	NA
2016/11/23 22:57:00	AWS2	8.14	348	11.78	341	M	M	M	NA	NA	978.5	NA	NA		M	NA	NA	NA	NA
2016/11/23 22:58:00	AWS2	8.09	345	11.78	341	M	M	M	NA	NA	978.5	NA	NA		M	NA	NA	NA	NA
2016/11/23 22:59:00	AWS2	8.42	342	11.78	341	M	M	M	NA	NA	978.4	NA	NA		M	NA	NA	NA	NA
2016/11/23 23:00:00	AWS2	7.93	341	11.78	341	M	M	M	NA	NA	978.4	NA	NA		M	NA	NA	NA	NA
2016/11/23 23:01:00	AWS2	8.33	344	11.78	341	M	M	M	NA	NA	978.4	NA	NA		M	NA	NA	NA	NA
2016/11/23 23:02:00	AWS2	8.07	344	11.78	341	M	M	M	NA	NA	978.5	NA	NA		M	NA	NA	NA	NA
2016/11/23 23:03:00	AWS2	7.79	346	11.78	341	M	M	M	NA	NA	978.5	NA	NA		M	NA	NA	NA	NA
2016/11/23 23:04:00	AWS2	8.86	343	12.55	347	M	M	M	NA	NA	978.3	NA	NA		M	NA	NA	NA	NA
2016/11/23 23:05:00	AWS2	9.62	343	12.55	347	M	M	M	NA	NA	978.3	NA	NA		M	NA	NA	NA	NA
2016/11/23 23:06:00	AWS2	8.71	343	12.55	347	M	M	M	NA	NA	978.5	NA	NA		M	NA	NA	NA	NA
2016/11/23 23:07:00	AWS2	8.34	343	12.55	347	M	M	M	NA	NA	978.4	NA	NA		M	NA	NA	NA	NA
2016/11/23 23:08:00	AWS2	8.06	348	12.55	347	M	M	M	NA	NA	978.4	NA	NA		M	NA	NA	NA	NA
2016/11/23 23:09:00	AWS2	8.35	348	12.55	347	M	M	M	NA	NA	978.3	NA	NA		M	NA	NA	NA	NA
2016/11/23 23:10:00	AWS2	10.10	347	12.55	347	M	M	M	NA	NA	978.2	NA	NA		M	NA	NA	NA	NA
2016/11/23 23:11:00	AWS2	9.92	348	12.55	347	M	M	M	NA	NA	978.3	NA	NA		M	NA	NA	NA	NA
2016/11/23 23:12:00	AWS2	9.74	350	12.55	347	M	M	M	NA	NA	978.2	NA	NA		M	NA	NA	NA	NA
2016/11/23 23:13:00	AWS2	9.73	347	12.55	347	M	M	M	NA	NA	978.2	NA	NA		M	NA	NA	NA	NA
2016/11/23 23:14:00	AWS2	9.11	344	12.14	346	M	M	M	NA	NA	978.4	NA	NA		M	NA	NA	NA	NA
2016/11/23 23:15:00	AWS2	8.87	348	12.24	354	M	M	M	NA	NA	978.5	NA	NA		M	NA	NA	NA	NA
2016/11/23 23:16:00	AWS2	8.86	350	12.24	354	M	M	M	NA	NA	978.3	NA	NA		M	NA	NA	NA	NA
2016/11/23 23:17:00	AWS2	9.16	348	12.24	354	M	M	M	NA	NA	978.3	NA	NA		M	NA	NA	NA	NA
2016/11/23 23:18:00	AWS2	9.08	345	12.24	354	M	M	M	NA	NA	978.3	NA	NA		M	NA	NA	NA	NA
2016/11/23 23:19:00	AWS2	9.26	344	12.24	354	M	M	M	NA	NA	978.3	NA	NA		M	NA	NA	NA	NA
2016/11/23 23:20:00	AWS2	9.84	345	12.30	350	M	M	M	NA	NA	978.2	NA	NA		M	NA	NA	NA	NA
2016/11/23 23:21:00	AWS2	9.46	345	12.30	350	M	M	M	NA	NA	978.3	NA	NA		M	NA	NA	NA	NA
2016/11/23 23:22:00	AWS2	8.18	341	12.30	350	M	M	M	NA	NA	978.4	NA	NA		M	NA	NA	NA	NA
2016/11/23 23:23:00	AWS2	8.76	342	12.30	350	M	M	M	NA	NA	978.4	NA	NA		M	NA	NA	NA	NA
2016/11/23 23:24:00	AWS2	9.24	343	12.30	350	M	M	M	NA	NA	978.4	NA	NA		M	NA	NA	NA	NA
2016/11/23 23:25:00	AWS2	8.48	342	12.30	350	M	M	M	NA	NA	978.4	NA	NA		M	NA	NA	NA	NA
2016/11/23 23:26:00	AWS2	8.18	343	12.30	350	M	M	M	NA	NA	978.3	NA	NA		M	NA	NA	NA	NA
2016/11/23 23:27:00	AWS2	7.55	343	12.30	350	M	M	M	NA	NA	978.4	NA	NA		M	NA	NA	NA	NA
2016/11/23 23:28:00	AWS2	7.33	345	12.30	350	M	M	M	NA	NA	978.5	NA	NA		M	NA	NA	NA	NA
2016/11/23 23:29:00	AWS2	8.02	350	12.30	350	M	M	M	NA	NA	978.4	NA	NA		M	NA	NA	NA	NA
2016/11/23 23:30:00	AWS2	8.14	347	11.42	344	M	M	M	NA	NA	978.4	NA	NA		M	NA	NA	NA	NA
2016/11/23 23:31:00	AWS2	7.94	346	11.42	344	M	M	M	NA	NA	978.4	NA	NA		M	NA	NA	NA	NA
2016/11/23 23:32:00	AWS2	8.69	349	11.42	344	M	M	M	NA	NA	978.5	NA	NA		M	NA	NA	NA	NA
2016/11/23 23:33:00	AWS2	8.93	349	10.65	343	M	M	M	NA	NA	978.5	NA	NA		M	NA	NA	NA	NA
2016/11/23 23:34:00	AWS2	8.95	351	11.57	350	M	M	M	NA	NA	978.4	NA	NA		M	NA	NA	NA	NA
2016/11/23 23:35:00	AWS2	9.64	351	11.57	350	M	M	M	NA	NA	978.2	NA	NA		M	NA	NA	NA	NA
2016/11/23 23:36:00	AWS2	9.97	348	11.57	350	M	M	M	NA	NA	978.2	NA	NA		M	NA	NA	NA	NA
2016/11/23 23:37:00	AWS2	10.07	348	11.57	350	M	M	M	NA	NA	978.1	NA	NA		M	NA	NA	NA	NA
2016/11/23 23:38:00	AWS2	9.95	348	11.57	350	M	M	M	NA	NA	978.3	NA	NA		M	NA	NA	NA	NA
2016/11/23 23:39:00	AWS2	9.00	347	11.57	350	M	M	M	NA	NA	978.2	NA	NA		M	NA	NA	NA	NA
2016/11/23 23:40:00	AWS2	8.81	346	11.57	350	M	M	M	NA	NA	978.1	NA	NA		M	NA	NA	NA	NA
2016/11/23 23:41:00	AWS2	9.46	346	11.57	350	M	M	M	NA	NA	978.1	NA	NA		M	NA	NA	NA	NA
2016/11/23 23:42:00	AWS2	9.87	347	11.94	348	M	M	M	NA	NA	978.3	NA	NA		M	NA	NA	NA	NA
2016/11/23 23:43:00	AWS2	9.53	348	11.94	348	M	M	M	NA	NA	978.3	NA	NA		M	NA	NA	NA	NA
2016/11/23 23:44:00	AWS2	9.38	345	11.94	348	M	M	M	NA	NA	978.2	NA	NA		M	NA	NA	NA	NA
2016/11/23 23:45:00	AWS2	9.96	344	11.94	348	M	M	M	NA	NA	978.2	NA	NA		M	NA	NA	NA	NA
2016/11/23 23:46:00	AWS2	9.90	348	11.94	348	M	M	M	NA	NA	978.3	NA	NA		M	NA	NA	NA	NA
2016/11/23 23:47:00	AWS2	9.60	349	12.40	342	M	M	M	NA	NA	978.4	NA	NA		M	NA	NA	NA	NA
2016/11/23 23:48:00	AWS2	9.96	349	12.40	342	M	M	M	NA	NA	978.2	NA	NA		M	NA	NA	NA	NA
2016/11/23 23:49:00	AWS2	9.83	345	12.40	342	M	M	M	NA	NA	978.2	NA	NA		M	NA	NA	NA	NA
2016/11/23 23:50:00	AWS2	9.87	345	12.40	342	M	M	M	NA	NA	978.1	NA	NA		M	NA	NA	NA	NA
2016/11/23 23:51:00	AWS2	10.10	347	12.40	342	M	M	M	NA	NA	978.3	NA	NA		M	NA	NA	NA	NA
2016/11/23 23:52:00	AWS2	9.81	347	12.40	342	M	M	M	NA	NA	978.4	NA	NA		M	NA	NA	NA	NA
2016/11/23 23:53:00	AWS2	9.82	345	12.40	342	M	M	M	NA	NA	978.3	NA	NA		M	NA	NA	NA	NA
2016/11/23 23:54:00	AWS2	9.43	343	12.40	342	M	M	M	NA	NA	978.3	NA	NA		M	NA	NA	NA	NA
2016/11/23 23:55:00	AWS2	9.04	345	12.40	342	M	M	M	NA	NA	978.3	NA	NA		M	NA	NA	NA	NA
2016/11/23 23:56:00	AWS2	8.85	347	12.40	342	M	M	M	NA	NA	978.4	NA	NA		M	NA	NA	NA	NA
2016/11/23 23:57:00	AWS2	9.17	348	12.35	348	M	M	M	NA	NA	978.3	NA	NA		M	NA	NA	NA	NA
2016/11/23 23:58:00	AWS2	9.07	345	12.35	348	M	M	M	NA	NA	978.3	NA	NA		M	NA	NA	NA	NA
2016/11/23 23:59:00	AWS2	7.79	344	12.35	348	M	M	M	NA	NA	978.2	NA	NA		M	NA	NA	NA	NA